<?xml version='1.0' encoding='UTF-8'?><gpx version="1.1" creator="JPX - https://github.com/jenetics/jpx" xmlns="http://www.topografix.com/GPX/1/1"><trk><trkseg><trkpt lat="40.7205662" lon="14.8736985"><ele>351.0</ele><time>2026-04-13T15:42:42.952Z</time></trkpt><trkpt lat="40.7206368" lon="14.8737228"><ele>351.0</ele><time>2026-04-13T15:42:46.961Z</time></trkpt><trkpt lat="40.7206981" lon="14.8737709"><ele>351.0</ele><time>2026-04-13T15:42:53.964Z</time></trkpt><trkpt lat="40.7207812" lon="14.8736953"><ele>351.0</ele><time>2026-04-13T15:43:55.969Z</time></trkpt><trkpt lat="40.7207248" lon="14.8737404"><ele>351.0</ele><time>2026-04-13T15:46:05.972Z</time></trkpt><trkpt lat="40.7206759" lon="14.8735546"><ele>351.0</ele><time>2026-04-13T15:46:09.967Z</time></trkpt><trkpt lat="40.7206129" lon="14.8735632"><ele>351.0</ele><time>2026-04-13T15:46:14.967Z</time></trkpt><trkpt lat="40.7206372" lon="14.8736561"><ele>351.0</ele><time>2026-04-13T15:46:15.967Z</time></trkpt><trkpt lat="40.7206601" lon="14.8737481"><ele>351.0</ele><time>2026-04-13T15:46:16.965Z</time></trkpt><trkpt lat="40.7206563" lon="14.8738912"><ele>351.0</ele><time>2026-04-13T15:46:18.965Z</time></trkpt><trkpt lat="40.7206937" lon="14.8739998"><ele>351.0</ele><time>2026-04-13T15:46:20.972Z</time></trkpt><trkpt lat="40.7208227" lon="14.8740125"><ele>351.0</ele><time>2026-04-13T15:46:22.962Z</time></trkpt><trkpt lat="40.7209008" lon="14.873986"><ele>351.0</ele><time>2026-04-13T15:46:23.963Z</time></trkpt><trkpt lat="40.720984" lon="14.8739545"><ele>351.0</ele><time>2026-04-13T15:46:24.96Z</time></trkpt><trkpt lat="40.7210722" lon="14.8739269"><ele>351.0</ele><time>2026-04-13T15:46:25.964Z</time></trkpt><trkpt lat="40.7211672" lon="14.8738909"><ele>351.0</ele><time>2026-04-13T15:46:26.963Z</time></trkpt><trkpt lat="40.7212655" lon="14.8738565"><ele>353.1666666666667</ele><time>2026-04-13T15:46:27.964Z</time></trkpt><trkpt lat="40.7213518" lon="14.8738333"><ele>355.3333333333333</ele><time>2026-04-13T15:46:28.964Z</time></trkpt><trkpt lat="40.7214377" lon="14.8738094"><ele>357.5</ele><time>2026-04-13T15:46:29.966Z</time></trkpt><trkpt lat="40.7215172" lon="14.8737811"><ele>359.66666666666663</ele><time>2026-04-13T15:46:30.967Z</time></trkpt><trkpt lat="40.7215966" lon="14.8737592"><ele>361.8333333333333</ele><time>2026-04-13T15:46:31.962Z</time></trkpt><trkpt lat="40.7216706" lon="14.8737861"><ele>364.0</ele><time>2026-04-13T15:46:32.965Z</time></trkpt><trkpt lat="40.7217426" lon="14.8738676"><ele>364.0</ele><time>2026-04-13T15:46:33.964Z</time></trkpt><trkpt lat="40.7218355" lon="14.8739418"><ele>364.0</ele><time>2026-04-13T15:46:34.966Z</time></trkpt><trkpt lat="40.7219456" lon="14.8739676"><ele>364.0</ele><time>2026-04-13T15:46:35.964Z</time></trkpt><trkpt lat="40.7220518" lon="14.8739812"><ele>364.0</ele><time>2026-04-13T15:46:36.963Z</time></trkpt><trkpt lat="40.7221643" lon="14.8739895"><ele>364.0</ele><time>2026-04-13T15:46:37.962Z</time></trkpt><trkpt lat="40.7222793" lon="14.8739892"><ele>366.0</ele><time>2026-04-13T15:46:38.963Z</time></trkpt><trkpt lat="40.7223878" lon="14.8739782"><ele>368.0</ele><time>2026-04-13T15:46:39.955Z</time></trkpt><trkpt lat="40.7224919" lon="14.8739683"><ele>370.0</ele><time>2026-04-13T15:46:40.968Z</time></trkpt><trkpt lat="40.7225935" lon="14.8739332"><ele>372.0</ele><time>2026-04-13T15:46:41.963Z</time></trkpt><trkpt lat="40.7227023" lon="14.87388"><ele>374.0</ele><time>2026-04-13T15:46:42.965Z</time></trkpt><trkpt lat="40.7228108" lon="14.8738163"><ele>376.75</ele><time>2026-04-13T15:46:43.967Z</time></trkpt><trkpt lat="40.7229245" lon="14.8737505"><ele>379.5</ele><time>2026-04-13T15:46:44.973Z</time></trkpt><trkpt lat="40.7230297" lon="14.8736792"><ele>382.25</ele><time>2026-04-13T15:46:45.962Z</time></trkpt><trkpt lat="40.7231272" lon="14.8736048"><ele>385.0</ele><time>2026-04-13T15:46:46.966Z</time></trkpt><trkpt lat="40.7232173" lon="14.8735174"><ele>386.4</ele><time>2026-04-13T15:46:47.955Z</time></trkpt><trkpt lat="40.7232919" lon="14.873431"><ele>387.8</ele><time>2026-04-13T15:46:48.95Z</time></trkpt><trkpt lat="40.7233495" lon="14.8733218"><ele>389.20000000000005</ele><time>2026-04-13T15:46:49.956Z</time></trkpt><trkpt lat="40.7234066" lon="14.8731968"><ele>390.6</ele><time>2026-04-13T15:46:50.959Z</time></trkpt><trkpt lat="40.7234543" lon="14.8730537"><ele>392.0</ele><time>2026-04-13T15:46:51.954Z</time></trkpt><trkpt lat="40.7234936" lon="14.8729215"><ele>392.0</ele><time>2026-04-13T15:46:52.961Z</time></trkpt><trkpt lat="40.7235286" lon="14.8727816"><ele>392.0</ele><time>2026-04-13T15:46:53.959Z</time></trkpt><trkpt lat="40.7235629" lon="14.8726503"><ele>392.0</ele><time>2026-04-13T15:46:54.96Z</time></trkpt><trkpt lat="40.7236003" lon="14.87254"><ele>392.0</ele><time>2026-04-13T15:46:55.967Z</time></trkpt><trkpt lat="40.7236431" lon="14.8724455"><ele>392.0</ele><time>2026-04-13T15:46:56.965Z</time></trkpt><trkpt lat="40.7236999" lon="14.8723938"><ele>396.6</ele><time>2026-04-13T15:46:57.969Z</time></trkpt><trkpt lat="40.7237722" lon="14.872362"><ele>401.20000000000005</ele><time>2026-04-13T15:46:58.956Z</time></trkpt><trkpt lat="40.7238624" lon="14.8723216"><ele>405.8</ele><time>2026-04-13T15:46:59.968Z</time></trkpt><trkpt lat="40.7239518" lon="14.8722831"><ele>410.4</ele><time>2026-04-13T15:47:00.964Z</time></trkpt><trkpt lat="40.7240318" lon="14.8722601"><ele>415.0</ele><time>2026-04-13T15:47:01.952Z</time></trkpt><trkpt lat="40.7241427" lon="14.8722544"><ele>415.00000000000006</ele><time>2026-04-13T15:47:03.964Z</time></trkpt><trkpt lat="40.724214" lon="14.8722934"><ele>415.0</ele><time>2026-04-13T15:47:06.963Z</time></trkpt><trkpt lat="40.7242779" lon="14.8723425"><ele>415.0</ele><time>2026-04-13T15:47:10.97Z</time></trkpt><trkpt lat="40.7243679" lon="14.8724044"><ele>415.0</ele><time>2026-04-13T15:47:12.962Z</time></trkpt><trkpt lat="40.7244559" lon="14.8724425"><ele>415.00000000000006</ele><time>2026-04-13T15:47:13.968Z</time></trkpt><trkpt lat="40.7245447" lon="14.8724504"><ele>415.0</ele><time>2026-04-13T15:47:14.967Z</time></trkpt><trkpt lat="40.7246322" lon="14.8724385"><ele>417.33333333333337</ele><time>2026-04-13T15:47:15.969Z</time></trkpt><trkpt lat="40.7247067" lon="14.8724436"><ele>419.6666666666667</ele><time>2026-04-13T15:47:16.965Z</time></trkpt><trkpt lat="40.724822" lon="14.8724596"><ele>422.0</ele><time>2026-04-13T15:47:18.957Z</time></trkpt><trkpt lat="40.7249211" lon="14.8724102"><ele>424.33333333333337</ele><time>2026-04-13T15:47:21.961Z</time></trkpt><trkpt lat="40.7249823" lon="14.8723696"><ele>426.6666666666667</ele><time>2026-04-13T15:47:22.965Z</time></trkpt><trkpt lat="40.7250554" lon="14.8723225"><ele>429.0</ele><time>2026-04-13T15:47:23.961Z</time></trkpt><trkpt lat="40.7251343" lon="14.8722653"><ele>429.0</ele><time>2026-04-13T15:47:25.961Z</time></trkpt><trkpt lat="40.7251161" lon="14.8721667"><ele>429.0</ele><time>2026-04-13T15:47:27.967Z</time></trkpt><trkpt lat="40.7251026" lon="14.8720448"><ele>429.0</ele><time>2026-04-13T15:47:29.968Z</time></trkpt><trkpt lat="40.7251252" lon="14.8719477"><ele>429.0</ele><time>2026-04-13T15:47:32.967Z</time></trkpt><trkpt lat="40.7251871" lon="14.8718971"><ele>429.0</ele><time>2026-04-13T15:47:34.974Z</time></trkpt><trkpt lat="40.7252173" lon="14.871793"><ele>429.0</ele><time>2026-04-13T15:47:37.964Z</time></trkpt><trkpt lat="40.7252446" lon="14.8717152"><ele>434.0</ele><time>2026-04-13T15:47:39.965Z</time></trkpt><trkpt lat="40.7253401" lon="14.8717686"><ele>439.0</ele><time>2026-04-13T15:47:42.961Z</time></trkpt><trkpt lat="40.7253962" lon="14.8718296"><ele>444.0</ele><time>2026-04-13T15:47:44.963Z</time></trkpt><trkpt lat="40.7254952" lon="14.8718344"><ele>449.0</ele><time>2026-04-13T15:47:47.967Z</time></trkpt><trkpt lat="40.7255612" lon="14.8718528"><ele>454.0</ele><time>2026-04-13T15:47:49.968Z</time></trkpt><trkpt lat="40.7256337" lon="14.8719344"><ele>459.0</ele><time>2026-04-13T15:47:51.964Z</time></trkpt><trkpt lat="40.7256522" lon="14.8720406"><ele>460.2</ele><time>2026-04-13T15:47:52.97Z</time></trkpt><trkpt lat="40.7256656" lon="14.87218"><ele>461.4</ele><time>2026-04-13T15:47:53.963Z</time></trkpt><trkpt lat="40.7256755" lon="14.872311"><ele>462.6</ele><time>2026-04-13T15:47:54.96Z</time></trkpt><trkpt lat="40.7256826" lon="14.8724473"><ele>463.8</ele><time>2026-04-13T15:47:55.966Z</time></trkpt><trkpt lat="40.72568" lon="14.8725842"><ele>465.0</ele><time>2026-04-13T15:47:56.964Z</time></trkpt><trkpt lat="40.7256955" lon="14.8727425"><ele>465.75</ele><time>2026-04-13T15:47:57.966Z</time></trkpt><trkpt lat="40.7257154" lon="14.8729035"><ele>466.5</ele><time>2026-04-13T15:47:58.966Z</time></trkpt><trkpt lat="40.7257443" lon="14.8730634"><ele>467.25</ele><time>2026-04-13T15:47:59.963Z</time></trkpt><trkpt lat="40.7257652" lon="14.873219"><ele>468.0</ele><time>2026-04-13T15:48:00.967Z</time></trkpt><trkpt lat="40.7257822" lon="14.8733812"><ele>466.75</ele><time>2026-04-13T15:48:01.965Z</time></trkpt><trkpt lat="40.7258068" lon="14.8735369"><ele>465.5</ele><time>2026-04-13T15:48:02.965Z</time></trkpt><trkpt lat="40.7258339" lon="14.873702"><ele>464.25</ele><time>2026-04-13T15:48:03.964Z</time></trkpt><trkpt lat="40.7258594" lon="14.8738624"><ele>463.0</ele><time>2026-04-13T15:48:04.965Z</time></trkpt><trkpt lat="40.7258933" lon="14.8740096"><ele>463.0</ele><time>2026-04-13T15:48:05.969Z</time></trkpt><trkpt lat="40.7259368" lon="14.8741394"><ele>462.99999999999994</ele><time>2026-04-13T15:48:06.963Z</time></trkpt><trkpt lat="40.7259858" lon="14.8742621"><ele>462.99999999999994</ele><time>2026-04-13T15:48:07.965Z</time></trkpt><trkpt lat="40.7260488" lon="14.8743695"><ele>463.0</ele><time>2026-04-13T15:48:08.965Z</time></trkpt><trkpt lat="40.7261126" lon="14.8744692"><ele>463.0</ele><time>2026-04-13T15:48:09.965Z</time></trkpt><trkpt lat="40.7261767" lon="14.8745568"><ele>465.59999999999997</ele><time>2026-04-13T15:48:10.956Z</time></trkpt><trkpt lat="40.7262458" lon="14.8746175"><ele>468.19999999999993</ele><time>2026-04-13T15:48:11.966Z</time></trkpt><trkpt lat="40.7263431" lon="14.8746471"><ele>470.8</ele><time>2026-04-13T15:48:12.957Z</time></trkpt><trkpt lat="40.7264455" lon="14.8746565"><ele>473.4</ele><time>2026-04-13T15:48:13.971Z</time></trkpt><trkpt lat="40.7265303" lon="14.874656"><ele>476.0</ele><time>2026-04-13T15:48:14.962Z</time></trkpt><trkpt lat="40.7266177" lon="14.8746325"><ele>476.0</ele><time>2026-04-13T15:48:15.97Z</time></trkpt><trkpt lat="40.7267043" lon="14.874584"><ele>476.0</ele><time>2026-04-13T15:48:16.963Z</time></trkpt><trkpt lat="40.7267929" lon="14.8745439"><ele>476.0</ele><time>2026-04-13T15:48:17.963Z</time></trkpt><trkpt lat="40.7268643" lon="14.8745075"><ele>476.0</ele><time>2026-04-13T15:48:18.965Z</time></trkpt><trkpt lat="40.7269332" lon="14.8744505"><ele>476.0</ele><time>2026-04-13T15:48:20.965Z</time></trkpt><trkpt lat="40.7268214" lon="14.8744671"><ele>475.99999999999994</ele><time>2026-04-13T15:48:25.969Z</time></trkpt><trkpt lat="40.7267275" lon="14.8744303"><ele>476.0</ele><time>2026-04-13T15:48:26.973Z</time></trkpt><trkpt lat="40.7266513" lon="14.8744117"><ele>476.0</ele><time>2026-04-13T15:48:27.966Z</time></trkpt><trkpt lat="40.7265807" lon="14.8743724"><ele>476.0</ele><time>2026-04-13T15:48:28.968Z</time></trkpt><trkpt lat="40.7265214" lon="14.8743158"><ele>475.99999999999994</ele><time>2026-04-13T15:48:29.961Z</time></trkpt><trkpt lat="40.7264744" lon="14.8742296"><ele>476.0</ele><time>2026-04-13T15:48:30.971Z</time></trkpt><trkpt lat="40.7264769" lon="14.874123"><ele>481.0</ele><time>2026-04-13T15:48:32.963Z</time></trkpt><trkpt lat="40.7265609" lon="14.874153"><ele>486.0</ele><time>2026-04-13T15:48:35.968Z</time></trkpt><trkpt lat="40.7266946" lon="14.8741518"><ele>491.0</ele><time>2026-04-13T15:48:37.968Z</time></trkpt><trkpt lat="40.7267712" lon="14.8741224"><ele>496.0</ele><time>2026-04-13T15:48:38.967Z</time></trkpt><trkpt lat="40.7268512" lon="14.8740667"><ele>501.0</ele><time>2026-04-13T15:48:39.959Z</time></trkpt><trkpt lat="40.7269164" lon="14.8740163"><ele>501.4</ele><time>2026-04-13T15:48:40.962Z</time></trkpt><trkpt lat="40.7270044" lon="14.8739553"><ele>501.8</ele><time>2026-04-13T15:48:41.951Z</time></trkpt><trkpt lat="40.7270982" lon="14.8738919"><ele>502.19999999999993</ele><time>2026-04-13T15:48:42.971Z</time></trkpt><trkpt lat="40.7271791" lon="14.8738189"><ele>502.59999999999997</ele><time>2026-04-13T15:48:43.963Z</time></trkpt><trkpt lat="40.7272528" lon="14.8737469"><ele>503.0</ele><time>2026-04-13T15:48:45.035Z</time></trkpt><trkpt lat="40.7273289" lon="14.8736728"><ele>503.0</ele><time>2026-04-13T15:48:45.969Z</time></trkpt><trkpt lat="40.7274216" lon="14.8735926"><ele>503.0</ele><time>2026-04-13T15:48:46.969Z</time></trkpt><trkpt lat="40.7275212" lon="14.8734931"><ele>503.0</ele><time>2026-04-13T15:48:47.971Z</time></trkpt><trkpt lat="40.7276231" lon="14.873378"><ele>503.0</ele><time>2026-04-13T15:48:48.976Z</time></trkpt><trkpt lat="40.7277245" lon="14.8732563"><ele>509.5</ele><time>2026-04-13T15:48:49.969Z</time></trkpt><trkpt lat="40.7278287" lon="14.8731194"><ele>516.0</ele><time>2026-04-13T15:48:50.972Z</time></trkpt><trkpt lat="40.7279284" lon="14.8729901"><ele>522.5</ele><time>2026-04-13T15:48:51.964Z</time></trkpt><trkpt lat="40.7280253" lon="14.8728552"><ele>529.0</ele><time>2026-04-13T15:48:52.97Z</time></trkpt><trkpt lat="40.728127" lon="14.8727266"><ele>534.75</ele><time>2026-04-13T15:48:53.971Z</time></trkpt><trkpt lat="40.7282248" lon="14.8725943"><ele>540.5</ele><time>2026-04-13T15:48:54.974Z</time></trkpt><trkpt lat="40.7283213" lon="14.8724522"><ele>546.25</ele><time>2026-04-13T15:48:55.97Z</time></trkpt><trkpt lat="40.7284347" lon="14.8723213"><ele>552.0</ele><time>2026-04-13T15:48:56.969Z</time></trkpt><trkpt lat="40.7285509" lon="14.8722045"><ele>551.5</ele><time>2026-04-13T15:48:57.967Z</time></trkpt><trkpt lat="40.7286631" lon="14.8721043"><ele>551.0</ele><time>2026-04-13T15:48:58.967Z</time></trkpt><trkpt lat="40.7287737" lon="14.8719931"><ele>550.5</ele><time>2026-04-13T15:48:59.972Z</time></trkpt><trkpt lat="40.7288834" lon="14.8718878"><ele>550.0</ele><time>2026-04-13T15:49:00.965Z</time></trkpt><trkpt lat="40.728989" lon="14.87177"><ele>553.5</ele><time>2026-04-13T15:49:01.971Z</time></trkpt><trkpt lat="40.7290937" lon="14.8716466"><ele>557.0</ele><time>2026-04-13T15:49:02.97Z</time></trkpt><trkpt lat="40.7292" lon="14.8715145"><ele>560.5</ele><time>2026-04-13T15:49:04.034Z</time></trkpt><trkpt lat="40.7293014" lon="14.8713965"><ele>564.0</ele><time>2026-04-13T15:49:05.036Z</time></trkpt><trkpt lat="40.7294151" lon="14.871302"><ele>565.5</ele><time>2026-04-13T15:49:06.04Z</time></trkpt><trkpt lat="40.7295343" lon="14.8712137"><ele>567.0</ele><time>2026-04-13T15:49:06.957Z</time></trkpt><trkpt lat="40.7296598" lon="14.8711171"><ele>568.5</ele><time>2026-04-13T15:49:07.952Z</time></trkpt><trkpt lat="40.7297903" lon="14.8710305"><ele>570.0</ele><time>2026-04-13T15:49:08.97Z</time></trkpt><trkpt lat="40.7299235" lon="14.8709494"><ele>575.25</ele><time>2026-04-13T15:49:10.041Z</time></trkpt><trkpt lat="40.7300639" lon="14.8708621"><ele>580.5</ele><time>2026-04-13T15:49:11.028Z</time></trkpt><trkpt lat="40.7301914" lon="14.8707775"><ele>585.75</ele><time>2026-04-13T15:49:11.959Z</time></trkpt><trkpt lat="40.7303069" lon="14.8707137"><ele>591.0</ele><time>2026-04-13T15:49:12.956Z</time></trkpt><trkpt lat="40.7304094" lon="14.8706752"><ele>592.0</ele><time>2026-04-13T15:49:13.968Z</time></trkpt><trkpt lat="40.730509" lon="14.870637"><ele>593.0</ele><time>2026-04-13T15:49:15.045Z</time></trkpt><trkpt lat="40.7306987" lon="14.8704835"><ele>594.0</ele><time>2026-04-13T15:49:16.968Z</time></trkpt><trkpt lat="40.7308014" lon="14.8704149"><ele>595.0</ele><time>2026-04-13T15:49:18.043Z</time></trkpt><trkpt lat="40.7308962" lon="14.8703599"><ele>595.0</ele><time>2026-04-13T15:49:19.028Z</time></trkpt><trkpt lat="40.7309938" lon="14.8703202"><ele>595.0</ele><time>2026-04-13T15:49:20.038Z</time></trkpt><trkpt lat="40.7310926" lon="14.8702989"><ele>595.0</ele><time>2026-04-13T15:49:21.03Z</time></trkpt><trkpt lat="40.7311742" lon="14.8702988"><ele>595.0</ele><time>2026-04-13T15:49:21.958Z</time></trkpt><trkpt lat="40.7312397" lon="14.8703144"><ele>595.0</ele><time>2026-04-13T15:49:22.961Z</time></trkpt><trkpt lat="40.7313206" lon="14.8703446"><ele>595.0</ele><time>2026-04-13T15:49:25.029Z</time></trkpt><trkpt lat="40.7312708" lon="14.8705036"><ele>599.1428571428571</ele><time>2026-04-13T15:49:27.961Z</time></trkpt><trkpt lat="40.7312498" lon="14.8705956"><ele>603.2857142857142</ele><time>2026-04-13T15:49:29.044Z</time></trkpt><trkpt lat="40.7312175" lon="14.8706767"><ele>607.4285714285714</ele><time>2026-04-13T15:49:30.034Z</time></trkpt><trkpt lat="40.7311836" lon="14.8707538"><ele>611.5714285714286</ele><time>2026-04-13T15:49:31.027Z</time></trkpt><trkpt lat="40.7311615" lon="14.8708387"><ele>615.7142857142857</ele><time>2026-04-13T15:49:31.961Z</time></trkpt><trkpt lat="40.731145" lon="14.8709265"><ele>619.8571428571429</ele><time>2026-04-13T15:49:32.962Z</time></trkpt><trkpt lat="40.7311143" lon="14.8710508"><ele>624.0</ele><time>2026-04-13T15:49:33.965Z</time></trkpt><trkpt lat="40.7311186" lon="14.8711532"><ele>624.4</ele><time>2026-04-13T15:49:34.957Z</time></trkpt><trkpt lat="40.7311222" lon="14.8712475"><ele>624.8</ele><time>2026-04-13T15:49:35.96Z</time></trkpt><trkpt lat="40.7310814" lon="14.8713677"><ele>625.2</ele><time>2026-04-13T15:49:36.959Z</time></trkpt><trkpt lat="40.7310502" lon="14.8714946"><ele>625.6</ele><time>2026-04-13T15:49:37.96Z</time></trkpt><trkpt lat="40.7310296" lon="14.8716198"><ele>626.0</ele><time>2026-04-13T15:49:38.954Z</time></trkpt><trkpt lat="40.7310409" lon="14.8717419"><ele>627.0</ele><time>2026-04-13T15:49:39.962Z</time></trkpt><trkpt lat="40.7310546" lon="14.8718521"><ele>628.0</ele><time>2026-04-13T15:49:40.961Z</time></trkpt><trkpt lat="40.7310768" lon="14.8719675"><ele>629.0</ele><time>2026-04-13T15:49:41.962Z</time></trkpt><trkpt lat="40.7310889" lon="14.8720723"><ele>630.0</ele><time>2026-04-13T15:49:42.967Z</time></trkpt><trkpt lat="40.7311" lon="14.8721704"><ele>631.0</ele><time>2026-04-13T15:49:43.958Z</time></trkpt><trkpt lat="40.731111" lon="14.8722649"><ele>632.0</ele><time>2026-04-13T15:49:46.961Z</time></trkpt><trkpt lat="40.7311478" lon="14.8723369"><ele>632.0</ele><time>2026-04-13T15:49:51.959Z</time></trkpt><trkpt lat="40.7311883" lon="14.8724374"><ele>632.0</ele><time>2026-04-13T15:49:53.953Z</time></trkpt><trkpt lat="40.7311991" lon="14.8725453"><ele>632.0</ele><time>2026-04-13T15:49:54.959Z</time></trkpt><trkpt lat="40.7312332" lon="14.8726394"><ele>632.0</ele><time>2026-04-13T15:49:55.958Z</time></trkpt><trkpt lat="40.7312762" lon="14.8727381"><ele>632.0</ele><time>2026-04-13T15:49:56.951Z</time></trkpt><trkpt lat="40.7313058" lon="14.8728513"><ele>632.0</ele><time>2026-04-13T15:49:58.041Z</time></trkpt><trkpt lat="40.7313509" lon="14.872973"><ele>631.3333333333333</ele><time>2026-04-13T15:49:59.046Z</time></trkpt><trkpt lat="40.7314115" lon="14.873089"><ele>630.6666666666666</ele><time>2026-04-13T15:50:00.034Z</time></trkpt><trkpt lat="40.7314608" lon="14.8732027"><ele>630.0</ele><time>2026-04-13T15:50:01.041Z</time></trkpt><trkpt lat="40.731514" lon="14.8732673"><ele>629.3333333333334</ele><time>2026-04-13T15:50:01.956Z</time></trkpt><trkpt lat="40.7315759" lon="14.8733205"><ele>628.6666666666667</ele><time>2026-04-13T15:50:02.959Z</time></trkpt><trkpt lat="40.7316539" lon="14.8733587"><ele>628.0</ele><time>2026-04-13T15:50:03.956Z</time></trkpt><trkpt lat="40.731721" lon="14.8734033"><ele>627.3333333333334</ele><time>2026-04-13T15:50:04.991Z</time></trkpt><trkpt lat="40.7317813" lon="14.8734738"><ele>626.6666666666667</ele><time>2026-04-13T15:50:05.961Z</time></trkpt><trkpt lat="40.7318455" lon="14.8735475"><ele>626.0</ele><time>2026-04-13T15:50:06.961Z</time></trkpt><trkpt lat="40.7319242" lon="14.8736121"><ele>625.3333333333334</ele><time>2026-04-13T15:50:07.976Z</time></trkpt><trkpt lat="40.732001" lon="14.87367"><ele>624.6666666666666</ele><time>2026-04-13T15:50:09.028Z</time></trkpt><trkpt lat="40.7320818" lon="14.8737365"><ele>624.0</ele><time>2026-04-13T15:50:10.043Z</time></trkpt><trkpt lat="40.7321569" lon="14.8737909"><ele>624.0</ele><time>2026-04-13T15:50:11.062Z</time></trkpt><trkpt lat="40.73223" lon="14.8738432"><ele>624.0</ele><time>2026-04-13T15:50:11.962Z</time></trkpt><trkpt lat="40.732284" lon="14.8739018"><ele>624.0</ele><time>2026-04-13T15:50:13.044Z</time></trkpt><trkpt lat="40.7323221" lon="14.8739681"><ele>624.0</ele><time>2026-04-13T15:50:14.032Z</time></trkpt><trkpt lat="40.7323991" lon="14.8740602"><ele>624.0</ele><time>2026-04-13T15:50:16.03Z</time></trkpt><trkpt lat="40.7324493" lon="14.8741246"><ele>624.0</ele><time>2026-04-13T15:50:17.958Z</time></trkpt><trkpt lat="40.7324561" lon="14.8742286"><ele>623.3333333333334</ele><time>2026-04-13T15:50:30.029Z</time></trkpt><trkpt lat="40.7324154" lon="14.8743091"><ele>622.6666666666666</ele><time>2026-04-13T15:50:32.966Z</time></trkpt><trkpt lat="40.73236" lon="14.8743689"><ele>622.0</ele><time>2026-04-13T15:50:36.028Z</time></trkpt><trkpt lat="40.7324163" lon="14.8744433"><ele>621.3333333333333</ele><time>2026-04-13T15:50:38.981Z</time></trkpt><trkpt lat="40.7324912" lon="14.8744989"><ele>620.6666666666666</ele><time>2026-04-13T15:50:40.972Z</time></trkpt><trkpt lat="40.732494" lon="14.874604"><ele>620.0</ele><time>2026-04-13T15:50:42.973Z</time></trkpt><trkpt lat="40.7324296" lon="14.8746752"><ele>620.0</ele><time>2026-04-13T15:50:45.959Z</time></trkpt><trkpt lat="40.7323679" lon="14.8747368"><ele>620.0</ele><time>2026-04-13T15:50:47.965Z</time></trkpt><trkpt lat="40.7322878" lon="14.8747677"><ele>620.0</ele><time>2026-04-13T15:50:49.966Z</time></trkpt><trkpt lat="40.7321984" lon="14.8747187"><ele>620.0</ele><time>2026-04-13T15:50:51.96Z</time></trkpt><trkpt lat="40.7321244" lon="14.8746522"><ele>620.0</ele><time>2026-04-13T15:50:53.978Z</time></trkpt><trkpt lat="40.7320635" lon="14.8746203"><ele>620.0</ele><time>2026-04-13T15:50:56.978Z</time></trkpt><trkpt lat="40.732001" lon="14.8746492"><ele>620.0</ele><time>2026-04-13T15:50:59.974Z</time></trkpt><trkpt lat="40.7319299" lon="14.8746283"><ele>620.0</ele><time>2026-04-13T15:51:02.978Z</time></trkpt><trkpt lat="40.7318838" lon="14.8747193"><ele>620.0</ele><time>2026-04-13T15:51:06.055Z</time></trkpt><trkpt lat="40.7318938" lon="14.8748217"><ele>620.0</ele><time>2026-04-13T15:51:07.965Z</time></trkpt><trkpt lat="40.7318771" lon="14.8749276"><ele>620.0</ele><time>2026-04-13T15:51:09.963Z</time></trkpt><trkpt lat="40.7318131" lon="14.8749027"><ele>620.0</ele><time>2026-04-13T15:51:11.961Z</time></trkpt><trkpt lat="40.7317427" lon="14.8748638"><ele>618.6</ele><time>2026-04-13T15:51:14.044Z</time></trkpt><trkpt lat="40.7316647" lon="14.874828"><ele>617.2</ele><time>2026-04-13T15:51:16.962Z</time></trkpt><trkpt lat="40.7316074" lon="14.8749243"><ele>615.8</ele><time>2026-04-13T15:51:19.961Z</time></trkpt><trkpt lat="40.7315717" lon="14.8750638"><ele>614.4</ele><time>2026-04-13T15:51:21.964Z</time></trkpt><trkpt lat="40.7315475" lon="14.8751672"><ele>613.0</ele><time>2026-04-13T15:51:22.967Z</time></trkpt><trkpt lat="40.7315198" lon="14.8752767"><ele>611.5</ele><time>2026-04-13T15:51:24.984Z</time></trkpt><trkpt lat="40.7315557" lon="14.8753591"><ele>610.0</ele><time>2026-04-13T15:51:26.975Z</time></trkpt><trkpt lat="40.7316615" lon="14.875389"><ele>608.5</ele><time>2026-04-13T15:51:28.973Z</time></trkpt><trkpt lat="40.7317636" lon="14.8753641"><ele>607.0</ele><time>2026-04-13T15:51:30.971Z</time></trkpt><trkpt lat="40.7318225" lon="14.8753249"><ele>605.5</ele><time>2026-04-13T15:51:32.974Z</time></trkpt><trkpt lat="40.7318968" lon="14.8752923"><ele>604.0</ele><time>2026-04-13T15:51:34.973Z</time></trkpt><trkpt lat="40.7319764" lon="14.8752595"><ele>607.2</ele><time>2026-04-13T15:51:36.972Z</time></trkpt><trkpt lat="40.7320702" lon="14.8752157"><ele>610.4</ele><time>2026-04-13T15:51:38.975Z</time></trkpt><trkpt lat="40.7321476" lon="14.8751486"><ele>613.6</ele><time>2026-04-13T15:51:40.991Z</time></trkpt><trkpt lat="40.7322113" lon="14.8750997"><ele>616.8</ele><time>2026-04-13T15:51:42.957Z</time></trkpt><trkpt lat="40.7322845" lon="14.8750626"><ele>620.0</ele><time>2026-04-13T15:51:44.96Z</time></trkpt><trkpt lat="40.7323881" lon="14.8750162"><ele>620.0</ele><time>2026-04-13T15:51:46.973Z</time></trkpt><trkpt lat="40.7324555" lon="14.874973"><ele>620.0</ele><time>2026-04-13T15:51:47.978Z</time></trkpt><trkpt lat="40.7325164" lon="14.874927"><ele>620.0</ele><time>2026-04-13T15:51:48.961Z</time></trkpt><trkpt lat="40.7325859" lon="14.8748798"><ele>620.0</ele><time>2026-04-13T15:51:49.97Z</time></trkpt><trkpt lat="40.7326428" lon="14.8748422"><ele>620.0</ele><time>2026-04-13T15:51:51.039Z</time></trkpt><trkpt lat="40.7326472" lon="14.8747581"><ele>620.0</ele><time>2026-04-13T15:51:53.97Z</time></trkpt><trkpt lat="40.732587" lon="14.8747279"><ele>620.0</ele><time>2026-04-13T15:51:56.046Z</time></trkpt><trkpt lat="40.7326115" lon="14.874628"><ele>620.0</ele><time>2026-04-13T15:51:58.965Z</time></trkpt><trkpt lat="40.7326664" lon="14.874559"><ele>620.0</ele><time>2026-04-13T15:52:01.977Z</time></trkpt><trkpt lat="40.7326552" lon="14.8744768"><ele>620.0</ele><time>2026-04-13T15:52:03.044Z</time></trkpt><trkpt lat="40.7326297" lon="14.8743422"><ele>620.0</ele><time>2026-04-13T15:52:05.024Z</time></trkpt><trkpt lat="40.7326879" lon="14.8742977"><ele>620.0</ele><time>2026-04-13T15:52:06.959Z</time></trkpt><trkpt lat="40.732755" lon="14.8742795"><ele>620.0</ele><time>2026-04-13T15:52:07.963Z</time></trkpt><trkpt lat="40.7328306" lon="14.874279"><ele>620.0</ele><time>2026-04-13T15:52:09.964Z</time></trkpt><trkpt lat="40.7327859" lon="14.8742163"><ele>620.0</ele><time>2026-04-13T15:52:16.956Z</time></trkpt><trkpt lat="40.7327153" lon="14.8742231"><ele>620.0</ele><time>2026-04-13T15:52:18.96Z</time></trkpt><trkpt lat="40.732611" lon="14.8742936"><ele>620.0</ele><time>2026-04-13T15:52:21.034Z</time></trkpt><trkpt lat="40.7325232" lon="14.874358"><ele>620.0</ele><time>2026-04-13T15:52:22.96Z</time></trkpt><trkpt lat="40.7324376" lon="14.8743887"><ele>620.0</ele><time>2026-04-13T15:52:24.966Z</time></trkpt><trkpt lat="40.732374" lon="14.8744242"><ele>620.0</ele><time>2026-04-13T15:52:26.954Z</time></trkpt><trkpt lat="40.7324609" lon="14.874457"><ele>620.0</ele><time>2026-04-13T15:52:30.015Z</time></trkpt><trkpt lat="40.7325304" lon="14.8745069"><ele>620.0</ele><time>2026-04-13T15:52:31.96Z</time></trkpt><trkpt lat="40.7324712" lon="14.8745846"><ele>620.0</ele><time>2026-04-13T15:52:34.96Z</time></trkpt><trkpt lat="40.7324348" lon="14.8746524"><ele>620.0</ele><time>2026-04-13T15:52:36.971Z</time></trkpt><trkpt lat="40.7323263" lon="14.8747055"><ele>620.0</ele><time>2026-04-13T15:52:39.071Z</time></trkpt><trkpt lat="40.7321525" lon="14.874685"><ele>620.0</ele><time>2026-04-13T15:52:40.968Z</time></trkpt><trkpt lat="40.7320873" lon="14.8746676"><ele>620.0</ele><time>2026-04-13T15:52:41.967Z</time></trkpt><trkpt lat="40.7320194" lon="14.8746458"><ele>620.0</ele><time>2026-04-13T15:52:42.973Z</time></trkpt><trkpt lat="40.7319105" lon="14.8746063"><ele>620.0</ele><time>2026-04-13T15:52:44.964Z</time></trkpt><trkpt lat="40.7318355" lon="14.8746345"><ele>620.0</ele><time>2026-04-13T15:52:46.97Z</time></trkpt><trkpt lat="40.731817" lon="14.8747417"><ele>620.0</ele><time>2026-04-13T15:52:49.971Z</time></trkpt><trkpt lat="40.7318091" lon="14.8748605"><ele>618.8333333333333</ele><time>2026-04-13T15:52:51.966Z</time></trkpt><trkpt lat="40.7317315" lon="14.8748684"><ele>617.6666666666666</ele><time>2026-04-13T15:52:53.965Z</time></trkpt><trkpt lat="40.7316721" lon="14.8748399"><ele>616.5</ele><time>2026-04-13T15:52:55.971Z</time></trkpt><trkpt lat="40.7316082" lon="14.8748405"><ele>615.3333333333334</ele><time>2026-04-13T15:52:58.967Z</time></trkpt><trkpt lat="40.7315171" lon="14.8749456"><ele>614.1666666666667</ele><time>2026-04-13T15:53:00.97Z</time></trkpt><trkpt lat="40.7314902" lon="14.8750259"><ele>613.0</ele><time>2026-04-13T15:53:01.965Z</time></trkpt><trkpt lat="40.7314587" lon="14.8751367"><ele>611.5</ele><time>2026-04-13T15:53:03.964Z</time></trkpt><trkpt lat="40.7314946" lon="14.8752471"><ele>610.0</ele><time>2026-04-13T15:53:05.961Z</time></trkpt><trkpt lat="40.7315829" lon="14.8752915"><ele>608.5</ele><time>2026-04-13T15:53:08.051Z</time></trkpt><trkpt lat="40.7316627" lon="14.8752745"><ele>607.0</ele><time>2026-04-13T15:53:09.972Z</time></trkpt><trkpt lat="40.7317464" lon="14.8752171"><ele>605.5</ele><time>2026-04-13T15:53:11.962Z</time></trkpt><trkpt lat="40.7318081" lon="14.8752388"><ele>604.0</ele><time>2026-04-13T15:53:13.963Z</time></trkpt><trkpt lat="40.731856" lon="14.8752942"><ele>607.2</ele><time>2026-04-13T15:53:15.951Z</time></trkpt><trkpt lat="40.7319423" lon="14.8751922"><ele>610.4</ele><time>2026-04-13T15:53:18.966Z</time></trkpt><trkpt lat="40.732" lon="14.875132"><ele>613.6</ele><time>2026-04-13T15:53:20.965Z</time></trkpt><trkpt lat="40.7321057" lon="14.8750595"><ele>616.8</ele><time>2026-04-13T15:53:22.976Z</time></trkpt><trkpt lat="40.7321834" lon="14.8750358"><ele>620.0</ele><time>2026-04-13T15:53:24.957Z</time></trkpt><trkpt lat="40.7322955" lon="14.8750457"><ele>620.0</ele><time>2026-04-13T15:53:26.962Z</time></trkpt><trkpt lat="40.7324088" lon="14.8749976"><ele>620.0</ele><time>2026-04-13T15:53:27.959Z</time></trkpt><trkpt lat="40.7325186" lon="14.8749326"><ele>620.0</ele><time>2026-04-13T15:53:28.955Z</time></trkpt><trkpt lat="40.7326261" lon="14.8748738"><ele>620.0</ele><time>2026-04-13T15:53:29.964Z</time></trkpt><trkpt lat="40.7326894" lon="14.8748332"><ele>620.0</ele><time>2026-04-13T15:53:30.964Z</time></trkpt><trkpt lat="40.732701" lon="14.8747502"><ele>620.0</ele><time>2026-04-13T15:53:33.976Z</time></trkpt><trkpt lat="40.7326192" lon="14.874736"><ele>620.0</ele><time>2026-04-13T15:53:36.028Z</time></trkpt><trkpt lat="40.7326459" lon="14.8746413"><ele>620.0</ele><time>2026-04-13T15:53:40.964Z</time></trkpt><trkpt lat="40.732641" lon="14.8744477"><ele>620.0</ele><time>2026-04-13T15:53:43.958Z</time></trkpt><trkpt lat="40.73265" lon="14.8743303"><ele>620.0</ele><time>2026-04-13T15:53:45.969Z</time></trkpt><trkpt lat="40.7327075" lon="14.8742468"><ele>620.0</ele><time>2026-04-13T15:53:47.96Z</time></trkpt><trkpt lat="40.7328012" lon="14.8742389"><ele>620.0</ele><time>2026-04-13T15:53:50.047Z</time></trkpt><trkpt lat="40.7327854" lon="14.874148"><ele>620.0</ele><time>2026-04-13T15:53:56.967Z</time></trkpt><trkpt lat="40.7326945" lon="14.8742386"><ele>620.0</ele><time>2026-04-13T15:53:57.961Z</time></trkpt><trkpt lat="40.7326121" lon="14.8743017"><ele>620.0</ele><time>2026-04-13T15:53:59.054Z</time></trkpt><trkpt lat="40.7325531" lon="14.8743434"><ele>620.0</ele><time>2026-04-13T15:54:00.026Z</time></trkpt><trkpt lat="40.7324749" lon="14.8743952"><ele>620.0</ele><time>2026-04-13T15:54:01.964Z</time></trkpt><trkpt lat="40.7325228" lon="14.8744793"><ele>620.0</ele><time>2026-04-13T15:54:05.965Z</time></trkpt><trkpt lat="40.7324933" lon="14.8745727"><ele>620.0</ele><time>2026-04-13T15:54:07.967Z</time></trkpt><trkpt lat="40.7324159" lon="14.8746803"><ele>620.0</ele><time>2026-04-13T15:54:10.966Z</time></trkpt><trkpt lat="40.7323293" lon="14.8747259"><ele>620.0</ele><time>2026-04-13T15:54:12.969Z</time></trkpt><trkpt lat="40.732239" lon="14.8747274"><ele>620.0</ele><time>2026-04-13T15:54:13.963Z</time></trkpt><trkpt lat="40.7321489" lon="14.8747113"><ele>620.0</ele><time>2026-04-13T15:54:14.968Z</time></trkpt><trkpt lat="40.7320665" lon="14.8746784"><ele>620.0</ele><time>2026-04-13T15:54:16.044Z</time></trkpt><trkpt lat="40.7319971" lon="14.8746384"><ele>620.0</ele><time>2026-04-13T15:54:16.973Z</time></trkpt><trkpt lat="40.7319379" lon="14.8746067"><ele>620.0</ele><time>2026-04-13T15:54:17.984Z</time></trkpt><trkpt lat="40.7318502" lon="14.8745796"><ele>620.0</ele><time>2026-04-13T15:54:19.971Z</time></trkpt><trkpt lat="40.7317945" lon="14.8746295"><ele>618.8333333333333</ele><time>2026-04-13T15:54:23.045Z</time></trkpt><trkpt lat="40.7318315" lon="14.8747391"><ele>617.6666666666666</ele><time>2026-04-13T15:54:24.976Z</time></trkpt><trkpt lat="40.7317668" lon="14.8748086"><ele>616.5</ele><time>2026-04-13T15:54:27.973Z</time></trkpt><trkpt lat="40.7316934" lon="14.8747982"><ele>615.3333333333334</ele><time>2026-04-13T15:54:29.974Z</time></trkpt><trkpt lat="40.7316191" lon="14.8748257"><ele>614.1666666666667</ele><time>2026-04-13T15:54:34.083Z</time></trkpt><trkpt lat="40.73157" lon="14.8749071"><ele>613.0</ele><time>2026-04-13T15:54:35.975Z</time></trkpt><trkpt lat="40.7315399" lon="14.8749996"><ele>613.0</ele><time>2026-04-13T15:54:36.971Z</time></trkpt><trkpt lat="40.7315175" lon="14.8750955"><ele>613.0</ele><time>2026-04-13T15:54:37.969Z</time></trkpt><trkpt lat="40.731511" lon="14.8752207"><ele>613.0</ele><time>2026-04-13T15:54:39.976Z</time></trkpt><trkpt lat="40.7315534" lon="14.8752942"><ele>613.0</ele><time>2026-04-13T15:54:41.958Z</time></trkpt><trkpt lat="40.7316512" lon="14.8752896"><ele>613.0</ele><time>2026-04-13T15:54:44.964Z</time></trkpt><trkpt lat="40.7317166" lon="14.8752477"><ele>613.0</ele><time>2026-04-13T15:54:46.96Z</time></trkpt><trkpt lat="40.7317831" lon="14.8752647"><ele>614.4</ele><time>2026-04-13T15:54:49.023Z</time></trkpt><trkpt lat="40.7318528" lon="14.8752202"><ele>615.8</ele><time>2026-04-13T15:54:52.964Z</time></trkpt><trkpt lat="40.7319115" lon="14.8751667"><ele>617.2</ele><time>2026-04-13T15:54:55.956Z</time></trkpt><trkpt lat="40.7320107" lon="14.8751251"><ele>618.6</ele><time>2026-04-13T15:54:58.026Z</time></trkpt><trkpt lat="40.7321174" lon="14.8751028"><ele>620.0</ele><time>2026-04-13T15:54:59.959Z</time></trkpt><trkpt lat="40.7322294" lon="14.8750632"><ele>620.0</ele><time>2026-04-13T15:55:00.954Z</time></trkpt><trkpt lat="40.732361" lon="14.8749871"><ele>620.0</ele><time>2026-04-13T15:55:01.957Z</time></trkpt><trkpt lat="40.7324934" lon="14.8749087"><ele>620.0</ele><time>2026-04-13T15:55:02.949Z</time></trkpt><trkpt lat="40.7325885" lon="14.8748625"><ele>620.0</ele><time>2026-04-13T15:55:03.96Z</time></trkpt><trkpt lat="40.7326445" lon="14.8747959"><ele>620.0</ele><time>2026-04-13T15:55:05.958Z</time></trkpt><trkpt lat="40.7326669" lon="14.8747008"><ele>620.0</ele><time>2026-04-13T15:55:09.045Z</time></trkpt><trkpt lat="40.7326631" lon="14.8745977"><ele>620.0</ele><time>2026-04-13T15:55:10.966Z</time></trkpt><trkpt lat="40.7326576" lon="14.8744747"><ele>620.0</ele><time>2026-04-13T15:55:12.959Z</time></trkpt><trkpt lat="40.7326453" lon="14.8743884"><ele>620.0</ele><time>2026-04-13T15:55:14.966Z</time></trkpt><trkpt lat="40.7327135" lon="14.8743547"><ele>620.0</ele><time>2026-04-13T15:55:16.954Z</time></trkpt><trkpt lat="40.7328047" lon="14.8743358"><ele>620.0</ele><time>2026-04-13T15:55:18.962Z</time></trkpt><trkpt lat="40.7328347" lon="14.8742579"><ele>620.0</ele><time>2026-04-13T15:55:20.958Z</time></trkpt><trkpt lat="40.7327716" lon="14.8742713"><ele>620.0</ele><time>2026-04-13T15:55:25.952Z</time></trkpt><trkpt lat="40.7326796" lon="14.874345"><ele>620.0</ele><time>2026-04-13T15:55:27.953Z</time></trkpt><trkpt lat="40.7325817" lon="14.8743745"><ele>620.0</ele><time>2026-04-13T15:55:29.958Z</time></trkpt><trkpt lat="40.7324867" lon="14.8744216"><ele>620.0</ele><time>2026-04-13T15:55:31.96Z</time></trkpt><trkpt lat="40.7325704" lon="14.8744301"><ele>620.0</ele><time>2026-04-13T15:55:32.95Z</time></trkpt><trkpt lat="40.7325051" lon="14.8744312"><ele>620.0</ele><time>2026-04-13T15:55:34.961Z</time></trkpt><trkpt lat="40.7324316" lon="14.8744221"><ele>620.0</ele><time>2026-04-13T15:55:35.986Z</time></trkpt><trkpt lat="40.7324733" lon="14.8744919"><ele>620.0</ele><time>2026-04-13T15:55:39.959Z</time></trkpt><trkpt lat="40.732506" lon="14.8743946"><ele>620.0</ele><time>2026-04-13T15:55:40.961Z</time></trkpt><trkpt lat="40.7325373" lon="14.8743162"><ele>620.0</ele><time>2026-04-13T15:55:41.967Z</time></trkpt><trkpt lat="40.7326009" lon="14.8742611"><ele>620.0</ele><time>2026-04-13T15:55:45.022Z</time></trkpt><trkpt lat="40.7326562" lon="14.874204"><ele>620.0</ele><time>2026-04-13T15:56:03.956Z</time></trkpt><trkpt lat="40.732718" lon="14.8741387"><ele>620.0</ele><time>2026-04-13T15:56:54.955Z</time></trkpt><trkpt lat="40.7326231" lon="14.874245"><ele>620.0</ele><time>2026-04-13T15:57:07.988Z</time></trkpt><trkpt lat="40.7325022" lon="14.874303"><ele>620.0</ele><time>2026-04-13T15:57:09.954Z</time></trkpt><trkpt lat="40.7324293" lon="14.8743255"><ele>620.0</ele><time>2026-04-13T15:57:10.952Z</time></trkpt><trkpt lat="40.7323529" lon="14.8743508"><ele>620.0</ele><time>2026-04-13T15:57:12.957Z</time></trkpt><trkpt lat="40.7323449" lon="14.8744585"><ele>620.0</ele><time>2026-04-13T15:57:16.005Z</time></trkpt><trkpt lat="40.7324057" lon="14.8744956"><ele>620.0</ele><time>2026-04-13T15:57:16.946Z</time></trkpt><trkpt lat="40.7324953" lon="14.8745631"><ele>620.0</ele><time>2026-04-13T15:57:18.938Z</time></trkpt><trkpt lat="40.7324412" lon="14.8746438"><ele>620.0</ele><time>2026-04-13T15:57:20.955Z</time></trkpt><trkpt lat="40.73237" lon="14.8747084"><ele>620.0</ele><time>2026-04-13T15:57:22.955Z</time></trkpt><trkpt lat="40.7322406" lon="14.8747196"><ele>620.0</ele><time>2026-04-13T15:57:24.951Z</time></trkpt><trkpt lat="40.7321512" lon="14.8747172"><ele>620.0</ele><time>2026-04-13T15:57:25.948Z</time></trkpt><trkpt lat="40.7320728" lon="14.8746903"><ele>620.0</ele><time>2026-04-13T15:57:26.953Z</time></trkpt><trkpt lat="40.7320096" lon="14.8746527"><ele>620.0</ele><time>2026-04-13T15:57:27.949Z</time></trkpt><trkpt lat="40.7319511" lon="14.8746203"><ele>620.0</ele><time>2026-04-13T15:57:28.973Z</time></trkpt><trkpt lat="40.7318678" lon="14.8746015"><ele>620.0</ele><time>2026-04-13T15:57:30.961Z</time></trkpt><trkpt lat="40.7318086" lon="14.8746589"><ele>618.8333333333333</ele><time>2026-04-13T15:57:34.965Z</time></trkpt><trkpt lat="40.7318007" lon="14.874784"><ele>617.6666666666666</ele><time>2026-04-13T15:57:37.958Z</time></trkpt><trkpt lat="40.7317358" lon="14.8747989"><ele>616.5</ele><time>2026-04-13T15:57:39.959Z</time></trkpt><trkpt lat="40.7316469" lon="14.874808"><ele>615.3333333333334</ele><time>2026-04-13T15:57:43.943Z</time></trkpt><trkpt lat="40.7315873" lon="14.8748526"><ele>614.1666666666667</ele><time>2026-04-13T15:57:45.944Z</time></trkpt><trkpt lat="40.731533" lon="14.8749534"><ele>613.0</ele><time>2026-04-13T15:57:47.95Z</time></trkpt><trkpt lat="40.7315048" lon="14.8750281"><ele>613.0</ele><time>2026-04-13T15:57:48.955Z</time></trkpt><trkpt lat="40.7314758" lon="14.8751397"><ele>613.0</ele><time>2026-04-13T15:57:50.953Z</time></trkpt><trkpt lat="40.7315602" lon="14.8751926"><ele>613.0</ele><time>2026-04-13T15:57:53.958Z</time></trkpt><trkpt lat="40.7316275" lon="14.8751425"><ele>613.0</ele><time>2026-04-13T15:57:54.938Z</time></trkpt><trkpt lat="40.731713" lon="14.8751029"><ele>613.0</ele><time>2026-04-13T15:57:56.961Z</time></trkpt><trkpt lat="40.7317758" lon="14.8751222"><ele>613.0</ele><time>2026-04-13T15:57:58.955Z</time></trkpt><trkpt lat="40.7318202" lon="14.8751821"><ele>614.4</ele><time>2026-04-13T15:58:00.955Z</time></trkpt><trkpt lat="40.7318904" lon="14.8751656"><ele>615.8</ele><time>2026-04-13T15:58:03.958Z</time></trkpt><trkpt lat="40.731958" lon="14.8751117"><ele>617.2</ele><time>2026-04-13T15:58:05.959Z</time></trkpt><trkpt lat="40.7320634" lon="14.8750539"><ele>618.6</ele><time>2026-04-13T15:58:07.961Z</time></trkpt><trkpt lat="40.7321547" lon="14.8750262"><ele>620.0</ele><time>2026-04-13T15:58:09.956Z</time></trkpt><trkpt lat="40.7322972" lon="14.875008"><ele>620.0</ele><time>2026-04-13T15:58:11.958Z</time></trkpt><trkpt lat="40.7323982" lon="14.8749778"><ele>620.0</ele><time>2026-04-13T15:58:12.95Z</time></trkpt><trkpt lat="40.7325096" lon="14.8749131"><ele>620.0</ele><time>2026-04-13T15:58:13.955Z</time></trkpt><trkpt lat="40.7326151" lon="14.8748494"><ele>620.0</ele><time>2026-04-13T15:58:14.951Z</time></trkpt><trkpt lat="40.7326797" lon="14.8748183"><ele>620.0</ele><time>2026-04-13T15:58:15.953Z</time></trkpt><trkpt lat="40.7327417" lon="14.8747491"><ele>620.0</ele><time>2026-04-13T15:58:17.961Z</time></trkpt><trkpt lat="40.7326924" lon="14.874685"><ele>620.0</ele><time>2026-04-13T15:58:19.951Z</time></trkpt><trkpt lat="40.7326769" lon="14.8745597"><ele>620.0</ele><time>2026-04-13T15:58:21.96Z</time></trkpt><trkpt lat="40.7326627" lon="14.8744285"><ele>620.0</ele><time>2026-04-13T15:58:23.954Z</time></trkpt><trkpt lat="40.7327383" lon="14.8743564"><ele>620.0</ele><time>2026-04-13T15:58:26.95Z</time></trkpt><trkpt lat="40.7326678" lon="14.8743698"><ele>620.0</ele><time>2026-04-13T15:58:34.958Z</time></trkpt><trkpt lat="40.7325901" lon="14.8743854"><ele>620.0</ele><time>2026-04-13T15:58:35.951Z</time></trkpt><trkpt lat="40.7325065" lon="14.8743859"><ele>620.0</ele><time>2026-04-13T15:58:36.953Z</time></trkpt><trkpt lat="40.7324418" lon="14.874383"><ele>620.0</ele><time>2026-04-13T15:58:37.937Z</time></trkpt><trkpt lat="40.7324906" lon="14.8744459"><ele>620.0</ele><time>2026-04-13T15:58:43.957Z</time></trkpt><trkpt lat="40.7324874" lon="14.8745507"><ele>620.0</ele><time>2026-04-13T15:58:46.871Z</time></trkpt><trkpt lat="40.7324341" lon="14.8746183"><ele>620.0</ele><time>2026-04-13T15:58:48.945Z</time></trkpt><trkpt lat="40.7323246" lon="14.8746835"><ele>620.0</ele><time>2026-04-13T15:58:50.944Z</time></trkpt><trkpt lat="40.7322511" lon="14.8747014"><ele>620.0</ele><time>2026-04-13T15:58:51.945Z</time></trkpt><trkpt lat="40.7321626" lon="14.8746943"><ele>620.0</ele><time>2026-04-13T15:58:52.949Z</time></trkpt><trkpt lat="40.7320807" lon="14.8746646"><ele>620.0</ele><time>2026-04-13T15:58:53.952Z</time></trkpt><trkpt lat="40.7320081" lon="14.8746315"><ele>620.0</ele><time>2026-04-13T15:58:54.954Z</time></trkpt><trkpt lat="40.7319284" lon="14.8746085"><ele>620.0</ele><time>2026-04-13T15:58:56.961Z</time></trkpt><trkpt lat="40.731852" lon="14.8746367"><ele>618.8333333333333</ele><time>2026-04-13T15:58:59.949Z</time></trkpt><trkpt lat="40.7318016" lon="14.874739"><ele>617.6666666666666</ele><time>2026-04-13T15:59:03.952Z</time></trkpt><trkpt lat="40.7317497" lon="14.8747913"><ele>616.5</ele><time>2026-04-13T15:59:05.957Z</time></trkpt><trkpt lat="40.7316762" lon="14.8747573"><ele>615.3333333333334</ele><time>2026-04-13T15:59:07.956Z</time></trkpt><trkpt lat="40.7316142" lon="14.8747816"><ele>614.1666666666667</ele><time>2026-04-13T15:59:11.949Z</time></trkpt><trkpt lat="40.7315515" lon="14.8748425"><ele>613.0</ele><time>2026-04-13T15:59:13.955Z</time></trkpt><trkpt lat="40.7315005" lon="14.8749621"><ele>613.0</ele><time>2026-04-13T15:59:15.952Z</time></trkpt><trkpt lat="40.731491" lon="14.8750445"><ele>613.0</ele><time>2026-04-13T15:59:16.955Z</time></trkpt><trkpt lat="40.7314966" lon="14.8751882"><ele>613.0</ele><time>2026-04-13T15:59:18.957Z</time></trkpt><trkpt lat="40.7315996" lon="14.8752353"><ele>613.0</ele><time>2026-04-13T15:59:20.945Z</time></trkpt><trkpt lat="40.7316711" lon="14.8752037"><ele>613.0</ele><time>2026-04-13T15:59:21.958Z</time></trkpt><trkpt lat="40.731757" lon="14.8751551"><ele>614.0</ele><time>2026-04-13T15:59:23.951Z</time></trkpt><trkpt lat="40.7318252" lon="14.8751429"><ele>615.0</ele><time>2026-04-13T15:59:26.959Z</time></trkpt><trkpt lat="40.7318806" lon="14.8752125"><ele>616.0</ele><time>2026-04-13T15:59:29.962Z</time></trkpt><trkpt lat="40.7319427" lon="14.875193"><ele>617.0</ele><time>2026-04-13T15:59:31.957Z</time></trkpt><trkpt lat="40.7320294" lon="14.8751809"><ele>618.0</ele><time>2026-04-13T15:59:34.957Z</time></trkpt><trkpt lat="40.7320914" lon="14.8751502"><ele>619.0</ele><time>2026-04-13T15:59:36.935Z</time></trkpt><trkpt lat="40.7321398" lon="14.8750801"><ele>620.0</ele><time>2026-04-13T15:59:39.942Z</time></trkpt><trkpt lat="40.7322478" lon="14.8750585"><ele>620.0</ele><time>2026-04-13T15:59:53.953Z</time></trkpt><trkpt lat="40.7323273" lon="14.8750442"><ele>620.0</ele><time>2026-04-13T15:59:54.956Z</time></trkpt><trkpt lat="40.7324093" lon="14.874993"><ele>620.0</ele><time>2026-04-13T15:59:55.951Z</time></trkpt><trkpt lat="40.7325093" lon="14.8749354"><ele>620.0</ele><time>2026-04-13T15:59:56.948Z</time></trkpt><trkpt lat="40.7326181" lon="14.8748614"><ele>620.0</ele><time>2026-04-13T15:59:57.95Z</time></trkpt><trkpt lat="40.7326801" lon="14.874801"><ele>620.0</ele><time>2026-04-13T15:59:59.96Z</time></trkpt><trkpt lat="40.7326313" lon="14.874709"><ele>620.0</ele><time>2026-04-13T16:00:02.955Z</time></trkpt><trkpt lat="40.7326351" lon="14.8745271"><ele>620.0</ele><time>2026-04-13T16:00:04.963Z</time></trkpt><trkpt lat="40.7326473" lon="14.8744363"><ele>620.0</ele><time>2026-04-13T16:00:05.958Z</time></trkpt><trkpt lat="40.7326523" lon="14.8743519"><ele>620.0</ele><time>2026-04-13T16:00:06.956Z</time></trkpt><trkpt lat="40.732704" lon="14.8742789"><ele>620.0</ele><time>2026-04-13T16:00:08.955Z</time></trkpt><trkpt lat="40.7327792" lon="14.8742483"><ele>620.0</ele><time>2026-04-13T16:00:10.958Z</time></trkpt><trkpt lat="40.7327125" lon="14.8742418"><ele>620.0</ele><time>2026-04-13T16:00:14.946Z</time></trkpt><trkpt lat="40.7326429" lon="14.8742882"><ele>620.0</ele><time>2026-04-13T16:00:15.951Z</time></trkpt><trkpt lat="40.7325367" lon="14.8743416"><ele>620.0</ele><time>2026-04-13T16:00:16.96Z</time></trkpt><trkpt lat="40.7324378" lon="14.874383"><ele>620.0</ele><time>2026-04-13T16:00:17.955Z</time></trkpt><trkpt lat="40.7323682" lon="14.8744026"><ele>620.0</ele><time>2026-04-13T16:00:18.955Z</time></trkpt><trkpt lat="40.7322864" lon="14.8744306"><ele>620.0</ele><time>2026-04-13T16:00:20.955Z</time></trkpt><trkpt lat="40.7323583" lon="14.8744531"><ele>620.0</ele><time>2026-04-13T16:00:23.954Z</time></trkpt><trkpt lat="40.7324287" lon="14.8744734"><ele>620.0</ele><time>2026-04-13T16:00:24.955Z</time></trkpt><trkpt lat="40.7324926" lon="14.8745522"><ele>620.0</ele><time>2026-04-13T16:00:26.958Z</time></trkpt><trkpt lat="40.7324136" lon="14.8746104"><ele>620.0</ele><time>2026-04-13T16:00:29.955Z</time></trkpt><trkpt lat="40.732337" lon="14.8746621"><ele>620.0</ele><time>2026-04-13T16:00:31.96Z</time></trkpt><trkpt lat="40.7322487" lon="14.8747056"><ele>620.0</ele><time>2026-04-13T16:00:33.957Z</time></trkpt><trkpt lat="40.7321826" lon="14.8747051"><ele>620.0</ele><time>2026-04-13T16:00:34.953Z</time></trkpt><trkpt lat="40.732103" lon="14.8746868"><ele>620.0</ele><time>2026-04-13T16:00:35.948Z</time></trkpt><trkpt lat="40.7320152" lon="14.8746479"><ele>620.0</ele><time>2026-04-13T16:00:36.959Z</time></trkpt><trkpt lat="40.7319541" lon="14.8746257"><ele>620.0</ele><time>2026-04-13T16:00:37.952Z</time></trkpt><trkpt lat="40.7318715" lon="14.8745818"><ele>620.0</ele><time>2026-04-13T16:00:39.956Z</time></trkpt><trkpt lat="40.7318443" lon="14.8746717"><ele>618.8333333333333</ele><time>2026-04-13T16:00:42.976Z</time></trkpt><trkpt lat="40.7318524" lon="14.8748045"><ele>617.6666666666666</ele><time>2026-04-13T16:00:44.946Z</time></trkpt><trkpt lat="40.7318469" lon="14.8748881"><ele>616.5</ele><time>2026-04-13T16:00:45.952Z</time></trkpt><trkpt lat="40.7317765" lon="14.8749111"><ele>615.3333333333334</ele><time>2026-04-13T16:00:47.959Z</time></trkpt><trkpt lat="40.7317114" lon="14.8749017"><ele>614.1666666666667</ele><time>2026-04-13T16:00:50.954Z</time></trkpt><trkpt lat="40.7316315" lon="14.8749441"><ele>613.0</ele><time>2026-04-13T16:00:53.957Z</time></trkpt><trkpt lat="40.7315561" lon="14.875053"><ele>611.5</ele><time>2026-04-13T16:00:55.95Z</time></trkpt><trkpt lat="40.7315309" lon="14.8751319"><ele>610.0</ele><time>2026-04-13T16:00:56.945Z</time></trkpt><trkpt lat="40.7315185" lon="14.8752143"><ele>608.5</ele><time>2026-04-13T16:00:57.949Z</time></trkpt><trkpt lat="40.7315402" lon="14.8753614"><ele>607.0</ele><time>2026-04-13T16:00:59.95Z</time></trkpt><trkpt lat="40.7316631" lon="14.8752797"><ele>605.5</ele><time>2026-04-13T16:01:01.956Z</time></trkpt><trkpt lat="40.7317177" lon="14.8752365"><ele>604.0</ele><time>2026-04-13T16:01:02.959Z</time></trkpt><trkpt lat="40.7317826" lon="14.8752112"><ele>604.0</ele><time>2026-04-13T16:01:04.953Z</time></trkpt><trkpt lat="40.731858" lon="14.8752496"><ele>604.0</ele><time>2026-04-13T16:01:06.963Z</time></trkpt><trkpt lat="40.7319214" lon="14.8752326"><ele>604.0</ele><time>2026-04-13T16:01:08.959Z</time></trkpt><trkpt lat="40.7320087" lon="14.8751398"><ele>604.0</ele><time>2026-04-13T16:01:11.962Z</time></trkpt><trkpt lat="40.7320608" lon="14.8750879"><ele>604.0</ele><time>2026-04-13T16:01:12.951Z</time></trkpt><trkpt lat="40.732182" lon="14.875015"><ele>607.2</ele><time>2026-04-13T16:01:14.951Z</time></trkpt><trkpt lat="40.7322825" lon="14.8750401"><ele>610.4</ele><time>2026-04-13T16:01:16.953Z</time></trkpt><trkpt lat="40.7323535" lon="14.8750392"><ele>613.6</ele><time>2026-04-13T16:01:17.952Z</time></trkpt><trkpt lat="40.7324383" lon="14.874991"><ele>616.8</ele><time>2026-04-13T16:01:18.96Z</time></trkpt><trkpt lat="40.7325448" lon="14.8749112"><ele>620.0</ele><time>2026-04-13T16:01:19.955Z</time></trkpt><trkpt lat="40.7326501" lon="14.8748396"><ele>620.0</ele><time>2026-04-13T16:01:20.955Z</time></trkpt><trkpt lat="40.732711" lon="14.8747969"><ele>620.0</ele><time>2026-04-13T16:01:21.956Z</time></trkpt><trkpt lat="40.7326811" lon="14.8746784"><ele>620.0</ele><time>2026-04-13T16:01:26.96Z</time></trkpt><trkpt lat="40.7326839" lon="14.8745751"><ele>620.0</ele><time>2026-04-13T16:01:27.957Z</time></trkpt><trkpt lat="40.7326873" lon="14.8744617"><ele>620.0</ele><time>2026-04-13T16:01:28.962Z</time></trkpt><trkpt lat="40.7326711" lon="14.8743265"><ele>620.0</ele><time>2026-04-13T16:01:30.958Z</time></trkpt><trkpt lat="40.7327371" lon="14.8742652"><ele>620.0</ele><time>2026-04-13T16:01:32.941Z</time></trkpt><trkpt lat="40.732822" lon="14.8742587"><ele>620.0</ele><time>2026-04-13T16:01:34.957Z</time></trkpt><trkpt lat="40.7328707" lon="14.8741963"><ele>620.0</ele><time>2026-04-13T16:01:37.946Z</time></trkpt><trkpt lat="40.7328088" lon="14.8742391"><ele>620.0</ele><time>2026-04-13T16:01:39.951Z</time></trkpt><trkpt lat="40.7327459" lon="14.8742685"><ele>620.0</ele><time>2026-04-13T16:01:40.953Z</time></trkpt><trkpt lat="40.7326555" lon="14.8743136"><ele>620.0</ele><time>2026-04-13T16:01:41.946Z</time></trkpt><trkpt lat="40.7325883" lon="14.8743473"><ele>620.0</ele><time>2026-04-13T16:01:42.95Z</time></trkpt><trkpt lat="40.7324795" lon="14.8743853"><ele>620.0</ele><time>2026-04-13T16:01:44.958Z</time></trkpt><trkpt lat="40.732549" lon="14.8744927"><ele>620.0</ele><time>2026-04-13T16:01:49.951Z</time></trkpt><trkpt lat="40.7325068" lon="14.8745638"><ele>620.0</ele><time>2026-04-13T16:01:51.953Z</time></trkpt><trkpt lat="40.7324433" lon="14.8746213"><ele>620.0</ele><time>2026-04-13T16:01:53.954Z</time></trkpt><trkpt lat="40.73237" lon="14.8746632"><ele>620.0</ele><time>2026-04-13T16:01:55.957Z</time></trkpt><trkpt lat="40.7322926" lon="14.8746946"><ele>620.0</ele><time>2026-04-13T16:01:56.955Z</time></trkpt><trkpt lat="40.732215" lon="14.8747076"><ele>620.0</ele><time>2026-04-13T16:01:57.951Z</time></trkpt><trkpt lat="40.7321257" lon="14.8747017"><ele>620.0</ele><time>2026-04-13T16:01:58.953Z</time></trkpt><trkpt lat="40.7320435" lon="14.8746719"><ele>620.0</ele><time>2026-04-13T16:01:59.953Z</time></trkpt><trkpt lat="40.7319698" lon="14.8746393"><ele>620.0</ele><time>2026-04-13T16:02:00.957Z</time></trkpt><trkpt lat="40.7318995" lon="14.8746137"><ele>620.0</ele><time>2026-04-13T16:02:02.961Z</time></trkpt><trkpt lat="40.7318258" lon="14.8746287"><ele>618.8333333333333</ele><time>2026-04-13T16:02:04.954Z</time></trkpt><trkpt lat="40.7317975" lon="14.8747166"><ele>617.6666666666666</ele><time>2026-04-13T16:02:08.962Z</time></trkpt><trkpt lat="40.7317312" lon="14.874786"><ele>616.5</ele><time>2026-04-13T16:02:11.959Z</time></trkpt><trkpt lat="40.7316579" lon="14.8747474"><ele>615.3333333333334</ele><time>2026-04-13T16:02:15.954Z</time></trkpt><trkpt lat="40.7315904" lon="14.8748579"><ele>614.1666666666667</ele><time>2026-04-13T16:02:18.957Z</time></trkpt><trkpt lat="40.7315541" lon="14.8749601"><ele>613.0</ele><time>2026-04-13T16:02:19.953Z</time></trkpt><trkpt lat="40.7315328" lon="14.8750568"><ele>611.5</ele><time>2026-04-13T16:02:20.954Z</time></trkpt><trkpt lat="40.7315371" lon="14.8751409"><ele>610.0</ele><time>2026-04-13T16:02:21.954Z</time></trkpt><trkpt lat="40.7315482" lon="14.8752367"><ele>608.5</ele><time>2026-04-13T16:02:22.959Z</time></trkpt><trkpt lat="40.7316706" lon="14.8752087"><ele>607.0</ele><time>2026-04-13T16:02:24.955Z</time></trkpt><trkpt lat="40.7317324" lon="14.8751557"><ele>605.5</ele><time>2026-04-13T16:02:27.946Z</time></trkpt><trkpt lat="40.7317943" lon="14.8751273"><ele>604.0</ele><time>2026-04-13T16:02:31.037Z</time></trkpt><trkpt lat="40.7318702" lon="14.875126"><ele>607.2</ele><time>2026-04-13T16:02:33.984Z</time></trkpt><trkpt lat="40.7319759" lon="14.8750739"><ele>610.4</ele><time>2026-04-13T16:02:35.955Z</time></trkpt><trkpt lat="40.7320522" lon="14.8750361"><ele>613.6</ele><time>2026-04-13T16:02:36.956Z</time></trkpt><trkpt lat="40.7321261" lon="14.8750076"><ele>616.8</ele><time>2026-04-13T16:02:37.958Z</time></trkpt><trkpt lat="40.7322423" lon="14.8750344"><ele>620.0</ele><time>2026-04-13T16:02:39.961Z</time></trkpt><trkpt lat="40.7323966" lon="14.8750189"><ele>620.0</ele><time>2026-04-13T16:02:41.954Z</time></trkpt><trkpt lat="40.7325173" lon="14.8749429"><ele>620.0</ele><time>2026-04-13T16:02:43.015Z</time></trkpt><trkpt lat="40.7326236" lon="14.8748574"><ele>620.0</ele><time>2026-04-13T16:02:44.031Z</time></trkpt><trkpt lat="40.732686" lon="14.8748119"><ele>620.0</ele><time>2026-04-13T16:02:45.033Z</time></trkpt><trkpt lat="40.7317312" lon="14.874786"><ele>618.8333333333333</ele><time>2026-04-13T16:02:11.959Z</time></trkpt><trkpt lat="40.7316579" lon="14.8747474"><ele>617.6666666666666</ele><time>2026-04-13T16:02:15.954Z</time></trkpt><trkpt lat="40.7315904" lon="14.8748579"><ele>616.5</ele><time>2026-04-13T16:02:18.957Z</time></trkpt><trkpt lat="40.7315541" lon="14.8749601"><ele>615.3333333333334</ele><time>2026-04-13T16:02:19.953Z</time></trkpt><trkpt lat="40.7315328" lon="14.8750568"><ele>614.1666666666667</ele><time>2026-04-13T16:02:20.954Z</time></trkpt><trkpt lat="40.7315371" lon="14.8751409"><ele>613.0</ele><time>2026-04-13T16:02:21.954Z</time></trkpt><trkpt lat="40.7315482" lon="14.8752367"><ele>614.4</ele><time>2026-04-13T16:02:22.959Z</time></trkpt><trkpt lat="40.7316706" lon="14.8752087"><ele>615.8</ele><time>2026-04-13T16:02:24.955Z</time></trkpt><trkpt lat="40.7317324" lon="14.8751557"><ele>617.2</ele><time>2026-04-13T16:02:27.946Z</time></trkpt><trkpt lat="40.7317943" lon="14.8751273"><ele>618.6</ele><time>2026-04-13T16:02:31.037Z</time></trkpt><trkpt lat="40.7318702" lon="14.875126"><ele>620.0</ele><time>2026-04-13T16:02:33.984Z</time></trkpt><trkpt lat="40.7319759" lon="14.8750739"><ele>620.0</ele><time>2026-04-13T16:02:35.955Z</time></trkpt><trkpt lat="40.7320522" lon="14.8750361"><ele>620.0</ele><time>2026-04-13T16:02:36.956Z</time></trkpt><trkpt lat="40.7321261" lon="14.8750076"><ele>620.0</ele><time>2026-04-13T16:02:37.958Z</time></trkpt><trkpt lat="40.7322423" lon="14.8750344"><ele>620.0</ele><time>2026-04-13T16:02:39.961Z</time></trkpt><trkpt lat="40.7323966" lon="14.8750189"><ele>620.0</ele><time>2026-04-13T16:02:41.954Z</time></trkpt><trkpt lat="40.7325173" lon="14.8749429"><ele>620.0</ele><time>2026-04-13T16:02:43.015Z</time></trkpt><trkpt lat="40.7326236" lon="14.8748574"><ele>620.0</ele><time>2026-04-13T16:02:44.031Z</time></trkpt><trkpt lat="40.732686" lon="14.8748119"><ele>620.0</ele><time>2026-04-13T16:02:45.033Z</time></trkpt><trkpt lat="40.7326931" lon="14.874702"><ele>620.0</ele><time>2026-04-13T16:02:48.964Z</time></trkpt><trkpt lat="40.732691" lon="14.8746186"><ele>620.0</ele><time>2026-04-13T16:02:49.961Z</time></trkpt><trkpt lat="40.7326899" lon="14.8744923"><ele>620.0</ele><time>2026-04-13T16:02:50.98Z</time></trkpt><trkpt lat="40.7326831" lon="14.8743984"><ele>620.0</ele><time>2026-04-13T16:02:51.96Z</time></trkpt><trkpt lat="40.7327048" lon="14.8743135"><ele>620.0</ele><time>2026-04-13T16:02:53.956Z</time></trkpt><trkpt lat="40.7327967" lon="14.8742828"><ele>620.0</ele><time>2026-04-13T16:02:55.966Z</time></trkpt><trkpt lat="40.732861" lon="14.8742378"><ele>620.0</ele><time>2026-04-13T16:02:59.026Z</time></trkpt><trkpt lat="40.7327347" lon="14.8743112"><ele>620.0</ele><time>2026-04-13T16:03:01.962Z</time></trkpt><trkpt lat="40.7326415" lon="14.8743561"><ele>620.0</ele><time>2026-04-13T16:03:02.962Z</time></trkpt><trkpt lat="40.7325639" lon="14.8743773"><ele>620.0</ele><time>2026-04-13T16:03:03.961Z</time></trkpt><trkpt lat="40.732475" lon="14.8743855"><ele>620.0</ele><time>2026-04-13T16:03:05.959Z</time></trkpt><trkpt lat="40.7325403" lon="14.8744532"><ele>620.0</ele><time>2026-04-13T16:03:09.964Z</time></trkpt><trkpt lat="40.7325448" lon="14.8745501"><ele>620.0</ele><time>2026-04-13T16:03:11.96Z</time></trkpt><trkpt lat="40.7324799" lon="14.8745951"><ele>620.0</ele><time>2026-04-13T16:03:13.963Z</time></trkpt><trkpt lat="40.7324213" lon="14.8746432"><ele>620.0</ele><time>2026-04-13T16:03:16.965Z</time></trkpt><trkpt lat="40.7322753" lon="14.8746789"><ele>620.0</ele><time>2026-04-13T16:03:19.017Z</time></trkpt><trkpt lat="40.732187" lon="14.8746716"><ele>620.0</ele><time>2026-04-13T16:03:19.961Z</time></trkpt><trkpt lat="40.7321038" lon="14.8746582"><ele>620.0</ele><time>2026-04-13T16:03:20.96Z</time></trkpt><trkpt lat="40.7320412" lon="14.8746303"><ele>620.0</ele><time>2026-04-13T16:03:21.959Z</time></trkpt><trkpt lat="40.7319501" lon="14.8745969"><ele>618.8333333333333</ele><time>2026-04-13T16:03:23.96Z</time></trkpt><trkpt lat="40.7318739" lon="14.8745859"><ele>617.6666666666666</ele><time>2026-04-13T16:03:25.972Z</time></trkpt><trkpt lat="40.731789" lon="14.8745729"><ele>616.5</ele><time>2026-04-13T16:03:27.962Z</time></trkpt><trkpt lat="40.7317406" lon="14.8746782"><ele>615.3333333333334</ele><time>2026-04-13T16:03:30.96Z</time></trkpt><trkpt lat="40.7316834" lon="14.8747442"><ele>614.1666666666667</ele><time>2026-04-13T16:03:32.964Z</time></trkpt><trkpt lat="40.7315881" lon="14.8747749"><ele>613.0</ele><time>2026-04-13T16:03:37.977Z</time></trkpt><trkpt lat="40.7315219" lon="14.8749009"><ele>613.0</ele><time>2026-04-13T16:03:39.985Z</time></trkpt><trkpt lat="40.7314974" lon="14.8749922"><ele>613.0</ele><time>2026-04-13T16:03:40.955Z</time></trkpt><trkpt lat="40.7314864" lon="14.8750814"><ele>613.0</ele><time>2026-04-13T16:03:41.951Z</time></trkpt><trkpt lat="40.7314876" lon="14.8752195"><ele>613.0</ele><time>2026-04-13T16:03:43.96Z</time></trkpt><trkpt lat="40.7315971" lon="14.8752587"><ele>613.0</ele><time>2026-04-13T16:03:45.951Z</time></trkpt><trkpt lat="40.7316611" lon="14.8752212"><ele>613.0</ele><time>2026-04-13T16:03:46.965Z</time></trkpt><trkpt lat="40.7317358" lon="14.8751832"><ele>614.4</ele><time>2026-04-13T16:03:49.044Z</time></trkpt><trkpt lat="40.7318088" lon="14.8752061"><ele>615.8</ele><time>2026-04-13T16:03:50.958Z</time></trkpt><trkpt lat="40.7318906" lon="14.8752045"><ele>617.2</ele><time>2026-04-13T16:03:52.961Z</time></trkpt><trkpt lat="40.7319641" lon="14.8751175"><ele>618.6</ele><time>2026-04-13T16:03:55.006Z</time></trkpt><trkpt lat="40.7320852" lon="14.8750466"><ele>620.0</ele><time>2026-04-13T16:03:56.962Z</time></trkpt><trkpt lat="40.7321538" lon="14.8750029"><ele>620.0</ele><time>2026-04-13T16:03:58.049Z</time></trkpt><trkpt lat="40.7322158" lon="14.8749821"><ele>620.0</ele><time>2026-04-13T16:03:59.045Z</time></trkpt><trkpt lat="40.7323331" lon="14.8750086"><ele>620.0</ele><time>2026-04-13T16:04:00.971Z</time></trkpt><trkpt lat="40.7324165" lon="14.8749947"><ele>620.0</ele><time>2026-04-13T16:04:01.969Z</time></trkpt><trkpt lat="40.7325092" lon="14.8749396"><ele>620.0</ele><time>2026-04-13T16:04:02.965Z</time></trkpt><trkpt lat="40.7326098" lon="14.8748714"><ele>620.0</ele><time>2026-04-13T16:04:03.973Z</time></trkpt><trkpt lat="40.7326939" lon="14.8748178"><ele>620.0</ele><time>2026-04-13T16:04:04.99Z</time></trkpt><trkpt lat="40.7327579" lon="14.8747662"><ele>620.0</ele><time>2026-04-13T16:04:06.97Z</time></trkpt><trkpt lat="40.7327034" lon="14.8747147"><ele>620.0</ele><time>2026-04-13T16:04:10.972Z</time></trkpt><trkpt lat="40.7326356" lon="14.8746951"><ele>620.0</ele><time>2026-04-13T16:08:51.971Z</time></trkpt><trkpt lat="40.7325655" lon="14.8747076"><ele>620.0</ele><time>2026-04-13T16:09:23.973Z</time></trkpt><trkpt lat="40.7324867" lon="14.8746944"><ele>620.0</ele><time>2026-04-13T16:10:55.979Z</time></trkpt><trkpt lat="40.7324165" lon="14.8747107"><ele>620.0</ele><time>2026-04-13T16:10:58.978Z</time></trkpt><trkpt lat="40.7322775" lon="14.8747062"><ele>620.0</ele><time>2026-04-13T16:11:00.972Z</time></trkpt><trkpt lat="40.7321904" lon="14.8746851"><ele>620.0</ele><time>2026-04-13T16:11:01.977Z</time></trkpt><trkpt lat="40.7321012" lon="14.8746544"><ele>620.0</ele><time>2026-04-13T16:11:02.981Z</time></trkpt><trkpt lat="40.7320296" lon="14.8746288"><ele>620.0</ele><time>2026-04-13T16:11:03.979Z</time></trkpt><trkpt lat="40.7319664" lon="14.874603"><ele>620.0</ele><time>2026-04-13T16:11:04.974Z</time></trkpt><trkpt lat="40.7318589" lon="14.8745778"><ele>620.0</ele><time>2026-04-13T16:11:06.963Z</time></trkpt><trkpt lat="40.7317717" lon="14.874622"><ele>620.0</ele><time>2026-04-13T16:11:08.969Z</time></trkpt><trkpt lat="40.7317354" lon="14.874699"><ele>620.0</ele><time>2026-04-13T16:11:11.98Z</time></trkpt><trkpt lat="40.7316728" lon="14.874686"><ele>620.0</ele><time>2026-04-13T16:11:15.975Z</time></trkpt><trkpt lat="40.731596" lon="14.8746703"><ele>618.8333333333333</ele><time>2026-04-13T16:11:18.973Z</time></trkpt><trkpt lat="40.7314946" lon="14.8747379"><ele>617.6666666666666</ele><time>2026-04-13T16:11:20.971Z</time></trkpt><trkpt lat="40.7314552" lon="14.8748146"><ele>616.5</ele><time>2026-04-13T16:11:21.976Z</time></trkpt><trkpt lat="40.7314289" lon="14.8749041"><ele>615.3333333333334</ele><time>2026-04-13T16:11:22.973Z</time></trkpt><trkpt lat="40.7314128" lon="14.8750134"><ele>614.1666666666667</ele><time>2026-04-13T16:11:23.973Z</time></trkpt><trkpt lat="40.7314176" lon="14.8751522"><ele>613.0</ele><time>2026-04-13T16:11:24.974Z</time></trkpt><trkpt lat="40.731438" lon="14.8752848"><ele>611.1999999999999</ele><time>2026-04-13T16:11:25.977Z</time></trkpt><trkpt lat="40.7315727" lon="14.8753157"><ele>609.4</ele><time>2026-04-13T16:11:27.981Z</time></trkpt><trkpt lat="40.7316542" lon="14.875277"><ele>607.5999999999999</ele><time>2026-04-13T16:11:28.976Z</time></trkpt><trkpt lat="40.7317488" lon="14.8752376"><ele>605.8</ele><time>2026-04-13T16:11:30.981Z</time></trkpt><trkpt lat="40.7318579" lon="14.8753061"><ele>604.0</ele><time>2026-04-13T16:11:32.979Z</time></trkpt><trkpt lat="40.7319453" lon="14.8753372"><ele>607.2</ele><time>2026-04-13T16:11:34.98Z</time></trkpt><trkpt lat="40.7320062" lon="14.8752278"><ele>610.4</ele><time>2026-04-13T16:11:37.977Z</time></trkpt><trkpt lat="40.7321227" lon="14.8751336"><ele>613.6</ele><time>2026-04-13T16:11:39.975Z</time></trkpt><trkpt lat="40.73219" lon="14.8750962"><ele>616.8</ele><time>2026-04-13T16:11:40.978Z</time></trkpt><trkpt lat="40.7322792" lon="14.8751191"><ele>620.0</ele><time>2026-04-13T16:11:42.979Z</time></trkpt><trkpt lat="40.7324101" lon="14.8750857"><ele>620.0</ele><time>2026-04-13T16:11:44.974Z</time></trkpt><trkpt lat="40.7325229" lon="14.8750034"><ele>620.0</ele><time>2026-04-13T16:11:45.974Z</time></trkpt><trkpt lat="40.7326434" lon="14.874925"><ele>620.0</ele><time>2026-04-13T16:11:46.977Z</time></trkpt><trkpt lat="40.7327356" lon="14.8748575"><ele>620.0</ele><time>2026-04-13T16:11:47.975Z</time></trkpt><trkpt lat="40.7327773" lon="14.8747836"><ele>620.0</ele><time>2026-04-13T16:11:49.981Z</time></trkpt><trkpt lat="40.7327121" lon="14.8746847"><ele>620.0</ele><time>2026-04-13T16:11:52.964Z</time></trkpt><trkpt lat="40.7326979" lon="14.8745348"><ele>620.0</ele><time>2026-04-13T16:11:54.979Z</time></trkpt><trkpt lat="40.7326915" lon="14.8744424"><ele>620.0</ele><time>2026-04-13T16:11:56.978Z</time></trkpt><trkpt lat="40.7327941" lon="14.874422"><ele>620.0</ele><time>2026-04-13T16:11:58.976Z</time></trkpt><trkpt lat="40.7328816" lon="14.8743616"><ele>620.0</ele><time>2026-04-13T16:12:00.972Z</time></trkpt><trkpt lat="40.7329161" lon="14.8742738"><ele>620.0</ele><time>2026-04-13T16:12:02.979Z</time></trkpt><trkpt lat="40.7328207" lon="14.8742446"><ele>620.0</ele><time>2026-04-13T16:12:06.98Z</time></trkpt><trkpt lat="40.7326997" lon="14.8742609"><ele>620.0</ele><time>2026-04-13T16:12:08.977Z</time></trkpt><trkpt lat="40.7326337" lon="14.8742898"><ele>620.0</ele><time>2026-04-13T16:12:09.966Z</time></trkpt><trkpt lat="40.732557" lon="14.8743538"><ele>620.0</ele><time>2026-04-13T16:12:11.97Z</time></trkpt><trkpt lat="40.7325845" lon="14.8744905"><ele>620.0</ele><time>2026-04-13T16:12:15.972Z</time></trkpt><trkpt lat="40.7325962" lon="14.8746048"><ele>620.0</ele><time>2026-04-13T16:12:17.973Z</time></trkpt><trkpt lat="40.7325273" lon="14.8746539"><ele>620.0</ele><time>2026-04-13T16:12:20.973Z</time></trkpt><trkpt lat="40.7324285" lon="14.8747027"><ele>620.0</ele><time>2026-04-13T16:12:22.972Z</time></trkpt><trkpt lat="40.7323254" lon="14.8747203"><ele>620.0</ele><time>2026-04-13T16:12:23.975Z</time></trkpt><trkpt lat="40.7322127" lon="14.8747031"><ele>620.0</ele><time>2026-04-13T16:12:24.971Z</time></trkpt><trkpt lat="40.7321062" lon="14.8746719"><ele>620.0</ele><time>2026-04-13T16:12:25.976Z</time></trkpt><trkpt lat="40.7320201" lon="14.8746461"><ele>620.0</ele><time>2026-04-13T16:12:26.973Z</time></trkpt><trkpt lat="40.7319547" lon="14.8746192"><ele>620.0</ele><time>2026-04-13T16:12:27.969Z</time></trkpt><trkpt lat="40.7318845" lon="14.8745899"><ele>620.0</ele><time>2026-04-13T16:12:28.978Z</time></trkpt><trkpt lat="40.7317744" lon="14.8745664"><ele>618.8333333333333</ele><time>2026-04-13T16:12:30.974Z</time></trkpt><trkpt lat="40.7316991" lon="14.8746019"><ele>617.6666666666666</ele><time>2026-04-13T16:12:35.98Z</time></trkpt><trkpt lat="40.7316286" lon="14.87461"><ele>616.5</ele><time>2026-04-13T16:12:39.978Z</time></trkpt><trkpt lat="40.7315504" lon="14.8745953"><ele>615.3333333333334</ele><time>2026-04-13T16:12:42.975Z</time></trkpt><trkpt lat="40.7314812" lon="14.8746765"><ele>614.1666666666667</ele><time>2026-04-13T16:12:44.974Z</time></trkpt><trkpt lat="40.7314568" lon="14.8747543"><ele>613.0</ele><time>2026-04-13T16:12:45.972Z</time></trkpt><trkpt lat="40.7314391" lon="14.874903"><ele>613.0</ele><time>2026-04-13T16:12:46.972Z</time></trkpt><trkpt lat="40.7314366" lon="14.8750573"><ele>613.0</ele><time>2026-04-13T16:12:47.976Z</time></trkpt><trkpt lat="40.7314702" lon="14.8751517"><ele>613.0</ele><time>2026-04-13T16:12:48.98Z</time></trkpt><trkpt lat="40.7315616" lon="14.875234"><ele>613.0</ele><time>2026-04-13T16:12:49.98Z</time></trkpt><trkpt lat="40.7316587" lon="14.8752522"><ele>613.0</ele><time>2026-04-13T16:12:50.972Z</time></trkpt><trkpt lat="40.7317244" lon="14.8752183"><ele>614.4</ele><time>2026-04-13T16:12:52.967Z</time></trkpt><trkpt lat="40.7318147" lon="14.875236"><ele>615.8</ele><time>2026-04-13T16:12:57.978Z</time></trkpt><trkpt lat="40.7318807" lon="14.8751968"><ele>617.2</ele><time>2026-04-13T16:12:59.976Z</time></trkpt><trkpt lat="40.7320277" lon="14.8751267"><ele>618.6</ele><time>2026-04-13T16:13:01.976Z</time></trkpt><trkpt lat="40.7321099" lon="14.8750929"><ele>620.0</ele><time>2026-04-13T16:13:02.96Z</time></trkpt><trkpt lat="40.7321699" lon="14.8750665"><ele>620.0</ele><time>2026-04-13T16:13:03.975Z</time></trkpt><trkpt lat="40.7322588" lon="14.8750666"><ele>620.0</ele><time>2026-04-13T16:13:05.98Z</time></trkpt><trkpt lat="40.732415" lon="14.8750475"><ele>620.0</ele><time>2026-04-13T16:13:07.983Z</time></trkpt><trkpt lat="40.732532" lon="14.8749955"><ele>620.0</ele><time>2026-04-13T16:13:08.981Z</time></trkpt><trkpt lat="40.7326404" lon="14.8749309"><ele>620.0</ele><time>2026-04-13T16:13:09.978Z</time></trkpt><trkpt lat="40.7327145" lon="14.8748725"><ele>620.0</ele><time>2026-04-13T16:13:10.985Z</time></trkpt><trkpt lat="40.7327628" lon="14.8748167"><ele>620.0</ele><time>2026-04-13T16:13:11.971Z</time></trkpt><trkpt lat="40.7327554" lon="14.8746916"><ele>620.0</ele><time>2026-04-13T16:13:14.976Z</time></trkpt><trkpt lat="40.7327525" lon="14.8745315"><ele>620.0</ele><time>2026-04-13T16:13:16.969Z</time></trkpt><trkpt lat="40.7327481" lon="14.8744438"><ele>620.0</ele><time>2026-04-13T16:13:17.979Z</time></trkpt><trkpt lat="40.7328179" lon="14.8744053"><ele>620.0</ele><time>2026-04-13T16:13:21.98Z</time></trkpt><trkpt lat="40.732887" lon="14.8742976"><ele>620.0</ele><time>2026-04-13T16:13:23.98Z</time></trkpt><trkpt lat="40.7328027" lon="14.8742443"><ele>620.0</ele><time>2026-04-13T16:13:27.986Z</time></trkpt><trkpt lat="40.7326823" lon="14.8742797"><ele>620.0</ele><time>2026-04-13T16:13:28.972Z</time></trkpt><trkpt lat="40.7325918" lon="14.8742923"><ele>620.0</ele><time>2026-04-13T16:13:29.979Z</time></trkpt><trkpt lat="40.7325226" lon="14.874286"><ele>620.0</ele><time>2026-04-13T16:13:30.972Z</time></trkpt><trkpt lat="40.732458" lon="14.874297"><ele>620.0</ele><time>2026-04-13T16:13:31.98Z</time></trkpt><trkpt lat="40.7323974" lon="14.8743596"><ele>620.0</ele><time>2026-04-13T16:13:33.976Z</time></trkpt><trkpt lat="40.73249" lon="14.8744283"><ele>620.0</ele><time>2026-04-13T16:13:36.981Z</time></trkpt><trkpt lat="40.7325301" lon="14.8744988"><ele>620.0</ele><time>2026-04-13T16:13:37.979Z</time></trkpt><trkpt lat="40.7325521" lon="14.8746011"><ele>620.0</ele><time>2026-04-13T16:13:39.981Z</time></trkpt><trkpt lat="40.732475" lon="14.8746777"><ele>620.0</ele><time>2026-04-13T16:13:42.973Z</time></trkpt><trkpt lat="40.7323778" lon="14.8747156"><ele>620.0</ele><time>2026-04-13T16:13:44.97Z</time></trkpt><trkpt lat="40.7323022" lon="14.8747066"><ele>620.0</ele><time>2026-04-13T16:13:45.979Z</time></trkpt><trkpt lat="40.7321934" lon="14.8746749"><ele>620.0</ele><time>2026-04-13T16:13:46.975Z</time></trkpt><trkpt lat="40.7321073" lon="14.8746467"><ele>620.0</ele><time>2026-04-13T16:13:47.975Z</time></trkpt><trkpt lat="40.7320021" lon="14.8745837"><ele>620.0</ele><time>2026-04-13T16:13:49.966Z</time></trkpt><trkpt lat="40.7318924" lon="14.8745666"><ele>620.0</ele><time>2026-04-13T16:13:51.975Z</time></trkpt><trkpt lat="40.731807" lon="14.8745409"><ele>620.0</ele><time>2026-04-13T16:13:53.974Z</time></trkpt><trkpt lat="40.7317696" lon="14.8746461"><ele>620.0</ele><time>2026-04-13T16:13:56.98Z</time></trkpt><trkpt lat="40.731745" lon="14.8747434"><ele>620.0</ele><time>2026-04-13T16:13:58.981Z</time></trkpt><trkpt lat="40.7316821" lon="14.8747304"><ele>620.0</ele><time>2026-04-13T16:14:00.977Z</time></trkpt><trkpt lat="40.7315949" lon="14.8747287"><ele>618.25</ele><time>2026-04-13T16:14:02.982Z</time></trkpt><trkpt lat="40.7315073" lon="14.8748054"><ele>616.5</ele><time>2026-04-13T16:14:04.978Z</time></trkpt><trkpt lat="40.7314535" lon="14.8749334"><ele>614.75</ele><time>2026-04-13T16:14:06.978Z</time></trkpt><trkpt lat="40.7314359" lon="14.8750807"><ele>613.0</ele><time>2026-04-13T16:14:08.986Z</time></trkpt><trkpt lat="40.7315397" lon="14.8751866"><ele>611.5</ele><time>2026-04-13T16:14:10.972Z</time></trkpt><trkpt lat="40.7316299" lon="14.8751782"><ele>610.0</ele><time>2026-04-13T16:14:11.971Z</time></trkpt><trkpt lat="40.7317024" lon="14.8751973"><ele>608.5</ele><time>2026-04-13T16:14:13.97Z</time></trkpt><trkpt lat="40.7318138" lon="14.8752648"><ele>607.0</ele><time>2026-04-13T16:14:16.97Z</time></trkpt><trkpt lat="40.7318641" lon="14.8753311"><ele>605.5</ele><time>2026-04-13T16:14:17.971Z</time></trkpt><trkpt lat="40.7319375" lon="14.8753631"><ele>604.0</ele><time>2026-04-13T16:14:19.969Z</time></trkpt><trkpt lat="40.7320018" lon="14.8752792"><ele>606.6666666666667</ele><time>2026-04-13T16:14:21.971Z</time></trkpt><trkpt lat="40.7320611" lon="14.8752175"><ele>609.3333333333334</ele><time>2026-04-13T16:14:22.97Z</time></trkpt><trkpt lat="40.7321315" lon="14.8751547"><ele>612.0</ele><time>2026-04-13T16:14:23.974Z</time></trkpt><trkpt lat="40.7321826" lon="14.8750712"><ele>614.6666666666666</ele><time>2026-04-13T16:14:24.978Z</time></trkpt><trkpt lat="40.7322687" lon="14.8750624"><ele>617.3333333333333</ele><time>2026-04-13T16:14:26.973Z</time></trkpt><trkpt lat="40.7323412" lon="14.8750343"><ele>620.0</ele><time>2026-04-13T16:14:27.968Z</time></trkpt><trkpt lat="40.7324609" lon="14.874977"><ele>620.0</ele><time>2026-04-13T16:14:28.976Z</time></trkpt><trkpt lat="40.7325856" lon="14.8749094"><ele>620.0</ele><time>2026-04-13T16:14:29.972Z</time></trkpt><trkpt lat="40.7326962" lon="14.8748796"><ele>620.0</ele><time>2026-04-13T16:14:30.978Z</time></trkpt><trkpt lat="40.7327599" lon="14.8748091"><ele>620.0</ele><time>2026-04-13T16:14:32.98Z</time></trkpt><trkpt lat="40.7327319" lon="14.8747306"><ele>620.0</ele><time>2026-04-13T16:14:34.974Z</time></trkpt><trkpt lat="40.7327146" lon="14.8746382"><ele>620.0</ele><time>2026-04-13T16:14:35.974Z</time></trkpt><trkpt lat="40.7327073" lon="14.8745499"><ele>620.0</ele><time>2026-04-13T16:14:36.981Z</time></trkpt><trkpt lat="40.7326994" lon="14.8744182"><ele>620.0</ele><time>2026-04-13T16:14:38.976Z</time></trkpt><trkpt lat="40.7327886" lon="14.8743839"><ele>620.0</ele><time>2026-04-13T16:14:41.981Z</time></trkpt><trkpt lat="40.7328631" lon="14.8743592"><ele>620.0</ele><time>2026-04-13T16:14:42.974Z</time></trkpt><trkpt lat="40.7329068" lon="14.8742984"><ele>620.0</ele><time>2026-04-13T16:14:43.972Z</time></trkpt><trkpt lat="40.7329508" lon="14.8741854"><ele>620.0</ele><time>2026-04-13T16:14:45.972Z</time></trkpt><trkpt lat="40.7328817" lon="14.8741699"><ele>620.0</ele><time>2026-04-13T16:14:48.972Z</time></trkpt><trkpt lat="40.7327608" lon="14.8741935"><ele>620.0</ele><time>2026-04-13T16:14:50.97Z</time></trkpt><trkpt lat="40.7326843" lon="14.87421"><ele>620.0</ele><time>2026-04-13T16:14:51.979Z</time></trkpt><trkpt lat="40.732607" lon="14.8742404"><ele>620.0</ele><time>2026-04-13T16:14:52.973Z</time></trkpt><trkpt lat="40.7325479" lon="14.8742732"><ele>620.0</ele><time>2026-04-13T16:14:53.964Z</time></trkpt><trkpt lat="40.7324821" lon="14.8743438"><ele>620.0</ele><time>2026-04-13T16:14:55.972Z</time></trkpt><trkpt lat="40.7325011" lon="14.8744516"><ele>620.0</ele><time>2026-04-13T16:14:59.97Z</time></trkpt><trkpt lat="40.7324928" lon="14.8745447"><ele>620.0</ele><time>2026-04-13T16:15:01.98Z</time></trkpt><trkpt lat="40.7324455" lon="14.8746669"><ele>620.0</ele><time>2026-04-13T16:15:03.972Z</time></trkpt><trkpt lat="40.7323631" lon="14.874742"><ele>620.0</ele><time>2026-04-13T16:15:05.974Z</time></trkpt><trkpt lat="40.732273" lon="14.8747455"><ele>620.0</ele><time>2026-04-13T16:15:07.973Z</time></trkpt><trkpt lat="40.7321617" lon="14.8746819"><ele>620.0</ele><time>2026-04-13T16:15:09.974Z</time></trkpt><trkpt lat="40.7320625" lon="14.8746556"><ele>620.0</ele><time>2026-04-13T16:15:11.971Z</time></trkpt><trkpt lat="40.7319502" lon="14.8746577"><ele>620.0</ele><time>2026-04-13T16:15:13.974Z</time></trkpt><trkpt lat="40.731882" lon="14.8747039"><ele>620.0</ele><time>2026-04-13T16:15:15.981Z</time></trkpt><trkpt lat="40.7318363" lon="14.8748311"><ele>620.0</ele><time>2026-04-13T16:15:17.981Z</time></trkpt><trkpt lat="40.7317609" lon="14.8748184"><ele>618.6</ele><time>2026-04-13T16:15:20.974Z</time></trkpt><trkpt lat="40.7316776" lon="14.87479"><ele>617.2</ele><time>2026-04-13T16:15:22.976Z</time></trkpt><trkpt lat="40.731546" lon="14.8748103"><ele>615.8</ele><time>2026-04-13T16:15:24.978Z</time></trkpt><trkpt lat="40.7314868" lon="14.8748694"><ele>614.4</ele><time>2026-04-13T16:15:25.976Z</time></trkpt><trkpt lat="40.731406" lon="14.8750167"><ele>613.0</ele><time>2026-04-13T16:15:27.972Z</time></trkpt><trkpt lat="40.7313908" lon="14.8751499"><ele>611.1999999999999</ele><time>2026-04-13T16:15:29.971Z</time></trkpt><trkpt lat="40.731465" lon="14.8751982"><ele>609.4</ele><time>2026-04-13T16:15:31.976Z</time></trkpt><trkpt lat="40.7315412" lon="14.8751884"><ele>607.5999999999999</ele><time>2026-04-13T16:15:32.978Z</time></trkpt><trkpt lat="40.7316413" lon="14.8751564"><ele>605.8</ele><time>2026-04-13T16:15:34.977Z</time></trkpt><trkpt lat="40.7317602" lon="14.8752441"><ele>604.0</ele><time>2026-04-13T16:15:36.979Z</time></trkpt><trkpt lat="40.7318439" lon="14.8753147"><ele>601.0</ele><time>2026-04-13T16:15:37.99Z</time></trkpt><trkpt lat="40.7319084" lon="14.8752916"><ele>598.0</ele><time>2026-04-13T16:15:39.982Z</time></trkpt><trkpt lat="40.7319902" lon="14.8752174"><ele>595.0</ele><time>2026-04-13T16:15:41.977Z</time></trkpt><trkpt lat="40.7320605" lon="14.8751751"><ele>592.0</ele><time>2026-04-13T16:15:42.979Z</time></trkpt><trkpt lat="40.7321386" lon="14.875124"><ele>589.0</ele><time>2026-04-13T16:15:44.981Z</time></trkpt><trkpt lat="40.7322175" lon="14.87518"><ele>586.0</ele><time>2026-04-13T16:15:46.971Z</time></trkpt><trkpt lat="40.7323341" lon="14.8751515"><ele>591.0</ele><time>2026-04-13T16:15:47.977Z</time></trkpt><trkpt lat="40.732458" lon="14.8750667"><ele>596.0</ele><time>2026-04-13T16:15:48.98Z</time></trkpt><trkpt lat="40.7325858" lon="14.8749586"><ele>601.0</ele><time>2026-04-13T16:15:49.978Z</time></trkpt><trkpt lat="40.7326855" lon="14.8748958"><ele>606.0</ele><time>2026-04-13T16:15:50.974Z</time></trkpt><trkpt lat="40.7327451" lon="14.8748582"><ele>606.0</ele><time>2026-04-13T16:15:51.98Z</time></trkpt><trkpt lat="40.7327763" lon="14.87477"><ele>606.0</ele><time>2026-04-13T16:15:53.961Z</time></trkpt><trkpt lat="40.7327239" lon="14.8746497"><ele>606.0</ele><time>2026-04-13T16:15:56.977Z</time></trkpt><trkpt lat="40.7327205" lon="14.8745145"><ele>606.0</ele><time>2026-04-13T16:15:57.98Z</time></trkpt><trkpt lat="40.7327071" lon="14.8743442"><ele>606.0</ele><time>2026-04-13T16:15:59.979Z</time></trkpt><trkpt lat="40.7327847" lon="14.8742737"><ele>607.4</ele><time>2026-04-13T16:16:01.978Z</time></trkpt><trkpt lat="40.7328812" lon="14.8742327"><ele>608.8</ele><time>2026-04-13T16:16:03.977Z</time></trkpt><trkpt lat="40.732922" lon="14.8741583"><ele>610.1999999999999</ele><time>2026-04-13T16:16:05.976Z</time></trkpt><trkpt lat="40.7328531" lon="14.8741773"><ele>611.6</ele><time>2026-04-13T16:16:08.967Z</time></trkpt><trkpt lat="40.7327533" lon="14.8742353"><ele>613.0</ele><time>2026-04-13T16:16:10.973Z</time></trkpt><trkpt lat="40.732634" lon="14.8743023"><ele>614.4</ele><time>2026-04-13T16:16:12.98Z</time></trkpt><trkpt lat="40.7326032" lon="14.8743883"><ele>615.8</ele><time>2026-04-13T16:16:15.971Z</time></trkpt><trkpt lat="40.7326083" lon="14.8744848"><ele>617.2</ele><time>2026-04-13T16:16:17.975Z</time></trkpt><trkpt lat="40.7325887" lon="14.8746218"><ele>618.6</ele><time>2026-04-13T16:16:19.982Z</time></trkpt><trkpt lat="40.7324981" lon="14.8746669"><ele>620.0</ele><time>2026-04-13T16:16:22.979Z</time></trkpt><trkpt lat="40.7323699" lon="14.8746803"><ele>620.0</ele><time>2026-04-13T16:16:24.973Z</time></trkpt><trkpt lat="40.7322699" lon="14.8746879"><ele>620.0</ele><time>2026-04-13T16:16:25.976Z</time></trkpt><trkpt lat="40.732189" lon="14.8746565"><ele>620.0</ele><time>2026-04-13T16:16:26.973Z</time></trkpt><trkpt lat="40.7321179" lon="14.8746291"><ele>620.0</ele><time>2026-04-13T16:16:27.973Z</time></trkpt><trkpt lat="40.7320466" lon="14.8745947"><ele>620.0</ele><time>2026-04-13T16:16:28.974Z</time></trkpt><trkpt lat="40.7319777" lon="14.8745576"><ele>620.0</ele><time>2026-04-13T16:16:29.972Z</time></trkpt><trkpt lat="40.7319008" lon="14.8745351"><ele>618.8333333333333</ele><time>2026-04-13T16:16:30.977Z</time></trkpt><trkpt lat="40.7318222" lon="14.8745168"><ele>617.6666666666666</ele><time>2026-04-13T16:16:31.981Z</time></trkpt><trkpt lat="40.7317501" lon="14.8745114"><ele>616.5</ele><time>2026-04-13T16:16:32.972Z</time></trkpt><trkpt lat="40.7316978" lon="14.8745713"><ele>615.3333333333334</ele><time>2026-04-13T16:16:37.973Z</time></trkpt><trkpt lat="40.7316513" lon="14.8746387"><ele>614.1666666666667</ele><time>2026-04-13T16:16:41.971Z</time></trkpt><trkpt lat="40.7315769" lon="14.8746606"><ele>613.0</ele><time>2026-04-13T16:16:43.964Z</time></trkpt><trkpt lat="40.73151" lon="14.8747273"><ele>613.0</ele><time>2026-04-13T16:16:45.975Z</time></trkpt><trkpt lat="40.7314583" lon="14.8748717"><ele>613.0</ele><time>2026-04-13T16:16:47.973Z</time></trkpt><trkpt lat="40.7314333" lon="14.8750349"><ele>613.0</ele><time>2026-04-13T16:16:49.974Z</time></trkpt><trkpt lat="40.7315723" lon="14.8751513"><ele>613.0</ele><time>2026-04-13T16:16:51.975Z</time></trkpt><trkpt lat="40.7316463" lon="14.875164"><ele>611.1999999999999</ele><time>2026-04-13T16:16:52.958Z</time></trkpt><trkpt lat="40.7317132" lon="14.8752042"><ele>609.4</ele><time>2026-04-13T16:16:56.97Z</time></trkpt><trkpt lat="40.7317432" lon="14.8753443"><ele>607.5999999999999</ele><time>2026-04-13T16:16:58.953Z</time></trkpt><trkpt lat="40.7318237" lon="14.8752869"><ele>605.8</ele><time>2026-04-13T16:17:01.957Z</time></trkpt><trkpt lat="40.7319166" lon="14.8751971"><ele>604.0</ele><time>2026-04-13T16:17:03.954Z</time></trkpt><trkpt lat="40.7320065" lon="14.8751419"><ele>606.0</ele><time>2026-04-13T16:17:05.965Z</time></trkpt><trkpt lat="40.7327668" lon="14.8749197"><ele>606.0</ele><time>2026-04-13T16:17:09.974Z</time></trkpt><trkpt lat="40.7327044" lon="14.8748897"><ele>606.0</ele><time>2026-04-13T16:17:10.97Z</time></trkpt><trkpt lat="40.7328112" lon="14.8748133"><ele>606.0</ele><time>2026-04-13T16:17:12.972Z</time></trkpt><trkpt lat="40.7327866" lon="14.8747085"><ele>606.0</ele><time>2026-04-13T16:17:14.974Z</time></trkpt><trkpt lat="40.732751" lon="14.874563"><ele>606.0</ele><time>2026-04-13T16:17:16.96Z</time></trkpt><trkpt lat="40.7327134" lon="14.8744414"><ele>606.0</ele><time>2026-04-13T16:17:18.969Z</time></trkpt><trkpt lat="40.7327723" lon="14.8743578"><ele>606.0</ele><time>2026-04-13T16:17:22.97Z</time></trkpt><trkpt lat="40.7327655" lon="14.8742464"><ele>606.0</ele><time>2026-04-13T16:17:26.956Z</time></trkpt><trkpt lat="40.7327851" lon="14.8741595"><ele>606.0</ele><time>2026-04-13T16:17:27.965Z</time></trkpt><trkpt lat="40.7326854" lon="14.8742048"><ele>606.0</ele><time>2026-04-13T16:17:31.968Z</time></trkpt><trkpt lat="40.7325976" lon="14.8742778"><ele>606.0</ele><time>2026-04-13T16:17:33.973Z</time></trkpt><trkpt lat="40.7324942" lon="14.8743171"><ele>608.3333333333334</ele><time>2026-04-13T16:17:34.98Z</time></trkpt><trkpt lat="40.7324429" lon="14.8743739"><ele>610.6666666666666</ele><time>2026-04-13T16:17:36.814Z</time></trkpt><trkpt lat="40.7324583" lon="14.8744685"><ele>613.0</ele><time>2026-04-13T16:17:38.975Z</time></trkpt><trkpt lat="40.7324962" lon="14.874567"><ele>615.3333333333333</ele><time>2026-04-13T16:17:42.972Z</time></trkpt><trkpt lat="40.732472" lon="14.8746473"><ele>617.6666666666666</ele><time>2026-04-13T16:17:44.989Z</time></trkpt><trkpt lat="40.7324005" lon="14.8746668"><ele>620.0</ele><time>2026-04-13T16:17:46.978Z</time></trkpt><trkpt lat="40.7323085" lon="14.8746409"><ele>620.0</ele><time>2026-04-13T16:17:48.977Z</time></trkpt><trkpt lat="40.7321291" lon="14.8746439"><ele>620.0</ele><time>2026-04-13T16:17:49.959Z</time></trkpt><trkpt lat="40.7320593" lon="14.8746046"><ele>620.0</ele><time>2026-04-13T16:17:50.983Z</time></trkpt><trkpt lat="40.7319715" lon="14.8745882"><ele>620.0</ele><time>2026-04-13T16:17:52.977Z</time></trkpt><trkpt lat="40.73187" lon="14.8746299"><ele>618.8333333333333</ele><time>2026-04-13T16:17:54.974Z</time></trkpt><trkpt lat="40.7318337" lon="14.8747555"><ele>617.6666666666666</ele><time>2026-04-13T16:17:57.969Z</time></trkpt><trkpt lat="40.7318161" lon="14.8748849"><ele>616.5</ele><time>2026-04-13T16:17:59.969Z</time></trkpt><trkpt lat="40.7317414" lon="14.8748047"><ele>615.3333333333334</ele><time>2026-04-13T16:18:02.97Z</time></trkpt><trkpt lat="40.7316758" lon="14.8747848"><ele>614.1666666666667</ele><time>2026-04-13T16:18:04.97Z</time></trkpt><trkpt lat="40.7316" lon="14.8747784"><ele>613.0</ele><time>2026-04-13T16:18:06.968Z</time></trkpt><trkpt lat="40.7315327" lon="14.8748567"><ele>613.0</ele><time>2026-04-13T16:18:10.965Z</time></trkpt><trkpt lat="40.7315247" lon="14.875011"><ele>613.0</ele><time>2026-04-13T16:18:12.976Z</time></trkpt><trkpt lat="40.7316379" lon="14.8750885"><ele>613.0</ele><time>2026-04-13T16:18:14.971Z</time></trkpt><trkpt lat="40.7317005" lon="14.8751429"><ele>613.0</ele><time>2026-04-13T16:18:16.969Z</time></trkpt><trkpt lat="40.731775" lon="14.875178"><ele>613.0</ele><time>2026-04-13T16:18:18.972Z</time></trkpt><trkpt lat="40.7318515" lon="14.875241"><ele>614.1666666666667</ele><time>2026-04-13T16:18:20.974Z</time></trkpt><trkpt lat="40.7319227" lon="14.8752592"><ele>615.3333333333334</ele><time>2026-04-13T16:18:21.971Z</time></trkpt><trkpt lat="40.7319672" lon="14.8751956"><ele>616.5</ele><time>2026-04-13T16:18:23.977Z</time></trkpt><trkpt lat="40.7321089" lon="14.875119"><ele>617.6666666666666</ele><time>2026-04-13T16:18:25.962Z</time></trkpt><trkpt lat="40.732175" lon="14.8750852"><ele>618.8333333333333</ele><time>2026-04-13T16:18:26.975Z</time></trkpt><trkpt lat="40.7322443" lon="14.8750602"><ele>620.0</ele><time>2026-04-13T16:18:28.969Z</time></trkpt><trkpt lat="40.7323603" lon="14.8750554"><ele>620.0</ele><time>2026-04-13T16:18:30.975Z</time></trkpt><trkpt lat="40.7324824" lon="14.8749923"><ele>620.0</ele><time>2026-04-13T16:18:31.968Z</time></trkpt><trkpt lat="40.7326052" lon="14.8749121"><ele>620.0</ele><time>2026-04-13T16:18:32.967Z</time></trkpt><trkpt lat="40.7327003" lon="14.8748562"><ele>620.0</ele><time>2026-04-13T16:18:33.972Z</time></trkpt><trkpt lat="40.7327578" lon="14.8747929"><ele>620.0</ele><time>2026-04-13T16:18:35.976Z</time></trkpt><trkpt lat="40.7327281" lon="14.8747034"><ele>620.0</ele><time>2026-04-13T16:18:38.971Z</time></trkpt><trkpt lat="40.73265" lon="14.8746674"><ele>620.0</ele><time>2026-04-13T16:18:41.972Z</time></trkpt><trkpt lat="40.7325659" lon="14.874688"><ele>620.0</ele><time>2026-04-13T16:21:13.965Z</time></trkpt><trkpt lat="40.7324958" lon="14.8747074"><ele>620.0</ele><time>2026-04-13T16:32:17.964Z</time></trkpt><trkpt lat="40.7324082" lon="14.8747384"><ele>620.0</ele><time>2026-04-13T16:32:20.021Z</time></trkpt><trkpt lat="40.7323174" lon="14.8747577"><ele>620.0</ele><time>2026-04-13T16:32:21.958Z</time></trkpt><trkpt lat="40.7322357" lon="14.874743"><ele>620.0</ele><time>2026-04-13T16:32:22.964Z</time></trkpt><trkpt lat="40.7321646" lon="14.8747164"><ele>620.0</ele><time>2026-04-13T16:32:23.96Z</time></trkpt><trkpt lat="40.7320903" lon="14.8746898"><ele>620.0</ele><time>2026-04-13T16:32:24.96Z</time></trkpt><trkpt lat="40.7319968" lon="14.8746494"><ele>620.0</ele><time>2026-04-13T16:32:26.963Z</time></trkpt><trkpt lat="40.7318952" lon="14.8746486"><ele>620.0</ele><time>2026-04-13T16:32:29.046Z</time></trkpt><trkpt lat="40.7318315" lon="14.8746402"><ele>620.0</ele><time>2026-04-13T16:32:31.961Z</time></trkpt><trkpt lat="40.7317983" lon="14.8747203"><ele>618.8333333333333</ele><time>2026-04-13T16:32:33.962Z</time></trkpt><trkpt lat="40.7317355" lon="14.8747745"><ele>617.6666666666666</ele><time>2026-04-13T16:32:36.976Z</time></trkpt><trkpt lat="40.7316596" lon="14.8747535"><ele>616.5</ele><time>2026-04-13T16:32:38.96Z</time></trkpt><trkpt lat="40.7315731" lon="14.8747605"><ele>615.3333333333334</ele><time>2026-04-13T16:32:40.958Z</time></trkpt><trkpt lat="40.7315111" lon="14.8747937"><ele>614.1666666666667</ele><time>2026-04-13T16:32:42.957Z</time></trkpt><trkpt lat="40.731469" lon="14.874911"><ele>613.0</ele><time>2026-04-13T16:32:45.964Z</time></trkpt><trkpt lat="40.7315494" lon="14.8750067"><ele>613.0</ele><time>2026-04-13T16:32:47.963Z</time></trkpt><trkpt lat="40.7316237" lon="14.8750427"><ele>613.0</ele><time>2026-04-13T16:32:48.958Z</time></trkpt><trkpt lat="40.7316845" lon="14.8750672"><ele>613.0</ele><time>2026-04-13T16:32:49.979Z</time></trkpt><trkpt lat="40.7317579" lon="14.8750777"><ele>613.0</ele><time>2026-04-13T16:32:51.967Z</time></trkpt><trkpt lat="40.7318148" lon="14.8751322"><ele>613.0</ele><time>2026-04-13T16:32:53.946Z</time></trkpt><trkpt lat="40.7318946" lon="14.8751621"><ele>613.0</ele><time>2026-04-13T16:32:55.987Z</time></trkpt><trkpt lat="40.7319838" lon="14.8751205"><ele>614.1666666666667</ele><time>2026-04-13T16:32:57.973Z</time></trkpt><trkpt lat="40.7320527" lon="14.8750797"><ele>615.3333333333334</ele><time>2026-04-13T16:32:58.974Z</time></trkpt><trkpt lat="40.732125" lon="14.8750552"><ele>616.5</ele><time>2026-04-13T16:32:59.971Z</time></trkpt><trkpt lat="40.7322131" lon="14.8750239"><ele>617.6666666666666</ele><time>2026-04-13T16:33:01.968Z</time></trkpt><trkpt lat="40.7322894" lon="14.8750567"><ele>618.8333333333333</ele><time>2026-04-13T16:33:03.981Z</time></trkpt><trkpt lat="40.7323763" lon="14.875018"><ele>620.0</ele><time>2026-04-13T16:33:04.962Z</time></trkpt><trkpt lat="40.7325066" lon="14.8749531"><ele>620.0</ele><time>2026-04-13T16:33:05.971Z</time></trkpt><trkpt lat="40.7326347" lon="14.8748773"><ele>620.0</ele><time>2026-04-13T16:33:06.974Z</time></trkpt><trkpt lat="40.7327206" lon="14.8748282"><ele>620.0</ele><time>2026-04-13T16:33:07.972Z</time></trkpt><trkpt lat="40.7327922" lon="14.8747435"><ele>620.0</ele><time>2026-04-13T16:33:09.979Z</time></trkpt><trkpt lat="40.7327487" lon="14.8746437"><ele>620.0</ele><time>2026-04-13T16:33:12.976Z</time></trkpt><trkpt lat="40.7327548" lon="14.874542"><ele>620.0</ele><time>2026-04-13T16:33:13.971Z</time></trkpt><trkpt lat="40.7327275" lon="14.8744057"><ele>620.0</ele><time>2026-04-13T16:33:15.972Z</time></trkpt><trkpt lat="40.7327275" lon="14.8743044"><ele>620.0</ele><time>2026-04-13T16:33:17.97Z</time></trkpt><trkpt lat="40.7327921" lon="14.8742918"><ele>620.0</ele><time>2026-04-13T16:33:19.971Z</time></trkpt><trkpt lat="40.7328326" lon="14.8742042"><ele>620.0</ele><time>2026-04-13T16:33:21.954Z</time></trkpt><trkpt lat="40.7327579" lon="14.8742126"><ele>620.0</ele><time>2026-04-13T16:33:24.971Z</time></trkpt><trkpt lat="40.7326429" lon="14.8742741"><ele>620.0</ele><time>2026-04-13T16:33:25.969Z</time></trkpt><trkpt lat="40.7325561" lon="14.874305"><ele>620.0</ele><time>2026-04-13T16:33:26.972Z</time></trkpt><trkpt lat="40.7324608" lon="14.8743159"><ele>620.0</ele><time>2026-04-13T16:33:27.969Z</time></trkpt><trkpt lat="40.7323598" lon="14.8743334"><ele>620.0</ele><time>2026-04-13T16:33:28.97Z</time></trkpt><trkpt lat="40.7322884" lon="14.8743835"><ele>620.0</ele><time>2026-04-13T16:33:30.97Z</time></trkpt><trkpt lat="40.7324141" lon="14.874429"><ele>620.0</ele><time>2026-04-13T16:33:33.97Z</time></trkpt><trkpt lat="40.7324697" lon="14.8745014"><ele>620.0</ele><time>2026-04-13T16:33:35.97Z</time></trkpt><trkpt lat="40.7323983" lon="14.8745762"><ele>620.0</ele><time>2026-04-13T16:33:38.969Z</time></trkpt><trkpt lat="40.7323204" lon="14.8746841"><ele>620.0</ele><time>2026-04-13T16:33:40.972Z</time></trkpt><trkpt lat="40.7322514" lon="14.8746981"><ele>620.0</ele><time>2026-04-13T16:33:41.977Z</time></trkpt><trkpt lat="40.7321628" lon="14.8746922"><ele>620.0</ele><time>2026-04-13T16:33:43.053Z</time></trkpt><trkpt lat="40.7320955" lon="14.8746892"><ele>620.0</ele><time>2026-04-13T16:33:44.033Z</time></trkpt><trkpt lat="40.7320292" lon="14.8746637"><ele>620.0</ele><time>2026-04-13T16:33:44.973Z</time></trkpt><trkpt lat="40.7319676" lon="14.8746295"><ele>620.0</ele><time>2026-04-13T16:33:45.971Z</time></trkpt><trkpt lat="40.7319067" lon="14.8745962"><ele>620.0</ele><time>2026-04-13T16:33:46.977Z</time></trkpt><trkpt lat="40.7317834" lon="14.8745529"><ele>620.0</ele><time>2026-04-13T16:33:48.976Z</time></trkpt><trkpt lat="40.7316899" lon="14.8745861"><ele>620.0</ele><time>2026-04-13T16:33:50.976Z</time></trkpt><trkpt lat="40.7316338" lon="14.8746343"><ele>618.8333333333333</ele><time>2026-04-13T16:33:53.975Z</time></trkpt><trkpt lat="40.7315452" lon="14.8746223"><ele>617.6666666666666</ele><time>2026-04-13T16:34:00.971Z</time></trkpt><trkpt lat="40.7314853" lon="14.8746515"><ele>616.5</ele><time>2026-04-13T16:34:02.98Z</time></trkpt><trkpt lat="40.7314295" lon="14.8747549"><ele>615.3333333333334</ele><time>2026-04-13T16:34:04.982Z</time></trkpt><trkpt lat="40.7314485" lon="14.8748982"><ele>614.1666666666667</ele><time>2026-04-13T16:34:06.974Z</time></trkpt><trkpt lat="40.7314959" lon="14.8749662"><ele>613.0</ele><time>2026-04-13T16:34:08.036Z</time></trkpt><trkpt lat="40.7315787" lon="14.8750222"><ele>613.0</ele><time>2026-04-13T16:34:09.029Z</time></trkpt><trkpt lat="40.7316439" lon="14.8750521"><ele>613.0</ele><time>2026-04-13T16:34:10.036Z</time></trkpt><trkpt lat="40.731727" lon="14.8751092"><ele>613.0</ele><time>2026-04-13T16:34:11.96Z</time></trkpt><trkpt lat="40.7317972" lon="14.8751445"><ele>613.0</ele><time>2026-04-13T16:34:13.963Z</time></trkpt><trkpt lat="40.7318694" lon="14.8752521"><ele>613.0</ele><time>2026-04-13T16:34:15.956Z</time></trkpt><trkpt lat="40.7319541" lon="14.8752492"><ele>613.0</ele><time>2026-04-13T16:34:18.964Z</time></trkpt><trkpt lat="40.7320512" lon="14.8752165"><ele>614.4</ele><time>2026-04-13T16:34:20.968Z</time></trkpt><trkpt lat="40.7321276" lon="14.8752084"><ele>615.8</ele><time>2026-04-13T16:34:22.956Z</time></trkpt><trkpt lat="40.7321903" lon="14.8752271"><ele>617.2</ele><time>2026-04-13T16:34:23.954Z</time></trkpt><trkpt lat="40.7322875" lon="14.8752098"><ele>618.6</ele><time>2026-04-13T16:34:24.964Z</time></trkpt><trkpt lat="40.7323783" lon="14.8751669"><ele>620.0</ele><time>2026-04-13T16:34:25.96Z</time></trkpt><trkpt lat="40.7324993" lon="14.8750769"><ele>620.0</ele><time>2026-04-13T16:34:27.049Z</time></trkpt><trkpt lat="40.7326228" lon="14.8749922"><ele>620.0</ele><time>2026-04-13T16:34:28.046Z</time></trkpt><trkpt lat="40.7327149" lon="14.8749306"><ele>620.0</ele><time>2026-04-13T16:34:29.072Z</time></trkpt><trkpt lat="40.7327668" lon="14.8748479"><ele>620.0</ele><time>2026-04-13T16:34:30.968Z</time></trkpt><trkpt lat="40.7327371" lon="14.8747638"><ele>620.0</ele><time>2026-04-13T16:34:32.967Z</time></trkpt><trkpt lat="40.7327363" lon="14.8746711"><ele>618.6</ele><time>2026-04-13T16:34:33.966Z</time></trkpt><trkpt lat="40.7327658" lon="14.8745438"><ele>617.2</ele><time>2026-04-13T16:34:35.041Z</time></trkpt><trkpt lat="40.7327695" lon="14.8743991"><ele>615.8</ele><time>2026-04-13T16:34:36.964Z</time></trkpt><trkpt lat="40.7328076" lon="14.8743102"><ele>614.4</ele><time>2026-04-13T16:34:41.043Z</time></trkpt><trkpt lat="40.7328618" lon="14.8742157"><ele>613.0</ele><time>2026-04-13T16:34:42.96Z</time></trkpt><trkpt lat="40.7327247" lon="14.874218"><ele>614.4</ele><time>2026-04-13T16:34:46.96Z</time></trkpt><trkpt lat="40.7325965" lon="14.8742699"><ele>615.8</ele><time>2026-04-13T16:34:47.956Z</time></trkpt><trkpt lat="40.7324856" lon="14.8742975"><ele>617.2</ele><time>2026-04-13T16:34:48.949Z</time></trkpt><trkpt lat="40.7323887" lon="14.8742926"><ele>618.6</ele><time>2026-04-13T16:34:50.033Z</time></trkpt><trkpt lat="40.7322882" lon="14.8743331"><ele>620.0</ele><time>2026-04-13T16:34:51.965Z</time></trkpt><trkpt lat="40.7323028" lon="14.8744429"><ele>620.0</ele><time>2026-04-13T16:34:55.037Z</time></trkpt><trkpt lat="40.7323733" lon="14.8744969"><ele>620.0</ele><time>2026-04-13T16:34:56.046Z</time></trkpt><trkpt lat="40.7324376" lon="14.8745475"><ele>620.0</ele><time>2026-04-13T16:34:57.966Z</time></trkpt><trkpt lat="40.732455" lon="14.8746327"><ele>620.0</ele><time>2026-04-13T16:35:00.967Z</time></trkpt><trkpt lat="40.732374" lon="14.8747206"><ele>620.0</ele><time>2026-04-13T16:35:02.957Z</time></trkpt><trkpt lat="40.7323135" lon="14.8747458"><ele>620.0</ele><time>2026-04-13T16:35:03.98Z</time></trkpt><trkpt lat="40.7322319" lon="14.8747348"><ele>620.0</ele><time>2026-04-13T16:35:04.965Z</time></trkpt><trkpt lat="40.732149" lon="14.8747113"><ele>620.0</ele><time>2026-04-13T16:35:05.948Z</time></trkpt><trkpt lat="40.7320792" lon="14.8746909"><ele>620.0</ele><time>2026-04-13T16:35:06.954Z</time></trkpt><trkpt lat="40.7319766" lon="14.8746561"><ele>620.0</ele><time>2026-04-13T16:35:08.959Z</time></trkpt><trkpt lat="40.7318684" lon="14.8746143"><ele>620.0</ele><time>2026-04-13T16:35:10.958Z</time></trkpt><trkpt lat="40.7317933" lon="14.8745903"><ele>618.6</ele><time>2026-04-13T16:35:12.963Z</time></trkpt><trkpt lat="40.7317186" lon="14.874673"><ele>617.2</ele><time>2026-04-13T16:35:16.958Z</time></trkpt><trkpt lat="40.7316601" lon="14.8747069"><ele>615.8</ele><time>2026-04-13T16:35:20.964Z</time></trkpt><trkpt lat="40.7315666" lon="14.8747314"><ele>614.4</ele><time>2026-04-13T16:35:23.966Z</time></trkpt><trkpt lat="40.7314839" lon="14.8748008"><ele>613.0</ele><time>2026-04-13T16:35:26.956Z</time></trkpt><trkpt lat="40.731473" lon="14.8749378"><ele>613.0</ele><time>2026-04-13T16:35:28.966Z</time></trkpt><trkpt lat="40.7314875" lon="14.8750381"><ele>613.0</ele><time>2026-04-13T16:35:29.954Z</time></trkpt><trkpt lat="40.731513" lon="14.8751267"><ele>613.0</ele><time>2026-04-13T16:35:30.96Z</time></trkpt><trkpt lat="40.7316073" lon="14.8751938"><ele>613.0</ele><time>2026-04-13T16:35:32.962Z</time></trkpt><trkpt lat="40.731694" lon="14.8752085"><ele>613.0</ele><time>2026-04-13T16:35:34.961Z</time></trkpt><trkpt lat="40.7317602" lon="14.8752545"><ele>613.0</ele><time>2026-04-13T16:35:35.959Z</time></trkpt><trkpt lat="40.7318541" lon="14.8753331"><ele>607.6</ele><time>2026-04-13T16:35:37.97Z</time></trkpt><trkpt lat="40.731931" lon="14.8753117"><ele>602.1999999999999</ele><time>2026-04-13T16:35:39.966Z</time></trkpt><trkpt lat="40.7320518" lon="14.8752367"><ele>596.8</ele><time>2026-04-13T16:35:41.959Z</time></trkpt><trkpt lat="40.7321161" lon="14.8751901"><ele>591.4</ele><time>2026-04-13T16:35:42.96Z</time></trkpt><trkpt lat="40.7321951" lon="14.8751398"><ele>586.0</ele><time>2026-04-13T16:35:44.97Z</time></trkpt><trkpt lat="40.7323442" lon="14.8751226"><ele>591.0</ele><time>2026-04-13T16:35:46.967Z</time></trkpt><trkpt lat="40.7324587" lon="14.8750732"><ele>596.0</ele><time>2026-04-13T16:35:47.963Z</time></trkpt><trkpt lat="40.7325777" lon="14.8749837"><ele>601.0</ele><time>2026-04-13T16:35:48.954Z</time></trkpt><trkpt lat="40.7326931" lon="14.874915"><ele>606.0</ele><time>2026-04-13T16:35:49.964Z</time></trkpt><trkpt lat="40.7327616" lon="14.8748609"><ele>606.0</ele><time>2026-04-13T16:35:50.964Z</time></trkpt><trkpt lat="40.7327737" lon="14.8747261"><ele>606.0</ele><time>2026-04-13T16:35:52.961Z</time></trkpt><trkpt lat="40.7326988" lon="14.8746078"><ele>606.0</ele><time>2026-04-13T16:35:54.958Z</time></trkpt><trkpt lat="40.732699" lon="14.8744678"><ele>606.0</ele><time>2026-04-13T16:35:56.969Z</time></trkpt><trkpt lat="40.7327095" lon="14.8743721"><ele>606.0</ele><time>2026-04-13T16:35:58.964Z</time></trkpt><trkpt lat="40.7327795" lon="14.8742921"><ele>607.4</ele><time>2026-04-13T16:36:01.968Z</time></trkpt><trkpt lat="40.7327879" lon="14.8741615"><ele>608.8</ele><time>2026-04-13T16:36:04.04Z</time></trkpt><trkpt lat="40.7326708" lon="14.8741693"><ele>610.1999999999999</ele><time>2026-04-13T16:36:05.968Z</time></trkpt><trkpt lat="40.7325622" lon="14.8742218"><ele>611.6</ele><time>2026-04-13T16:36:06.975Z</time></trkpt><trkpt lat="40.7324581" lon="14.8742796"><ele>613.0</ele><time>2026-04-13T16:36:07.97Z</time></trkpt><trkpt lat="40.7323784" lon="14.8743153"><ele>614.1666666666667</ele><time>2026-04-13T16:36:08.976Z</time></trkpt><trkpt lat="40.7323134" lon="14.8743417"><ele>615.3333333333334</ele><time>2026-04-13T16:36:09.958Z</time></trkpt><trkpt lat="40.732337" lon="14.8744269"><ele>616.5</ele><time>2026-04-13T16:36:13.977Z</time></trkpt><trkpt lat="40.7324045" lon="14.8744382"><ele>617.6666666666666</ele><time>2026-04-13T16:36:14.993Z</time></trkpt><trkpt lat="40.7324884" lon="14.8744468"><ele>618.8333333333333</ele><time>2026-04-13T16:36:16.047Z</time></trkpt><trkpt lat="40.7325655" lon="14.8745317"><ele>620.0</ele><time>2026-04-13T16:36:17.973Z</time></trkpt><trkpt lat="40.7325586" lon="14.8746183"><ele>620.0</ele><time>2026-04-13T16:36:20.983Z</time></trkpt><trkpt lat="40.7325062" lon="14.8746945"><ele>620.0</ele><time>2026-04-13T16:36:23.046Z</time></trkpt><trkpt lat="40.7323868" lon="14.8747375"><ele>620.0</ele><time>2026-04-13T16:36:25.038Z</time></trkpt><trkpt lat="40.7322803" lon="14.8747161"><ele>620.0</ele><time>2026-04-13T16:36:26.057Z</time></trkpt><trkpt lat="40.732182" lon="14.8746895"><ele>620.0</ele><time>2026-04-13T16:36:26.966Z</time></trkpt><trkpt lat="40.7321009" lon="14.8746637"><ele>620.0</ele><time>2026-04-13T16:36:27.97Z</time></trkpt><trkpt lat="40.7320381" lon="14.8746356"><ele>620.0</ele><time>2026-04-13T16:36:28.965Z</time></trkpt><trkpt lat="40.7319214" lon="14.8745959"><ele>620.0</ele><time>2026-04-13T16:36:30.966Z</time></trkpt><trkpt lat="40.7318553" lon="14.8745803"><ele>620.0</ele><time>2026-04-13T16:36:31.967Z</time></trkpt><trkpt lat="40.7317677" lon="14.8745688"><ele>620.0</ele><time>2026-04-13T16:36:33.973Z</time></trkpt><trkpt lat="40.7317084" lon="14.8746536"><ele>620.0</ele><time>2026-04-13T16:36:36.97Z</time></trkpt><trkpt lat="40.7316551" lon="14.8747052"><ele>618.8333333333333</ele><time>2026-04-13T16:36:40.967Z</time></trkpt><trkpt lat="40.7315936" lon="14.8747823"><ele>617.6666666666666</ele><time>2026-04-13T16:36:43.967Z</time></trkpt><trkpt lat="40.7315541" lon="14.8748699"><ele>616.5</ele><time>2026-04-13T16:36:44.966Z</time></trkpt><trkpt lat="40.731529" lon="14.8749644"><ele>615.3333333333334</ele><time>2026-04-13T16:36:45.966Z</time></trkpt><trkpt lat="40.7315083" lon="14.8750719"><ele>614.1666666666667</ele><time>2026-04-13T16:36:46.966Z</time></trkpt><trkpt lat="40.7315149" lon="14.8751884"><ele>613.0</ele><time>2026-04-13T16:36:47.952Z</time></trkpt><trkpt lat="40.7315373" lon="14.8753016"><ele>611.5</ele><time>2026-04-13T16:36:48.964Z</time></trkpt><trkpt lat="40.7315829" lon="14.8753873"><ele>610.0</ele><time>2026-04-13T16:36:49.965Z</time></trkpt><trkpt lat="40.7316476" lon="14.8754019"><ele>608.5</ele><time>2026-04-13T16:36:50.971Z</time></trkpt><trkpt lat="40.7317118" lon="14.8753882"><ele>607.0</ele><time>2026-04-13T16:36:55.058Z</time></trkpt><trkpt lat="40.7318269" lon="14.875371"><ele>605.5</ele><time>2026-04-13T16:36:57.97Z</time></trkpt><trkpt lat="40.7318982" lon="14.8752854"><ele>604.0</ele><time>2026-04-13T16:36:59.969Z</time></trkpt><trkpt lat="40.7320279" lon="14.8752037"><ele>608.0</ele><time>2026-04-13T16:37:02.974Z</time></trkpt><trkpt lat="40.7321328" lon="14.8751959"><ele>612.0</ele><time>2026-04-13T16:37:04.969Z</time></trkpt><trkpt lat="40.7322289" lon="14.875169"><ele>616.0</ele><time>2026-04-13T16:37:05.966Z</time></trkpt><trkpt lat="40.732364" lon="14.8750929"><ele>620.0</ele><time>2026-04-13T16:37:06.972Z</time></trkpt><trkpt lat="40.7324959" lon="14.8750222"><ele>620.0</ele><time>2026-04-13T16:37:07.961Z</time></trkpt><trkpt lat="40.7326204" lon="14.8749462"><ele>620.0</ele><time>2026-04-13T16:37:09.039Z</time></trkpt><trkpt lat="40.7327161" lon="14.8748941"><ele>620.0</ele><time>2026-04-13T16:37:10.046Z</time></trkpt><trkpt lat="40.7327988" lon="14.8748133"><ele>620.0</ele><time>2026-04-13T16:37:10.96Z</time></trkpt><trkpt lat="40.7316551" lon="14.8747052"><ele>618.8333333333333</ele><time>2026-04-13T16:36:40.967Z</time></trkpt><trkpt lat="40.7315936" lon="14.8747823"><ele>617.6666666666666</ele><time>2026-04-13T16:36:43.967Z</time></trkpt><trkpt lat="40.7315541" lon="14.8748699"><ele>616.5</ele><time>2026-04-13T16:36:44.966Z</time></trkpt><trkpt lat="40.731529" lon="14.8749644"><ele>615.3333333333334</ele><time>2026-04-13T16:36:45.966Z</time></trkpt><trkpt lat="40.7315083" lon="14.8750719"><ele>614.1666666666667</ele><time>2026-04-13T16:36:46.966Z</time></trkpt><trkpt lat="40.7315149" lon="14.8751884"><ele>613.0</ele><time>2026-04-13T16:36:47.952Z</time></trkpt><trkpt lat="40.7315373" lon="14.8753016"><ele>611.5</ele><time>2026-04-13T16:36:48.964Z</time></trkpt><trkpt lat="40.7315829" lon="14.8753873"><ele>610.0</ele><time>2026-04-13T16:36:49.965Z</time></trkpt><trkpt lat="40.7316476" lon="14.8754019"><ele>608.5</ele><time>2026-04-13T16:36:50.971Z</time></trkpt><trkpt lat="40.7317118" lon="14.8753882"><ele>607.0</ele><time>2026-04-13T16:36:55.058Z</time></trkpt><trkpt lat="40.7318269" lon="14.875371"><ele>605.5</ele><time>2026-04-13T16:36:57.97Z</time></trkpt><trkpt lat="40.7318982" lon="14.8752854"><ele>604.0</ele><time>2026-04-13T16:36:59.969Z</time></trkpt><trkpt lat="40.7320279" lon="14.8752037"><ele>608.0</ele><time>2026-04-13T16:37:02.974Z</time></trkpt><trkpt lat="40.7321328" lon="14.8751959"><ele>612.0</ele><time>2026-04-13T16:37:04.969Z</time></trkpt><trkpt lat="40.7322289" lon="14.875169"><ele>616.0</ele><time>2026-04-13T16:37:05.966Z</time></trkpt><trkpt lat="40.732364" lon="14.8750929"><ele>620.0</ele><time>2026-04-13T16:37:06.972Z</time></trkpt><trkpt lat="40.7324959" lon="14.8750222"><ele>620.0</ele><time>2026-04-13T16:37:07.961Z</time></trkpt><trkpt lat="40.7326204" lon="14.8749462"><ele>620.0</ele><time>2026-04-13T16:37:09.039Z</time></trkpt><trkpt lat="40.7327161" lon="14.8748941"><ele>620.0</ele><time>2026-04-13T16:37:10.046Z</time></trkpt><trkpt lat="40.7327988" lon="14.8748133"><ele>620.0</ele><time>2026-04-13T16:37:10.96Z</time></trkpt><trkpt lat="40.7327933" lon="14.8747122"><ele>620.0</ele><time>2026-04-13T16:37:12.961Z</time></trkpt><trkpt lat="40.7327603" lon="14.8745493"><ele>618.6</ele><time>2026-04-13T16:37:14.961Z</time></trkpt><trkpt lat="40.732728" lon="14.8743763"><ele>617.2</ele><time>2026-04-13T16:37:16.969Z</time></trkpt><trkpt lat="40.7328254" lon="14.8743255"><ele>615.8</ele><time>2026-04-13T16:37:19.956Z</time></trkpt><trkpt lat="40.7329013" lon="14.8742166"><ele>614.4</ele><time>2026-04-13T16:37:22.959Z</time></trkpt><trkpt lat="40.732837" lon="14.8742452"><ele>613.0</ele><time>2026-04-13T16:37:25.967Z</time></trkpt><trkpt lat="40.7327883" lon="14.8742996"><ele>614.1666666666667</ele><time>2026-04-13T16:37:27.018Z</time></trkpt><trkpt lat="40.7327067" lon="14.8743424"><ele>615.3333333333334</ele><time>2026-04-13T16:37:28.02Z</time></trkpt><trkpt lat="40.7326289" lon="14.8743448"><ele>616.5</ele><time>2026-04-13T16:37:29.026Z</time></trkpt><trkpt lat="40.7325376" lon="14.8743818"><ele>617.6666666666666</ele><time>2026-04-13T16:37:29.963Z</time></trkpt><trkpt lat="40.7324758" lon="14.874428"><ele>618.8333333333333</ele><time>2026-04-13T16:37:30.947Z</time></trkpt><trkpt lat="40.7325186" lon="14.8744902"><ele>620.0</ele><time>2026-04-13T16:37:35.958Z</time></trkpt><trkpt lat="40.7325609" lon="14.874597"><ele>620.0</ele><time>2026-04-13T16:37:38.043Z</time></trkpt><trkpt lat="40.7324892" lon="14.8746078"><ele>620.0</ele><time>2026-04-13T16:37:40.958Z</time></trkpt><trkpt lat="40.7324074" lon="14.8746645"><ele>620.0</ele><time>2026-04-13T16:37:42.952Z</time></trkpt><trkpt lat="40.7323315" lon="14.8746741"><ele>620.0</ele><time>2026-04-13T16:37:43.96Z</time></trkpt><trkpt lat="40.732227" lon="14.8746716"><ele>620.0</ele><time>2026-04-13T16:37:45.044Z</time></trkpt><trkpt lat="40.7321351" lon="14.8746573"><ele>620.0</ele><time>2026-04-13T16:37:46.041Z</time></trkpt><trkpt lat="40.7320597" lon="14.8746188"><ele>620.0</ele><time>2026-04-13T16:37:46.958Z</time></trkpt><trkpt lat="40.7319837" lon="14.8745788"><ele>620.0</ele><time>2026-04-13T16:37:47.958Z</time></trkpt><trkpt lat="40.7319103" lon="14.8745433"><ele>620.0</ele><time>2026-04-13T16:37:48.958Z</time></trkpt><trkpt lat="40.731838" lon="14.8745149"><ele>620.0</ele><time>2026-04-13T16:37:49.958Z</time></trkpt><trkpt lat="40.7317333" lon="14.8745172"><ele>620.0</ele><time>2026-04-13T16:37:51.954Z</time></trkpt><trkpt lat="40.7317153" lon="14.8746564"><ele>620.0</ele><time>2026-04-13T16:37:54.96Z</time></trkpt><trkpt lat="40.7316601" lon="14.8747179"><ele>618.6</ele><time>2026-04-13T16:37:56.958Z</time></trkpt><trkpt lat="40.7315813" lon="14.8747634"><ele>617.2</ele><time>2026-04-13T16:38:03.046Z</time></trkpt><trkpt lat="40.7315208" lon="14.8748773"><ele>615.8</ele><time>2026-04-13T16:38:04.956Z</time></trkpt><trkpt lat="40.7314908" lon="14.8750054"><ele>614.4</ele><time>2026-04-13T16:38:05.952Z</time></trkpt><trkpt lat="40.7314991" lon="14.8750886"><ele>613.0</ele><time>2026-04-13T16:38:06.964Z</time></trkpt><trkpt lat="40.7315728" lon="14.8751978"><ele>611.5</ele><time>2026-04-13T16:38:08.958Z</time></trkpt><trkpt lat="40.7316413" lon="14.8752292"><ele>610.0</ele><time>2026-04-13T16:38:09.962Z</time></trkpt><trkpt lat="40.7317072" lon="14.8752487"><ele>608.5</ele><time>2026-04-13T16:38:10.954Z</time></trkpt><trkpt lat="40.7317745" lon="14.8752338"><ele>607.0</ele><time>2026-04-13T16:38:15.962Z</time></trkpt><trkpt lat="40.7318595" lon="14.875226"><ele>605.5</ele><time>2026-04-13T16:38:18.972Z</time></trkpt><trkpt lat="40.7319643" lon="14.8751756"><ele>604.0</ele><time>2026-04-13T16:38:20.97Z</time></trkpt><trkpt lat="40.7320591" lon="14.875145"><ele>606.6666666666667</ele><time>2026-04-13T16:38:22.056Z</time></trkpt><trkpt lat="40.7321245" lon="14.8750968"><ele>609.3333333333334</ele><time>2026-04-13T16:38:23.049Z</time></trkpt><trkpt lat="40.7321908" lon="14.8751022"><ele>612.0</ele><time>2026-04-13T16:38:24.978Z</time></trkpt><trkpt lat="40.7322618" lon="14.8751073"><ele>614.6666666666666</ele><time>2026-04-13T16:38:25.973Z</time></trkpt><trkpt lat="40.7323732" lon="14.8750875"><ele>617.3333333333333</ele><time>2026-04-13T16:38:26.975Z</time></trkpt><trkpt lat="40.7324788" lon="14.8750512"><ele>620.0</ele><time>2026-04-13T16:38:27.974Z</time></trkpt><trkpt lat="40.7325768" lon="14.8750044"><ele>620.0</ele><time>2026-04-13T16:38:28.982Z</time></trkpt><trkpt lat="40.7326538" lon="14.8749588"><ele>620.0</ele><time>2026-04-13T16:38:30.083Z</time></trkpt><trkpt lat="40.7327312" lon="14.874871"><ele>620.0</ele><time>2026-04-13T16:38:31.982Z</time></trkpt><trkpt lat="40.7327327" lon="14.8747112"><ele>620.0</ele><time>2026-04-13T16:38:34.001Z</time></trkpt><trkpt lat="40.7327389" lon="14.8745695"><ele>620.0</ele><time>2026-04-13T16:38:35.042Z</time></trkpt><trkpt lat="40.7327531" lon="14.8744576"><ele>620.6666666666666</ele><time>2026-04-13T16:38:35.968Z</time></trkpt><trkpt lat="40.7327418" lon="14.8743502"><ele>621.3333333333333</ele><time>2026-04-13T16:38:37.968Z</time></trkpt><trkpt lat="40.7328198" lon="14.8742886"><ele>622.0</ele><time>2026-04-13T16:38:39.97Z</time></trkpt><trkpt lat="40.7328791" lon="14.8741777"><ele>622.6666666666666</ele><time>2026-04-13T16:38:42.965Z</time></trkpt><trkpt lat="40.7328129" lon="14.8741103"><ele>623.3333333333334</ele><time>2026-04-13T16:38:44.959Z</time></trkpt><trkpt lat="40.7327457" lon="14.8741227"><ele>624.0</ele><time>2026-04-13T16:38:45.967Z</time></trkpt><trkpt lat="40.7326683" lon="14.874162"><ele>624.0</ele><time>2026-04-13T16:38:46.966Z</time></trkpt><trkpt lat="40.7325928" lon="14.8742046"><ele>624.0</ele><time>2026-04-13T16:38:47.966Z</time></trkpt><trkpt lat="40.7324977" lon="14.8742455"><ele>624.0</ele><time>2026-04-13T16:38:48.961Z</time></trkpt><trkpt lat="40.7324155" lon="14.8742825"><ele>624.0</ele><time>2026-04-13T16:39:23.952Z</time></trkpt><trkpt lat="40.7324367" lon="14.8743634"><ele>624.0</ele><time>2026-04-13T16:39:27.959Z</time></trkpt><trkpt lat="40.7325005" lon="14.8744809"><ele>624.0</ele><time>2026-04-13T16:39:29.962Z</time></trkpt><trkpt lat="40.7325564" lon="14.8745295"><ele>623.2</ele><time>2026-04-13T16:39:30.958Z</time></trkpt><trkpt lat="40.7325773" lon="14.874633"><ele>622.4</ele><time>2026-04-13T16:39:32.969Z</time></trkpt><trkpt lat="40.7325237" lon="14.8746868"><ele>621.6</ele><time>2026-04-13T16:39:35.953Z</time></trkpt><trkpt lat="40.7324552" lon="14.8747254"><ele>620.8</ele><time>2026-04-13T16:39:37.963Z</time></trkpt><trkpt lat="40.7323291" lon="14.8747329"><ele>620.0</ele><time>2026-04-13T16:39:39.963Z</time></trkpt><trkpt lat="40.7322166" lon="14.8746971"><ele>620.0</ele><time>2026-04-13T16:39:40.96Z</time></trkpt><trkpt lat="40.7321545" lon="14.8746706"><ele>620.0</ele><time>2026-04-13T16:39:41.965Z</time></trkpt><trkpt lat="40.7320764" lon="14.8746177"><ele>620.0</ele><time>2026-04-13T16:39:42.963Z</time></trkpt><trkpt lat="40.7320155" lon="14.874582"><ele>620.0</ele><time>2026-04-13T16:39:43.968Z</time></trkpt><trkpt lat="40.7319474" lon="14.8745343"><ele>620.0</ele><time>2026-04-13T16:39:44.952Z</time></trkpt><trkpt lat="40.7318734" lon="14.874498"><ele>620.0</ele><time>2026-04-13T16:39:45.965Z</time></trkpt><trkpt lat="40.7318036" lon="14.8745192"><ele>620.0</ele><time>2026-04-13T16:39:47.966Z</time></trkpt><trkpt lat="40.7317419" lon="14.8746011"><ele>618.8333333333333</ele><time>2026-04-13T16:39:49.965Z</time></trkpt><trkpt lat="40.7316713" lon="14.8746658"><ele>617.6666666666666</ele><time>2026-04-13T16:39:52.968Z</time></trkpt><trkpt lat="40.7315998" lon="14.874664"><ele>616.5</ele><time>2026-04-13T16:39:54.967Z</time></trkpt><trkpt lat="40.7315075" lon="14.8747511"><ele>615.3333333333334</ele><time>2026-04-13T16:39:56.957Z</time></trkpt><trkpt lat="40.7314745" lon="14.8748358"><ele>614.1666666666667</ele><time>2026-04-13T16:39:57.96Z</time></trkpt><trkpt lat="40.7314534" lon="14.8749198"><ele>613.0</ele><time>2026-04-13T16:39:58.965Z</time></trkpt><trkpt lat="40.731448" lon="14.8750157"><ele>611.7142857142858</ele><time>2026-04-13T16:39:59.958Z</time></trkpt><trkpt lat="40.731446" lon="14.8751126"><ele>610.4285714285714</ele><time>2026-04-13T16:40:00.963Z</time></trkpt><trkpt lat="40.7314808" lon="14.8751952"><ele>609.1428571428571</ele><time>2026-04-13T16:40:01.965Z</time></trkpt><trkpt lat="40.7315487" lon="14.8752864"><ele>607.8571428571429</ele><time>2026-04-13T16:40:02.964Z</time></trkpt><trkpt lat="40.7316234" lon="14.8752733"><ele>606.5714285714286</ele><time>2026-04-13T16:40:03.959Z</time></trkpt><trkpt lat="40.7316824" lon="14.8752305"><ele>605.2857142857143</ele><time>2026-04-13T16:40:05.031Z</time></trkpt><trkpt lat="40.7317421" lon="14.8752039"><ele>604.0</ele><time>2026-04-13T16:40:06.961Z</time></trkpt><trkpt lat="40.7318419" lon="14.8752257"><ele>607.2</ele><time>2026-04-13T16:40:09.965Z</time></trkpt><trkpt lat="40.7319266" lon="14.8752319"><ele>610.4</ele><time>2026-04-13T16:40:11.971Z</time></trkpt><trkpt lat="40.7320048" lon="14.8751511"><ele>613.6</ele><time>2026-04-13T16:40:13.979Z</time></trkpt><trkpt lat="40.7320827" lon="14.8750997"><ele>616.8</ele><time>2026-04-13T16:40:14.968Z</time></trkpt><trkpt lat="40.7321667" lon="14.8750338"><ele>620.0</ele><time>2026-04-13T16:40:16.967Z</time></trkpt><trkpt lat="40.7322695" lon="14.8750506"><ele>620.0</ele><time>2026-04-13T16:40:18.969Z</time></trkpt><trkpt lat="40.7324019" lon="14.8750181"><ele>620.0</ele><time>2026-04-13T16:40:19.967Z</time></trkpt><trkpt lat="40.7325165" lon="14.8749482"><ele>620.0</ele><time>2026-04-13T16:40:21.062Z</time></trkpt><trkpt lat="40.7326389" lon="14.874873"><ele>620.0</ele><time>2026-04-13T16:40:21.968Z</time></trkpt><trkpt lat="40.7327205" lon="14.8748299"><ele>617.6666666666666</ele><time>2026-04-13T16:40:22.973Z</time></trkpt><trkpt lat="40.7327878" lon="14.8747403"><ele>615.3333333333333</ele><time>2026-04-13T16:40:24.971Z</time></trkpt><trkpt lat="40.7327363" lon="14.8746757"><ele>613.0</ele><time>2026-04-13T16:40:26.966Z</time></trkpt><trkpt lat="40.7327266" lon="14.8745892"><ele>610.6666666666666</ele><time>2026-04-13T16:40:28.046Z</time></trkpt><trkpt lat="40.7327377" lon="14.8744695"><ele>608.3333333333334</ele><time>2026-04-13T16:40:28.967Z</time></trkpt><trkpt lat="40.7327268" lon="14.8743524"><ele>606.0</ele><time>2026-04-13T16:40:30.965Z</time></trkpt><trkpt lat="40.7328194" lon="14.8743271"><ele>606.0</ele><time>2026-04-13T16:40:32.961Z</time></trkpt><trkpt lat="40.7328847" lon="14.8743012"><ele>606.0</ele><time>2026-04-13T16:40:33.962Z</time></trkpt><trkpt lat="40.7329516" lon="14.8742295"><ele>606.0</ele><time>2026-04-13T16:40:36.031Z</time></trkpt><trkpt lat="40.7328871" lon="14.8743629"><ele>606.0</ele><time>2026-04-13T16:40:38.96Z</time></trkpt><trkpt lat="40.7327769" lon="14.8744015"><ele>606.0</ele><time>2026-04-13T16:40:39.959Z</time></trkpt><trkpt lat="40.7326634" lon="14.8744177"><ele>608.8</ele><time>2026-04-13T16:40:40.966Z</time></trkpt><trkpt lat="40.7325554" lon="14.874406"><ele>611.6</ele><time>2026-04-13T16:40:41.965Z</time></trkpt><trkpt lat="40.7324688" lon="14.8744064"><ele>614.4</ele><time>2026-04-13T16:40:42.98Z</time></trkpt><trkpt lat="40.7323911" lon="14.8744497"><ele>617.2</ele><time>2026-04-13T16:40:44.971Z</time></trkpt><trkpt lat="40.7324549" lon="14.8745026"><ele>620.0</ele><time>2026-04-13T16:40:47.967Z</time></trkpt><trkpt lat="40.7325407" lon="14.8745729"><ele>620.0</ele><time>2026-04-13T16:40:49.966Z</time></trkpt><trkpt lat="40.732476" lon="14.8746075"><ele>620.0</ele><time>2026-04-13T16:40:51.969Z</time></trkpt><trkpt lat="40.7323684" lon="14.8746359"><ele>620.0</ele><time>2026-04-13T16:40:53.967Z</time></trkpt><trkpt lat="40.732312" lon="14.8746754"><ele>620.0</ele><time>2026-04-13T16:40:55.054Z</time></trkpt><trkpt lat="40.7322465" lon="14.8746888"><ele>620.0</ele><time>2026-04-13T16:40:55.963Z</time></trkpt><trkpt lat="40.7321671" lon="14.8746829"><ele>620.0</ele><time>2026-04-13T16:40:56.964Z</time></trkpt><trkpt lat="40.7320916" lon="14.8746655"><ele>620.0</ele><time>2026-04-13T16:40:57.964Z</time></trkpt><trkpt lat="40.7319762" lon="14.8746081"><ele>620.0</ele><time>2026-04-13T16:41:00.036Z</time></trkpt><trkpt lat="40.7319179" lon="14.8745712"><ele>620.0</ele><time>2026-04-13T16:41:00.971Z</time></trkpt><trkpt lat="40.7318554" lon="14.874553"><ele>620.0</ele><time>2026-04-13T16:41:01.966Z</time></trkpt><trkpt lat="40.731779" lon="14.8745806"><ele>620.0</ele><time>2026-04-13T16:41:04.024Z</time></trkpt><trkpt lat="40.7317623" lon="14.8746871"><ele>620.0</ele><time>2026-04-13T16:41:06.965Z</time></trkpt><trkpt lat="40.7317347" lon="14.8747668"><ele>618.6</ele><time>2026-04-13T16:41:08.952Z</time></trkpt><trkpt lat="40.7316453" lon="14.8748081"><ele>617.2</ele><time>2026-04-13T16:41:13.981Z</time></trkpt><trkpt lat="40.7315446" lon="14.8748444"><ele>615.8</ele><time>2026-04-13T16:41:15.981Z</time></trkpt><trkpt lat="40.7314437" lon="14.8749426"><ele>614.4</ele><time>2026-04-13T16:41:17.972Z</time></trkpt><trkpt lat="40.7314235" lon="14.8750962"><ele>613.0</ele><time>2026-04-13T16:41:19.97Z</time></trkpt><trkpt lat="40.7314408" lon="14.8751762"><ele>611.5</ele><time>2026-04-13T16:41:21.046Z</time></trkpt><trkpt lat="40.7315435" lon="14.875239"><ele>610.0</ele><time>2026-04-13T16:41:22.971Z</time></trkpt><trkpt lat="40.7316437" lon="14.8752434"><ele>608.5</ele><time>2026-04-13T16:41:23.976Z</time></trkpt><trkpt lat="40.7317137" lon="14.8752277"><ele>607.0</ele><time>2026-04-13T16:41:25.988Z</time></trkpt><trkpt lat="40.7317761" lon="14.8752522"><ele>605.5</ele><time>2026-04-13T16:41:27.98Z</time></trkpt><trkpt lat="40.7318382" lon="14.8753424"><ele>604.0</ele><time>2026-04-13T16:41:29.977Z</time></trkpt><trkpt lat="40.7319589" lon="14.8752786"><ele>609.3333333333334</ele><time>2026-04-13T16:41:32.961Z</time></trkpt><trkpt lat="40.7320328" lon="14.8752152"><ele>614.6666666666666</ele><time>2026-04-13T16:41:36.962Z</time></trkpt><trkpt lat="40.7321455" lon="14.875141"><ele>620.0</ele><time>2026-04-13T16:41:39.062Z</time></trkpt><trkpt lat="40.7323812" lon="14.8750497"><ele>620.0</ele><time>2026-04-13T16:41:40.982Z</time></trkpt><trkpt lat="40.7325066" lon="14.8749932"><ele>620.0</ele><time>2026-04-13T16:41:41.98Z</time></trkpt><trkpt lat="40.7326063" lon="14.8749346"><ele>620.0</ele><time>2026-04-13T16:41:42.959Z</time></trkpt><trkpt lat="40.7326843" lon="14.8748829"><ele>620.0</ele><time>2026-04-13T16:41:43.961Z</time></trkpt><trkpt lat="40.732736" lon="14.8748332"><ele>620.0</ele><time>2026-04-13T16:41:44.958Z</time></trkpt><trkpt lat="40.7327711" lon="14.8747378"><ele>618.8333333333333</ele><time>2026-04-13T16:41:46.96Z</time></trkpt><trkpt lat="40.7327766" lon="14.8746438"><ele>617.6666666666666</ele><time>2026-04-13T16:41:48.046Z</time></trkpt><trkpt lat="40.7327853" lon="14.8745498"><ele>616.5</ele><time>2026-04-13T16:41:49.019Z</time></trkpt><trkpt lat="40.7327699" lon="14.8744247"><ele>615.3333333333334</ele><time>2026-04-13T16:41:51.034Z</time></trkpt><trkpt lat="40.7328439" lon="14.8743761"><ele>614.1666666666667</ele><time>2026-04-13T16:41:53.966Z</time></trkpt><trkpt lat="40.7328922" lon="14.8742548"><ele>613.0</ele><time>2026-04-13T16:41:55.962Z</time></trkpt><trkpt lat="40.7328552" lon="14.8741858"><ele>613.0</ele><time>2026-04-13T16:41:57.963Z</time></trkpt><trkpt lat="40.7327564" lon="14.8742075"><ele>613.0</ele><time>2026-04-13T16:42:00.052Z</time></trkpt><trkpt lat="40.7326547" lon="14.8742533"><ele>613.0</ele><time>2026-04-13T16:42:01.046Z</time></trkpt><trkpt lat="40.7325513" lon="14.8742645"><ele>613.0</ele><time>2026-04-13T16:42:01.953Z</time></trkpt><trkpt lat="40.7324566" lon="14.8742754"><ele>613.0</ele><time>2026-04-13T16:42:02.954Z</time></trkpt><trkpt lat="40.7324024" lon="14.8743692"><ele>614.1666666666667</ele><time>2026-04-13T16:42:04.959Z</time></trkpt><trkpt lat="40.7324594" lon="14.8744179"><ele>615.3333333333334</ele><time>2026-04-13T16:42:09.953Z</time></trkpt><trkpt lat="40.7324596" lon="14.8745258"><ele>616.5</ele><time>2026-04-13T16:42:11.952Z</time></trkpt><trkpt lat="40.7323955" lon="14.8745704"><ele>617.6666666666666</ele><time>2026-04-13T16:42:13.95Z</time></trkpt><trkpt lat="40.7323155" lon="14.8746461"><ele>618.8333333333333</ele><time>2026-04-13T16:42:15.95Z</time></trkpt><trkpt lat="40.7322409" lon="14.8746738"><ele>620.0</ele><time>2026-04-13T16:42:16.956Z</time></trkpt><trkpt lat="40.7321553" lon="14.8746803"><ele>620.0</ele><time>2026-04-13T16:42:17.954Z</time></trkpt><trkpt lat="40.7320795" lon="14.8746605"><ele>620.0</ele><time>2026-04-13T16:42:18.956Z</time></trkpt><trkpt lat="40.7319637" lon="14.8746137"><ele>620.0</ele><time>2026-04-13T16:42:21.045Z</time></trkpt><trkpt lat="40.7318821" lon="14.8745844"><ele>620.0</ele><time>2026-04-13T16:42:22.971Z</time></trkpt><trkpt lat="40.7318002" lon="14.8745862"><ele>620.0</ele><time>2026-04-13T16:42:25.005Z</time></trkpt><trkpt lat="40.7317643" lon="14.8746573"><ele>620.0</ele><time>2026-04-13T16:42:27.963Z</time></trkpt><trkpt lat="40.731702" lon="14.8746969"><ele>618.6</ele><time>2026-04-13T16:42:29.964Z</time></trkpt><trkpt lat="40.7316223" lon="14.8747643"><ele>617.2</ele><time>2026-04-13T16:42:36.081Z</time></trkpt><trkpt lat="40.7315284" lon="14.8748901"><ele>615.8</ele><time>2026-04-13T16:42:37.959Z</time></trkpt><trkpt lat="40.7314769" lon="14.8749588"><ele>614.4</ele><time>2026-04-13T16:42:39.959Z</time></trkpt><trkpt lat="40.7314732" lon="14.8750676"><ele>613.0</ele><time>2026-04-13T16:42:42.962Z</time></trkpt><trkpt lat="40.7315014" lon="14.8751749"><ele>611.5</ele><time>2026-04-13T16:42:44.961Z</time></trkpt><trkpt lat="40.7315677" lon="14.8752111"><ele>610.0</ele><time>2026-04-13T16:42:46.044Z</time></trkpt><trkpt lat="40.7316512" lon="14.8751828"><ele>608.5</ele><time>2026-04-13T16:42:46.96Z</time></trkpt><trkpt lat="40.7317319" lon="14.875159"><ele>607.0</ele><time>2026-04-13T16:42:48.969Z</time></trkpt><trkpt lat="40.7318028" lon="14.8751659"><ele>605.5</ele><time>2026-04-13T16:42:51.05Z</time></trkpt><trkpt lat="40.7318882" lon="14.8752694"><ele>604.0</ele><time>2026-04-13T16:42:52.966Z</time></trkpt><trkpt lat="40.7319356" lon="14.8752004"><ele>606.6666666666667</ele><time>2026-04-13T16:42:55.038Z</time></trkpt><trkpt lat="40.7320116" lon="14.8751193"><ele>609.3333333333334</ele><time>2026-04-13T16:42:56.973Z</time></trkpt><trkpt lat="40.7320793" lon="14.8750524"><ele>612.0</ele><time>2026-04-13T16:42:58.974Z</time></trkpt><trkpt lat="40.7321408" lon="14.8749729"><ele>614.6666666666666</ele><time>2026-04-13T16:43:00.978Z</time></trkpt><trkpt lat="40.7322117" lon="14.8748969"><ele>617.3333333333333</ele><time>2026-04-13T16:43:03.084Z</time></trkpt><trkpt lat="40.7322542" lon="14.8748332"><ele>620.0</ele><time>2026-04-13T16:43:04.04Z</time></trkpt><trkpt lat="40.732298" lon="14.874753"><ele>620.0</ele><time>2026-04-13T16:43:06.04Z</time></trkpt><trkpt lat="40.732353" lon="14.874683"><ele>620.0</ele><time>2026-04-13T16:43:07.959Z</time></trkpt><trkpt lat="40.7324026" lon="14.8746137"><ele>620.0</ele><time>2026-04-13T16:43:10.966Z</time></trkpt><trkpt lat="40.7324812" lon="14.8745934"><ele>620.0</ele><time>2026-04-13T16:44:41.946Z</time></trkpt><trkpt lat="40.7325358" lon="14.8745124"><ele>620.0</ele><time>2026-04-13T16:45:39.968Z</time></trkpt><trkpt lat="40.7325849" lon="14.8744381"><ele>620.0</ele><time>2026-04-13T16:52:17.971Z</time></trkpt><trkpt lat="40.7326539" lon="14.874439"><ele>620.0</ele><time>2026-04-13T16:52:20.977Z</time></trkpt><trkpt lat="40.7327163" lon="14.8743485"><ele>620.0</ele><time>2026-04-13T16:52:23.971Z</time></trkpt><trkpt lat="40.7328132" lon="14.8743259"><ele>620.0</ele><time>2026-04-13T16:52:25.98Z</time></trkpt><trkpt lat="40.7328775" lon="14.8742447"><ele>620.0</ele><time>2026-04-13T16:52:27.99Z</time></trkpt><trkpt lat="40.732836" lon="14.8741458"><ele>620.0</ele><time>2026-04-13T16:52:29.972Z</time></trkpt><trkpt lat="40.7327047" lon="14.8742141"><ele>620.0</ele><time>2026-04-13T16:52:31.971Z</time></trkpt><trkpt lat="40.7325998" lon="14.8742655"><ele>620.0</ele><time>2026-04-13T16:52:32.974Z</time></trkpt><trkpt lat="40.7324805" lon="14.874303"><ele>620.0</ele><time>2026-04-13T16:52:33.973Z</time></trkpt><trkpt lat="40.7323466" lon="14.8743262"><ele>620.0</ele><time>2026-04-13T16:52:35.971Z</time></trkpt><trkpt lat="40.7322691" lon="14.8743462"><ele>620.0</ele><time>2026-04-13T16:52:36.974Z</time></trkpt><trkpt lat="40.7322463" lon="14.8744272"><ele>620.0</ele><time>2026-04-13T16:52:38.976Z</time></trkpt><trkpt lat="40.7323221" lon="14.8744919"><ele>620.0</ele><time>2026-04-13T16:52:41.973Z</time></trkpt><trkpt lat="40.7324154" lon="14.8745219"><ele>620.0</ele><time>2026-04-13T16:52:43.986Z</time></trkpt><trkpt lat="40.7323917" lon="14.8746064"><ele>620.0</ele><time>2026-04-13T16:52:48.98Z</time></trkpt><trkpt lat="40.7323274" lon="14.8746755"><ele>620.0</ele><time>2026-04-13T16:52:55Z</time></trkpt><trkpt lat="40.7322369" lon="14.8746674"><ele>620.0</ele><time>2026-04-13T16:52:57.979Z</time></trkpt><trkpt lat="40.7321534" lon="14.8746653"><ele>620.0</ele><time>2026-04-13T16:53:00.97Z</time></trkpt><trkpt lat="40.7320718" lon="14.8746448"><ele>620.0</ele><time>2026-04-13T16:53:03.975Z</time></trkpt><trkpt lat="40.7319969" lon="14.8746217"><ele>620.0</ele><time>2026-04-13T16:53:06.968Z</time></trkpt><trkpt lat="40.7319298" lon="14.8746945"><ele>620.0</ele><time>2026-04-13T16:53:11.971Z</time></trkpt><trkpt lat="40.7318927" lon="14.8747672"><ele>620.0</ele><time>2026-04-13T16:53:13.976Z</time></trkpt><trkpt lat="40.7318199" lon="14.8747741"><ele>620.0</ele><time>2026-04-13T16:53:16.96Z</time></trkpt><trkpt lat="40.7317187" lon="14.8748368"><ele>618.6</ele><time>2026-04-13T16:53:18.959Z</time></trkpt><trkpt lat="40.7316212" lon="14.8749373"><ele>617.2</ele><time>2026-04-13T16:53:20.957Z</time></trkpt><trkpt lat="40.7315408" lon="14.875103"><ele>615.8</ele><time>2026-04-13T16:53:22.949Z</time></trkpt><trkpt lat="40.7315334" lon="14.8752426"><ele>614.4</ele><time>2026-04-13T16:53:24.964Z</time></trkpt><trkpt lat="40.7315528" lon="14.8753256"><ele>613.0</ele><time>2026-04-13T16:53:25.957Z</time></trkpt><trkpt lat="40.7316287" lon="14.8753668"><ele>611.5</ele><time>2026-04-13T16:53:26.96Z</time></trkpt><trkpt lat="40.7317012" lon="14.8753471"><ele>610.0</ele><time>2026-04-13T16:53:29.046Z</time></trkpt><trkpt lat="40.731766" lon="14.8753273"><ele>608.5</ele><time>2026-04-13T16:53:30.957Z</time></trkpt><trkpt lat="40.7318515" lon="14.8753654"><ele>607.0</ele><time>2026-04-13T16:53:32.946Z</time></trkpt><trkpt lat="40.7319463" lon="14.8753326"><ele>605.5</ele><time>2026-04-13T16:53:34.97Z</time></trkpt><trkpt lat="40.7320295" lon="14.8752533"><ele>604.0</ele><time>2026-04-13T16:53:36.968Z</time></trkpt><trkpt lat="40.7320977" lon="14.8751851"><ele>606.6666666666667</ele><time>2026-04-13T16:53:38.032Z</time></trkpt><trkpt lat="40.7321572" lon="14.8751381"><ele>609.3333333333334</ele><time>2026-04-13T16:53:38.961Z</time></trkpt><trkpt lat="40.7322446" lon="14.8750638"><ele>612.0</ele><time>2026-04-13T16:53:40.966Z</time></trkpt><trkpt lat="40.7323105" lon="14.8750725"><ele>614.6666666666666</ele><time>2026-04-13T16:53:41.96Z</time></trkpt><trkpt lat="40.7323827" lon="14.8750649"><ele>617.3333333333333</ele><time>2026-04-13T16:53:42.959Z</time></trkpt><trkpt lat="40.7324812" lon="14.8750175"><ele>620.0</ele><time>2026-04-13T16:53:44.039Z</time></trkpt><trkpt lat="40.7325957" lon="14.8749518"><ele>620.0</ele><time>2026-04-13T16:53:45.04Z</time></trkpt><trkpt lat="40.7327093" lon="14.8749022"><ele>620.0</ele><time>2026-04-13T16:53:46.038Z</time></trkpt><trkpt lat="40.7327779" lon="14.8748409"><ele>620.0</ele><time>2026-04-13T16:53:46.959Z</time></trkpt><trkpt lat="40.7328065" lon="14.8747534"><ele>620.0</ele><time>2026-04-13T16:53:48.963Z</time></trkpt><trkpt lat="40.7327396" lon="14.8746888"><ele>620.0</ele><time>2026-04-13T16:53:50.963Z</time></trkpt><trkpt lat="40.7327524" lon="14.874514"><ele>620.6666666666666</ele><time>2026-04-13T16:53:52.956Z</time></trkpt><trkpt lat="40.7327509" lon="14.874414"><ele>621.3333333333333</ele><time>2026-04-13T16:53:53.966Z</time></trkpt><trkpt lat="40.7328178" lon="14.8743596"><ele>622.0</ele><time>2026-04-13T16:53:56.959Z</time></trkpt><trkpt lat="40.7328756" lon="14.8742884"><ele>622.6666666666666</ele><time>2026-04-13T16:53:58.953Z</time></trkpt><trkpt lat="40.7329011" lon="14.8742095"><ele>623.3333333333334</ele><time>2026-04-13T16:53:59.956Z</time></trkpt><trkpt lat="40.7327879" lon="14.8741805"><ele>624.0</ele><time>2026-04-13T16:54:02.955Z</time></trkpt><trkpt lat="40.7326881" lon="14.8742451"><ele>623.2</ele><time>2026-04-13T16:54:03.96Z</time></trkpt><trkpt lat="40.7325849" lon="14.8742872"><ele>622.4</ele><time>2026-04-13T16:54:04.977Z</time></trkpt><trkpt lat="40.7324874" lon="14.8743095"><ele>621.6</ele><time>2026-04-13T16:54:05.961Z</time></trkpt><trkpt lat="40.7323721" lon="14.8743075"><ele>620.8</ele><time>2026-04-13T16:54:06.958Z</time></trkpt><trkpt lat="40.7323161" lon="14.8743511"><ele>620.0</ele><time>2026-04-13T16:54:07.967Z</time></trkpt><trkpt lat="40.7323119" lon="14.8744776"><ele>620.0</ele><time>2026-04-13T16:54:10.953Z</time></trkpt><trkpt lat="40.7323617" lon="14.8745317"><ele>620.0</ele><time>2026-04-13T16:54:11.953Z</time></trkpt><trkpt lat="40.7324459" lon="14.8745352"><ele>620.0</ele><time>2026-04-13T16:54:12.959Z</time></trkpt><trkpt lat="40.7324493" lon="14.8746283"><ele>620.0</ele><time>2026-04-13T16:54:15.964Z</time></trkpt><trkpt lat="40.7323711" lon="14.8746581"><ele>620.0</ele><time>2026-04-13T16:54:18.962Z</time></trkpt><trkpt lat="40.7323084" lon="14.8746775"><ele>620.0</ele><time>2026-04-13T16:54:19.951Z</time></trkpt><trkpt lat="40.7322213" lon="14.8746912"><ele>620.0</ele><time>2026-04-13T16:54:20.956Z</time></trkpt><trkpt lat="40.7321475" lon="14.8746867"><ele>620.0</ele><time>2026-04-13T16:54:21.956Z</time></trkpt><trkpt lat="40.7320772" lon="14.8746642"><ele>620.0</ele><time>2026-04-13T16:54:22.945Z</time></trkpt><trkpt lat="40.7319855" lon="14.8745889"><ele>620.0</ele><time>2026-04-13T16:54:24.944Z</time></trkpt><trkpt lat="40.7318847" lon="14.8745298"><ele>620.0</ele><time>2026-04-13T16:54:26.964Z</time></trkpt><trkpt lat="40.731778" lon="14.8745496"><ele>618.8333333333333</ele><time>2026-04-13T16:54:28.971Z</time></trkpt><trkpt lat="40.7317565" lon="14.8746304"><ele>617.6666666666666</ele><time>2026-04-13T16:54:31.957Z</time></trkpt><trkpt lat="40.7317056" lon="14.874684"><ele>616.5</ele><time>2026-04-13T16:54:34.96Z</time></trkpt><trkpt lat="40.7316226" lon="14.8746596"><ele>615.3333333333334</ele><time>2026-04-13T16:54:39.957Z</time></trkpt><trkpt lat="40.7315191" lon="14.8747688"><ele>614.1666666666667</ele><time>2026-04-13T16:54:41.96Z</time></trkpt><trkpt lat="40.7314625" lon="14.8748652"><ele>613.0</ele><time>2026-04-13T16:54:42.956Z</time></trkpt><trkpt lat="40.7314452" lon="14.8749772"><ele>613.0</ele><time>2026-04-13T16:54:43.958Z</time></trkpt><trkpt lat="40.7314389" lon="14.8750635"><ele>613.0</ele><time>2026-04-13T16:54:44.964Z</time></trkpt><trkpt lat="40.7314611" lon="14.8751492"><ele>613.0</ele><time>2026-04-13T16:54:45.966Z</time></trkpt><trkpt lat="40.7315117" lon="14.875203"><ele>613.0</ele><time>2026-04-13T16:54:46.965Z</time></trkpt><trkpt lat="40.7315915" lon="14.8752117"><ele>613.0</ele><time>2026-04-13T16:54:47.961Z</time></trkpt><trkpt lat="40.7316939" lon="14.8752027"><ele>613.0</ele><time>2026-04-13T16:54:49.968Z</time></trkpt><trkpt lat="40.7317987" lon="14.8752035"><ele>614.1666666666667</ele><time>2026-04-13T16:54:51.957Z</time></trkpt><trkpt lat="40.7318657" lon="14.8752499"><ele>615.3333333333334</ele><time>2026-04-13T16:54:52.965Z</time></trkpt><trkpt lat="40.7319547" lon="14.8752659"><ele>616.5</ele><time>2026-04-13T16:54:54.964Z</time></trkpt><trkpt lat="40.7320075" lon="14.8751967"><ele>617.6666666666666</ele><time>2026-04-13T16:54:56.965Z</time></trkpt><trkpt lat="40.7321139" lon="14.875141"><ele>618.8333333333333</ele><time>2026-04-13T16:54:59.022Z</time></trkpt><trkpt lat="40.7321882" lon="14.875106"><ele>620.0</ele><time>2026-04-13T16:55:00.961Z</time></trkpt><trkpt lat="40.732278" lon="14.8750777"><ele>620.0</ele><time>2026-04-13T16:55:02.96Z</time></trkpt><trkpt lat="40.7323829" lon="14.8750625"><ele>620.0</ele><time>2026-04-13T16:55:03.957Z</time></trkpt><trkpt lat="40.7324884" lon="14.875007"><ele>620.0</ele><time>2026-04-13T16:55:04.958Z</time></trkpt><trkpt lat="40.7326029" lon="14.8749292"><ele>620.0</ele><time>2026-04-13T16:55:06.036Z</time></trkpt><trkpt lat="40.7327041" lon="14.8748678"><ele>620.0</ele><time>2026-04-13T16:55:06.962Z</time></trkpt><trkpt lat="40.732756" lon="14.8748114"><ele>620.0</ele><time>2026-04-13T16:55:08.02Z</time></trkpt><trkpt lat="40.7327266" lon="14.8747104"><ele>620.0</ele><time>2026-04-13T16:55:09.955Z</time></trkpt><trkpt lat="40.7327213" lon="14.8745535"><ele>620.0</ele><time>2026-04-13T16:55:11.997Z</time></trkpt><trkpt lat="40.7327428" lon="14.8744439"><ele>620.0</ele><time>2026-04-13T16:55:12.977Z</time></trkpt><trkpt lat="40.732735" lon="14.8743186"><ele>620.0</ele><time>2026-04-13T16:55:15.022Z</time></trkpt><trkpt lat="40.732811" lon="14.8742702"><ele>620.8</ele><time>2026-04-13T16:55:18.033Z</time></trkpt><trkpt lat="40.7329049" lon="14.8741682"><ele>621.6</ele><time>2026-04-13T16:55:19.96Z</time></trkpt><trkpt lat="40.7328578" lon="14.8740958"><ele>622.4</ele><time>2026-04-13T16:55:21.953Z</time></trkpt><trkpt lat="40.7327807" lon="14.8741328"><ele>623.2</ele><time>2026-04-13T16:55:23.954Z</time></trkpt><trkpt lat="40.7327001" lon="14.8741948"><ele>624.0</ele><time>2026-04-13T16:55:24.975Z</time></trkpt><trkpt lat="40.7326223" lon="14.8742317"><ele>624.0</ele><time>2026-04-13T16:55:26.027Z</time></trkpt><trkpt lat="40.7325566" lon="14.8742488"><ele>624.0</ele><time>2026-04-13T16:55:26.987Z</time></trkpt><trkpt lat="40.7324899" lon="14.8742929"><ele>624.0</ele><time>2026-04-13T16:55:27.955Z</time></trkpt><trkpt lat="40.7324489" lon="14.874359"><ele>624.0</ele><time>2026-04-13T16:55:29.964Z</time></trkpt><trkpt lat="40.7325174" lon="14.8744456"><ele>624.0</ele><time>2026-04-13T16:55:35.034Z</time></trkpt><trkpt lat="40.7325115" lon="14.874548"><ele>624.0</ele><time>2026-04-13T16:55:36.951Z</time></trkpt><trkpt lat="40.7324482" lon="14.8746065"><ele>623.2</ele><time>2026-04-13T16:55:38.958Z</time></trkpt><trkpt lat="40.7323248" lon="14.8746597"><ele>622.4</ele><time>2026-04-13T16:55:41.034Z</time></trkpt><trkpt lat="40.7322189" lon="14.8746677"><ele>621.6</ele><time>2026-04-13T16:55:41.957Z</time></trkpt><trkpt lat="40.7321271" lon="14.874655"><ele>620.8</ele><time>2026-04-13T16:55:43.03Z</time></trkpt><trkpt lat="40.732055" lon="14.874633"><ele>620.0</ele><time>2026-04-13T16:55:43.962Z</time></trkpt><trkpt lat="40.731984" lon="14.8746072"><ele>618.6</ele><time>2026-04-13T16:55:44.956Z</time></trkpt><trkpt lat="40.7318735" lon="14.8745678"><ele>617.2</ele><time>2026-04-13T16:55:46.962Z</time></trkpt><trkpt lat="40.7317752" lon="14.8746128"><ele>615.8</ele><time>2026-04-13T16:55:48.966Z</time></trkpt><trkpt lat="40.7317741" lon="14.8747403"><ele>614.4</ele><time>2026-04-13T16:55:52.957Z</time></trkpt><trkpt lat="40.7317781" lon="14.8748314"><ele>613.0</ele><time>2026-04-13T16:55:54.956Z</time></trkpt><trkpt lat="40.7317117" lon="14.8747896"><ele>613.0</ele><time>2026-04-13T16:55:57.96Z</time></trkpt><trkpt lat="40.7316362" lon="14.874798"><ele>613.0</ele><time>2026-04-13T16:55:59.957Z</time></trkpt><trkpt lat="40.7315495" lon="14.874845"><ele>613.0</ele><time>2026-04-13T16:56:01.953Z</time></trkpt><trkpt lat="40.7314494" lon="14.874968"><ele>613.0</ele><time>2026-04-13T16:56:03.955Z</time></trkpt><trkpt lat="40.7314327" lon="14.875114"><ele>613.0</ele><time>2026-04-13T16:56:05.959Z</time></trkpt><trkpt lat="40.7315039" lon="14.8752308"><ele>611.1999999999999</ele><time>2026-04-13T16:56:07.962Z</time></trkpt><trkpt lat="40.7316314" lon="14.8752265"><ele>609.4</ele><time>2026-04-13T16:56:10.03Z</time></trkpt><trkpt lat="40.7316903" lon="14.8751834"><ele>607.5999999999999</ele><time>2026-04-13T16:56:11.957Z</time></trkpt><trkpt lat="40.731768" lon="14.8752166"><ele>605.8</ele><time>2026-04-13T16:56:14.962Z</time></trkpt><trkpt lat="40.7318302" lon="14.8751906"><ele>604.0</ele><time>2026-04-13T16:56:16.961Z</time></trkpt><trkpt lat="40.7319418" lon="14.8751515"><ele>607.2</ele><time>2026-04-13T16:56:18.956Z</time></trkpt><trkpt lat="40.7320648" lon="14.8750865"><ele>610.4</ele><time>2026-04-13T16:56:20.983Z</time></trkpt><trkpt lat="40.7321636" lon="14.8750523"><ele>613.6</ele><time>2026-04-13T16:56:22.958Z</time></trkpt><trkpt lat="40.7322293" lon="14.8750347"><ele>616.8</ele><time>2026-04-13T16:56:23.967Z</time></trkpt><trkpt lat="40.7323206" lon="14.8750072"><ele>620.0</ele><time>2026-04-13T16:56:24.955Z</time></trkpt><trkpt lat="40.7324528" lon="14.8749604"><ele>620.0</ele><time>2026-04-13T16:56:25.957Z</time></trkpt><trkpt lat="40.7325859" lon="14.8749119"><ele>620.0</ele><time>2026-04-13T16:56:26.959Z</time></trkpt><trkpt lat="40.7326963" lon="14.8748753"><ele>620.0</ele><time>2026-04-13T16:56:27.95Z</time></trkpt><trkpt lat="40.7327742" lon="14.8748105"><ele>620.0</ele><time>2026-04-13T16:56:28.958Z</time></trkpt><trkpt lat="40.7327881" lon="14.8747094"><ele>620.0</ele><time>2026-04-13T16:56:30.96Z</time></trkpt><trkpt lat="40.7327797" lon="14.8745845"><ele>618.6</ele><time>2026-04-13T16:56:32.953Z</time></trkpt><trkpt lat="40.7327608" lon="14.8744617"><ele>617.2</ele><time>2026-04-13T16:56:34.996Z</time></trkpt><trkpt lat="40.7328263" lon="14.8743333"><ele>615.8</ele><time>2026-04-13T16:56:37.963Z</time></trkpt><trkpt lat="40.732922" lon="14.8742592"><ele>614.4</ele><time>2026-04-13T16:56:39.963Z</time></trkpt><trkpt lat="40.7328939" lon="14.8741657"><ele>613.0</ele><time>2026-04-13T16:56:41.958Z</time></trkpt><trkpt lat="40.7328177" lon="14.8741495"><ele>613.0</ele><time>2026-04-13T16:56:43.054Z</time></trkpt><trkpt lat="40.7327552" lon="14.8741722"><ele>613.0</ele><time>2026-04-13T16:56:44.044Z</time></trkpt><trkpt lat="40.7326574" lon="14.8742058"><ele>613.0</ele><time>2026-04-13T16:56:44.979Z</time></trkpt><trkpt lat="40.7325545" lon="14.8742457"><ele>613.0</ele><time>2026-04-13T16:56:45.963Z</time></trkpt><trkpt lat="40.7324833" lon="14.8742813"><ele>613.0</ele><time>2026-04-13T16:56:46.966Z</time></trkpt><trkpt lat="40.7323657" lon="14.8742944"><ele>614.1666666666667</ele><time>2026-04-13T16:56:48.966Z</time></trkpt><trkpt lat="40.7324037" lon="14.8743849"><ele>615.3333333333334</ele><time>2026-04-13T16:56:51.971Z</time></trkpt><trkpt lat="40.7324586" lon="14.8744379"><ele>616.5</ele><time>2026-04-13T16:56:54.08Z</time></trkpt><trkpt lat="40.7324504" lon="14.8745549"><ele>617.6666666666666</ele><time>2026-04-13T16:56:56.961Z</time></trkpt><trkpt lat="40.7323784" lon="14.874594"><ele>618.8333333333333</ele><time>2026-04-13T16:56:58.967Z</time></trkpt><trkpt lat="40.7323173" lon="14.8746795"><ele>620.0</ele><time>2026-04-13T16:57:00.965Z</time></trkpt><trkpt lat="40.7322169" lon="14.8746995"><ele>620.0</ele><time>2026-04-13T16:57:02.964Z</time></trkpt><trkpt lat="40.7321537" lon="14.8746719"><ele>620.0</ele><time>2026-04-13T16:57:04.032Z</time></trkpt><trkpt lat="40.7320876" lon="14.8746311"><ele>620.0</ele><time>2026-04-13T16:57:05.032Z</time></trkpt><trkpt lat="40.732017" lon="14.8746035"><ele>620.0</ele><time>2026-04-13T16:57:05.95Z</time></trkpt><trkpt lat="40.7319128" lon="14.8745536"><ele>620.0</ele><time>2026-04-13T16:57:07.965Z</time></trkpt><trkpt lat="40.7318106" lon="14.8745428"><ele>620.0</ele><time>2026-04-13T16:57:09.97Z</time></trkpt><trkpt lat="40.7317498" lon="14.8745778"><ele>618.8333333333333</ele><time>2026-04-13T16:57:11.949Z</time></trkpt><trkpt lat="40.7317386" lon="14.8747103"><ele>617.6666666666666</ele><time>2026-04-13T16:57:15.961Z</time></trkpt><trkpt lat="40.7316912" lon="14.8747713"><ele>616.5</ele><time>2026-04-13T16:57:20.964Z</time></trkpt><trkpt lat="40.7316142" lon="14.8748223"><ele>615.3333333333334</ele><time>2026-04-13T16:57:22.97Z</time></trkpt><trkpt lat="40.7315711" lon="14.8749109"><ele>614.1666666666667</ele><time>2026-04-13T16:57:23.966Z</time></trkpt><trkpt lat="40.7315291" lon="14.8750256"><ele>613.0</ele><time>2026-04-13T16:57:24.966Z</time></trkpt><trkpt lat="40.7315067" lon="14.8751366"><ele>611.5</ele><time>2026-04-13T16:57:25.962Z</time></trkpt><trkpt lat="40.7314967" lon="14.8752282"><ele>610.0</ele><time>2026-04-13T16:57:26.965Z</time></trkpt><trkpt lat="40.7314963" lon="14.8753135"><ele>608.5</ele><time>2026-04-13T16:57:27.961Z</time></trkpt><trkpt lat="40.7315971" lon="14.8753874"><ele>607.0</ele><time>2026-04-13T16:57:29.965Z</time></trkpt><trkpt lat="40.7316813" lon="14.8753096"><ele>605.5</ele><time>2026-04-13T16:57:30.971Z</time></trkpt><trkpt lat="40.7317313" lon="14.8752564"><ele>604.0</ele><time>2026-04-13T16:57:31.964Z</time></trkpt><trkpt lat="40.7317862" lon="14.8751951"><ele>604.0</ele><time>2026-04-13T16:57:33.96Z</time></trkpt><trkpt lat="40.7318602" lon="14.8752541"><ele>604.0</ele><time>2026-04-13T16:57:36.961Z</time></trkpt><trkpt lat="40.7319233" lon="14.8752124"><ele>604.0</ele><time>2026-04-13T16:57:39.968Z</time></trkpt><trkpt lat="40.731983" lon="14.8751789"><ele>604.0</ele><time>2026-04-13T16:57:41.966Z</time></trkpt><trkpt lat="40.7320602" lon="14.8751468"><ele>604.0</ele><time>2026-04-13T16:57:43.973Z</time></trkpt><trkpt lat="40.7321701" lon="14.8751493"><ele>604.0</ele><time>2026-04-13T16:57:45.97Z</time></trkpt><trkpt lat="40.7322804" lon="14.8751243"><ele>608.0</ele><time>2026-04-13T16:57:46.969Z</time></trkpt><trkpt lat="40.7323932" lon="14.8750709"><ele>612.0</ele><time>2026-04-13T16:57:47.967Z</time></trkpt><trkpt lat="40.7325161" lon="14.8749991"><ele>616.0</ele><time>2026-04-13T16:57:49.048Z</time></trkpt><trkpt lat="40.7326272" lon="14.8749307"><ele>620.0</ele><time>2026-04-13T16:57:50.04Z</time></trkpt><trkpt lat="40.7327034" lon="14.8748597"><ele>620.0</ele><time>2026-04-13T16:57:51.033Z</time></trkpt><trkpt lat="40.7327289" lon="14.8747673"><ele>620.0</ele><time>2026-04-13T16:57:52.969Z</time></trkpt><trkpt lat="40.7327121" lon="14.8746845"><ele>620.0</ele><time>2026-04-13T16:57:54.962Z</time></trkpt><trkpt lat="40.7327493" lon="14.874512"><ele>620.0</ele><time>2026-04-13T16:57:56.965Z</time></trkpt><trkpt lat="40.7327544" lon="14.8744275"><ele>620.0</ele><time>2026-04-13T16:57:57.963Z</time></trkpt><trkpt lat="40.7327438" lon="14.8743176"><ele>620.0</ele><time>2026-04-13T16:57:59.969Z</time></trkpt><trkpt lat="40.7328172" lon="14.8743055"><ele>620.0</ele><time>2026-04-13T16:58:01.97Z</time></trkpt><trkpt lat="40.7328734" lon="14.874266"><ele>620.0</ele><time>2026-04-13T16:58:02.968Z</time></trkpt><trkpt lat="40.7329254" lon="14.8741512"><ele>620.0</ele><time>2026-04-13T16:58:04.96Z</time></trkpt><trkpt lat="40.7328432" lon="14.8742203"><ele>620.0</ele><time>2026-04-13T16:58:10.961Z</time></trkpt><trkpt lat="40.7327484" lon="14.8743002"><ele>620.0</ele><time>2026-04-13T16:58:12.961Z</time></trkpt><trkpt lat="40.7326827" lon="14.8743525"><ele>620.0</ele><time>2026-04-13T16:58:14.964Z</time></trkpt><trkpt lat="40.7326208" lon="14.8743883"><ele>620.0</ele><time>2026-04-13T16:58:16.958Z</time></trkpt><trkpt lat="40.7326259" lon="14.8744887"><ele>620.0</ele><time>2026-04-13T16:58:18.961Z</time></trkpt><trkpt lat="40.732577" lon="14.8745517"><ele>620.0</ele><time>2026-04-13T16:58:20.962Z</time></trkpt><trkpt lat="40.732512" lon="14.8746031"><ele>620.0</ele><time>2026-04-13T16:58:22.961Z</time></trkpt><trkpt lat="40.7323657" lon="14.8746519"><ele>620.0</ele><time>2026-04-13T16:58:25.027Z</time></trkpt><trkpt lat="40.7322631" lon="14.8746692"><ele>620.0</ele><time>2026-04-13T16:58:25.96Z</time></trkpt><trkpt lat="40.7321897" lon="14.874664"><ele>620.0</ele><time>2026-04-13T16:58:26.953Z</time></trkpt><trkpt lat="40.7321091" lon="14.8746427"><ele>620.0</ele><time>2026-04-13T16:58:27.953Z</time></trkpt><trkpt lat="40.7320511" lon="14.87461"><ele>620.0</ele><time>2026-04-13T16:58:28.955Z</time></trkpt><trkpt lat="40.7319906" lon="14.8745688"><ele>620.0</ele><time>2026-04-13T16:58:29.961Z</time></trkpt><trkpt lat="40.7318992" lon="14.8745812"><ele>620.0</ele><time>2026-04-13T16:58:31.959Z</time></trkpt><trkpt lat="40.7318329" lon="14.8746101"><ele>620.0</ele><time>2026-04-13T16:58:33.957Z</time></trkpt><trkpt lat="40.731843" lon="14.8747363"><ele>618.8333333333333</ele><time>2026-04-13T16:58:36.958Z</time></trkpt><trkpt lat="40.7317649" lon="14.8748077"><ele>617.6666666666666</ele><time>2026-04-13T16:58:38.954Z</time></trkpt><trkpt lat="40.7316956" lon="14.8747834"><ele>616.5</ele><time>2026-04-13T16:58:42.962Z</time></trkpt><trkpt lat="40.731629" lon="14.874813"><ele>615.3333333333334</ele><time>2026-04-13T16:58:44.963Z</time></trkpt><trkpt lat="40.7315728" lon="14.8748582"><ele>614.1666666666667</ele><time>2026-04-13T16:58:45.96Z</time></trkpt><trkpt lat="40.7315047" lon="14.8749544"><ele>613.0</ele><time>2026-04-13T16:58:48.963Z</time></trkpt><trkpt lat="40.7315118" lon="14.8750485"><ele>611.5</ele><time>2026-04-13T16:58:51.034Z</time></trkpt><trkpt lat="40.7314991" lon="14.8751862"><ele>610.0</ele><time>2026-04-13T16:58:52.961Z</time></trkpt><trkpt lat="40.7315061" lon="14.8753028"><ele>608.5</ele><time>2026-04-13T16:58:54.961Z</time></trkpt><trkpt lat="40.7314926" lon="14.8754053"><ele>607.0</ele><time>2026-04-13T16:58:58.995Z</time></trkpt><trkpt lat="40.7315545" lon="14.8754309"><ele>605.5</ele><time>2026-04-13T16:59:00.963Z</time></trkpt><trkpt lat="40.7316397" lon="14.8754249"><ele>604.0</ele><time>2026-04-13T16:59:01.962Z</time></trkpt><trkpt lat="40.731729" lon="14.8753957"><ele>604.0</ele><time>2026-04-13T16:59:02.952Z</time></trkpt><trkpt lat="40.7318246" lon="14.8753429"><ele>604.0</ele><time>2026-04-13T16:59:03.956Z</time></trkpt><trkpt lat="40.7319202" lon="14.8753077"><ele>604.0</ele><time>2026-04-13T16:59:04.957Z</time></trkpt><trkpt lat="40.7320068" lon="14.8752677"><ele>604.0</ele><time>2026-04-13T16:59:06.041Z</time></trkpt><trkpt lat="40.7321009" lon="14.8752175"><ele>604.0</ele><time>2026-04-13T16:59:06.959Z</time></trkpt><trkpt lat="40.7321837" lon="14.875176"><ele>607.2</ele><time>2026-04-13T16:59:07.965Z</time></trkpt><trkpt lat="40.7322529" lon="14.8751296"><ele>610.4</ele><time>2026-04-13T16:59:09.069Z</time></trkpt><trkpt lat="40.7323712" lon="14.8750636"><ele>613.6</ele><time>2026-04-13T16:59:11.028Z</time></trkpt><trkpt lat="40.7324885" lon="14.8750179"><ele>616.8</ele><time>2026-04-13T16:59:12.966Z</time></trkpt><trkpt lat="40.7325608" lon="14.8749717"><ele>620.0</ele><time>2026-04-13T16:59:13.988Z</time></trkpt><trkpt lat="40.7326353" lon="14.8749094"><ele>620.0</ele><time>2026-04-13T16:59:15.033Z</time></trkpt><trkpt lat="40.7327112" lon="14.8748615"><ele>620.0</ele><time>2026-04-13T16:59:16.026Z</time></trkpt><trkpt lat="40.7328049" lon="14.8747854"><ele>620.0</ele><time>2026-04-13T16:59:17.96Z</time></trkpt><trkpt lat="40.7328221" lon="14.8747052"><ele>620.0</ele><time>2026-04-13T16:59:20.968Z</time></trkpt><trkpt lat="40.7328343" lon="14.8745602"><ele>620.0</ele><time>2026-04-13T16:59:22.961Z</time></trkpt><trkpt lat="40.7328413" lon="14.8744485"><ele>620.6666666666666</ele><time>2026-04-13T16:59:24.966Z</time></trkpt><trkpt lat="40.7328939" lon="14.874377"><ele>621.3333333333333</ele><time>2026-04-13T16:59:29.036Z</time></trkpt><trkpt lat="40.7329312" lon="14.8742861"><ele>622.0</ele><time>2026-04-13T16:59:31.005Z</time></trkpt><trkpt lat="40.7329241" lon="14.8741969"><ele>622.6666666666666</ele><time>2026-04-13T16:59:33.958Z</time></trkpt><trkpt lat="40.7328335" lon="14.87422"><ele>623.3333333333334</ele><time>2026-04-13T16:59:35.957Z</time></trkpt><trkpt lat="40.7327611" lon="14.8742362"><ele>624.0</ele><time>2026-04-13T16:59:36.963Z</time></trkpt><trkpt lat="40.7326812" lon="14.8742537"><ele>623.3333333333334</ele><time>2026-04-13T16:59:37.961Z</time></trkpt><trkpt lat="40.7326002" lon="14.8742964"><ele>622.6666666666666</ele><time>2026-04-13T16:59:38.967Z</time></trkpt><trkpt lat="40.7325325" lon="14.8744185"><ele>622.0</ele><time>2026-04-13T16:59:40.962Z</time></trkpt><trkpt lat="40.7325752" lon="14.8745237"><ele>621.3333333333333</ele><time>2026-04-13T17:05:55.959Z</time></trkpt><trkpt lat="40.7325263" lon="14.8744655"><ele>620.6666666666666</ele><time>2026-04-13T17:06:00.962Z</time></trkpt><trkpt lat="40.732491" lon="14.8743861"><ele>620.0</ele><time>2026-04-13T17:06:03.962Z</time></trkpt><trkpt lat="40.7324663" lon="14.8742938"><ele>620.6666666666666</ele><time>2026-04-13T17:06:05.948Z</time></trkpt><trkpt lat="40.7324341" lon="14.8741918"><ele>621.3333333333333</ele><time>2026-04-13T17:06:07.963Z</time></trkpt><trkpt lat="40.7323889" lon="14.8740763"><ele>622.0</ele><time>2026-04-13T17:06:09.962Z</time></trkpt><trkpt lat="40.7323497" lon="14.8739991"><ele>622.6666666666666</ele><time>2026-04-13T17:06:10.966Z</time></trkpt><trkpt lat="40.7323021" lon="14.873938"><ele>623.3333333333334</ele><time>2026-04-13T17:06:11.956Z</time></trkpt><trkpt lat="40.7322393" lon="14.8738938"><ele>624.0</ele><time>2026-04-13T17:06:13.047Z</time></trkpt><trkpt lat="40.7321678" lon="14.8738472"><ele>624.0</ele><time>2026-04-13T17:06:14.045Z</time></trkpt><trkpt lat="40.7320986" lon="14.8737854"><ele>624.0</ele><time>2026-04-13T17:06:15.042Z</time></trkpt><trkpt lat="40.7320291" lon="14.873721"><ele>624.0</ele><time>2026-04-13T17:06:16.038Z</time></trkpt><trkpt lat="40.731957" lon="14.8736571"><ele>624.0</ele><time>2026-04-13T17:06:16.959Z</time></trkpt><trkpt lat="40.7318834" lon="14.8735864"><ele>624.0</ele><time>2026-04-13T17:06:17.957Z</time></trkpt><trkpt lat="40.7318219" lon="14.8735255"><ele>624.0</ele><time>2026-04-13T17:06:19.002Z</time></trkpt><trkpt lat="40.7317272" lon="14.8734283"><ele>624.8</ele><time>2026-04-13T17:06:21.04Z</time></trkpt><trkpt lat="40.731673" lon="14.873385"><ele>625.5999999999999</ele><time>2026-04-13T17:06:21.958Z</time></trkpt><trkpt lat="40.7316173" lon="14.8733451"><ele>626.4</ele><time>2026-04-13T17:06:22.954Z</time></trkpt><trkpt lat="40.7315231" lon="14.8732546"><ele>627.1999999999999</ele><time>2026-04-13T17:06:25.037Z</time></trkpt><trkpt lat="40.7314235" lon="14.8731462"><ele>628.0</ele><time>2026-04-13T17:06:26.955Z</time></trkpt><trkpt lat="40.7313593" lon="14.8730203"><ele>628.0</ele><time>2026-04-13T17:06:28.963Z</time></trkpt><trkpt lat="40.7313043" lon="14.8728673"><ele>628.0</ele><time>2026-04-13T17:06:30.957Z</time></trkpt><trkpt lat="40.731273" lon="14.8727821"><ele>628.0</ele><time>2026-04-13T17:06:31.957Z</time></trkpt><trkpt lat="40.7312468" lon="14.8726961"><ele>628.0</ele><time>2026-04-13T17:06:32.947Z</time></trkpt><trkpt lat="40.7312345" lon="14.8725834"><ele>628.0</ele><time>2026-04-13T17:06:34.024Z</time></trkpt><trkpt lat="40.7312228" lon="14.8724996"><ele>628.0</ele><time>2026-04-13T17:06:35.051Z</time></trkpt><trkpt lat="40.7311979" lon="14.8724161"><ele>628.6666666666667</ele><time>2026-04-13T17:06:36.03Z</time></trkpt><trkpt lat="40.7311703" lon="14.8723101"><ele>629.3333333333334</ele><time>2026-04-13T17:06:36.967Z</time></trkpt><trkpt lat="40.7311498" lon="14.872207"><ele>630.0</ele><time>2026-04-13T17:06:37.97Z</time></trkpt><trkpt lat="40.7311231" lon="14.8721072"><ele>630.6666666666666</ele><time>2026-04-13T17:06:38.965Z</time></trkpt><trkpt lat="40.7310926" lon="14.871998"><ele>631.3333333333333</ele><time>2026-04-13T17:06:39.966Z</time></trkpt><trkpt lat="40.7310675" lon="14.8718924"><ele>632.0</ele><time>2026-04-13T17:06:40.964Z</time></trkpt><trkpt lat="40.7310456" lon="14.8718119"><ele>630.8000000000001</ele><time>2026-04-13T17:06:41.969Z</time></trkpt><trkpt lat="40.7310385" lon="14.8716728"><ele>629.6</ele><time>2026-04-13T17:06:43.966Z</time></trkpt><trkpt lat="40.7310623" lon="14.871595"><ele>628.4000000000001</ele><time>2026-04-13T17:06:45.039Z</time></trkpt><trkpt lat="40.7310908" lon="14.8714507"><ele>627.2</ele><time>2026-04-13T17:06:46.982Z</time></trkpt><trkpt lat="40.7310721" lon="14.8713275"><ele>626.0</ele><time>2026-04-13T17:06:48.955Z</time></trkpt><trkpt lat="40.7310514" lon="14.8712166"><ele>626.0</ele><time>2026-04-13T17:06:50.955Z</time></trkpt><trkpt lat="40.7310691" lon="14.8710495"><ele>626.0</ele><time>2026-04-13T17:06:53.043Z</time></trkpt><trkpt lat="40.7310711" lon="14.8709636"><ele>626.0</ele><time>2026-04-13T17:06:53.971Z</time></trkpt><trkpt lat="40.7310936" lon="14.8708667"><ele>626.0</ele><time>2026-04-13T17:06:54.956Z</time></trkpt><trkpt lat="40.7311035" lon="14.8707687"><ele>626.0</ele><time>2026-04-13T17:06:55.962Z</time></trkpt><trkpt lat="40.7310989" lon="14.8706785"><ele>626.0</ele><time>2026-04-13T17:06:56.963Z</time></trkpt><trkpt lat="40.7311398" lon="14.8705639"><ele>625.5</ele><time>2026-04-13T17:06:59.07Z</time></trkpt><trkpt lat="40.7311813" lon="14.8704997"><ele>625.0</ele><time>2026-04-13T17:07:01.029Z</time></trkpt><trkpt lat="40.7310439" lon="14.8705366"><ele>624.5</ele><time>2026-04-13T17:07:03.96Z</time></trkpt><trkpt lat="40.730933" lon="14.8705838"><ele>624.0</ele><time>2026-04-13T17:07:04.96Z</time></trkpt><trkpt lat="40.7308042" lon="14.870662"><ele>616.75</ele><time>2026-04-13T17:07:05.959Z</time></trkpt><trkpt lat="40.7306773" lon="14.8707435"><ele>609.5</ele><time>2026-04-13T17:07:06.955Z</time></trkpt><trkpt lat="40.730571" lon="14.8707937"><ele>602.25</ele><time>2026-04-13T17:07:07.96Z</time></trkpt><trkpt lat="40.7304552" lon="14.8708093"><ele>595.0</ele><time>2026-04-13T17:07:08.982Z</time></trkpt><trkpt lat="40.730326" lon="14.8708386"><ele>594.0</ele><time>2026-04-13T17:07:09.958Z</time></trkpt><trkpt lat="40.7301984" lon="14.8708987"><ele>593.0</ele><time>2026-04-13T17:07:10.968Z</time></trkpt><trkpt lat="40.7300629" lon="14.8709765"><ele>592.0</ele><time>2026-04-13T17:07:11.964Z</time></trkpt><trkpt lat="40.7299219" lon="14.8710534"><ele>591.0</ele><time>2026-04-13T17:07:12.962Z</time></trkpt><trkpt lat="40.7297907" lon="14.8711308"><ele>585.75</ele><time>2026-04-13T17:07:13.959Z</time></trkpt><trkpt lat="40.7296749" lon="14.8712087"><ele>580.5</ele><time>2026-04-13T17:07:14.964Z</time></trkpt><trkpt lat="40.7295583" lon="14.8712796"><ele>575.25</ele><time>2026-04-13T17:07:15.973Z</time></trkpt><trkpt lat="40.7294511" lon="14.8713468"><ele>570.0</ele><time>2026-04-13T17:07:16.96Z</time></trkpt><trkpt lat="40.7293449" lon="14.8714301"><ele>568.5</ele><time>2026-04-13T17:07:17.961Z</time></trkpt><trkpt lat="40.7292522" lon="14.8715207"><ele>567.0</ele><time>2026-04-13T17:07:18.962Z</time></trkpt><trkpt lat="40.7291678" lon="14.8716148"><ele>565.5</ele><time>2026-04-13T17:07:19.96Z</time></trkpt><trkpt lat="40.7290787" lon="14.87171"><ele>564.0</ele><time>2026-04-13T17:07:20.964Z</time></trkpt><trkpt lat="40.7289804" lon="14.8718025"><ele>560.5</ele><time>2026-04-13T17:07:21.965Z</time></trkpt><trkpt lat="40.7288826" lon="14.8719005"><ele>557.0</ele><time>2026-04-13T17:07:22.964Z</time></trkpt><trkpt lat="40.728782" lon="14.8719937"><ele>553.5</ele><time>2026-04-13T17:07:23.962Z</time></trkpt><trkpt lat="40.7286888" lon="14.8720887"><ele>550.0</ele><time>2026-04-13T17:07:25.036Z</time></trkpt><trkpt lat="40.7285999" lon="14.8721768"><ele>550.4</ele><time>2026-04-13T17:07:26.035Z</time></trkpt><trkpt lat="40.7285104" lon="14.8722564"><ele>550.8</ele><time>2026-04-13T17:07:26.957Z</time></trkpt><trkpt lat="40.7284138" lon="14.8723421"><ele>551.2</ele><time>2026-04-13T17:07:27.952Z</time></trkpt><trkpt lat="40.7283288" lon="14.8724298"><ele>551.6</ele><time>2026-04-13T17:07:28.978Z</time></trkpt><trkpt lat="40.7282539" lon="14.8725149"><ele>552.0</ele><time>2026-04-13T17:07:30.041Z</time></trkpt><trkpt lat="40.7281851" lon="14.8726004"><ele>547.4</ele><time>2026-04-13T17:07:30.957Z</time></trkpt><trkpt lat="40.7281328" lon="14.8726929"><ele>542.8000000000001</ele><time>2026-04-13T17:07:31.964Z</time></trkpt><trkpt lat="40.7280758" lon="14.8727835"><ele>538.2</ele><time>2026-04-13T17:07:32.964Z</time></trkpt><trkpt lat="40.7280147" lon="14.8728839"><ele>533.6</ele><time>2026-04-13T17:07:33.974Z</time></trkpt><trkpt lat="40.7279503" lon="14.8729834"><ele>529.0</ele><time>2026-04-13T17:07:35.033Z</time></trkpt><trkpt lat="40.7278936" lon="14.8730855"><ele>529.0</ele><time>2026-04-13T17:07:36.032Z</time></trkpt><trkpt lat="40.7278315" lon="14.8731919"><ele>529.0</ele><time>2026-04-13T17:07:36.967Z</time></trkpt><trkpt lat="40.7277689" lon="14.8732894"><ele>529.0</ele><time>2026-04-13T17:07:37.967Z</time></trkpt><trkpt lat="40.7277081" lon="14.8733953"><ele>529.0</ele><time>2026-04-13T17:07:38.982Z</time></trkpt><trkpt lat="40.7276391" lon="14.8735012"><ele>529.0</ele><time>2026-04-13T17:07:40.038Z</time></trkpt><trkpt lat="40.7275504" lon="14.8736128"><ele>523.8</ele><time>2026-04-13T17:07:41.038Z</time></trkpt><trkpt lat="40.727464" lon="14.8737129"><ele>518.5999999999999</ele><time>2026-04-13T17:07:41.957Z</time></trkpt><trkpt lat="40.727384" lon="14.8738076"><ele>513.4</ele><time>2026-04-13T17:07:42.96Z</time></trkpt><trkpt lat="40.7272964" lon="14.8738985"><ele>508.2</ele><time>2026-04-13T17:07:43.969Z</time></trkpt><trkpt lat="40.7272091" lon="14.8739927"><ele>503.0</ele><time>2026-04-13T17:07:45.041Z</time></trkpt><trkpt lat="40.7271252" lon="14.8740713"><ele>502.99999999999994</ele><time>2026-04-13T17:07:46.057Z</time></trkpt><trkpt lat="40.7270478" lon="14.8741245"><ele>503.0</ele><time>2026-04-13T17:07:46.955Z</time></trkpt><trkpt lat="40.7269762" lon="14.8741397"><ele>503.0</ele><time>2026-04-13T17:07:47.954Z</time></trkpt><trkpt lat="40.7269075" lon="14.8741497"><ele>503.0</ele><time>2026-04-13T17:07:48.961Z</time></trkpt><trkpt lat="40.7267937" lon="14.87414"><ele>502.99999999999994</ele><time>2026-04-13T17:07:51.038Z</time></trkpt><trkpt lat="40.7267077" lon="14.8741002"><ele>503.0</ele><time>2026-04-13T17:07:52.954Z</time></trkpt><trkpt lat="40.7266278" lon="14.8740707"><ele>502.66666666666663</ele><time>2026-04-13T17:07:56.05Z</time></trkpt><trkpt lat="40.726558" lon="14.8741359"><ele>502.3333333333333</ele><time>2026-04-13T17:07:58.967Z</time></trkpt><trkpt lat="40.7265522" lon="14.8742287"><ele>502.0</ele><time>2026-04-13T17:08:03.042Z</time></trkpt><trkpt lat="40.7266315" lon="14.8743261"><ele>501.66666666666663</ele><time>2026-04-13T17:08:04.963Z</time></trkpt><trkpt lat="40.7266925" lon="14.8743761"><ele>501.3333333333333</ele><time>2026-04-13T17:08:05.962Z</time></trkpt><trkpt lat="40.7267592" lon="14.8744236"><ele>501.0</ele><time>2026-04-13T17:08:06.961Z</time></trkpt><trkpt lat="40.7268145" lon="14.8744721"><ele>496.0</ele><time>2026-04-13T17:08:08.962Z</time></trkpt><trkpt lat="40.72673" lon="14.8745864"><ele>491.0</ele><time>2026-04-13T17:08:11.959Z</time></trkpt><trkpt lat="40.7266641" lon="14.8746312"><ele>486.0</ele><time>2026-04-13T17:08:12.961Z</time></trkpt><trkpt lat="40.7265906" lon="14.8746741"><ele>481.0</ele><time>2026-04-13T17:08:13.981Z</time></trkpt><trkpt lat="40.726487" lon="14.8747021"><ele>476.0</ele><time>2026-04-13T17:08:14.966Z</time></trkpt><trkpt lat="40.726398" lon="14.8746984"><ele>475.99999999999994</ele><time>2026-04-13T17:08:15.959Z</time></trkpt><trkpt lat="40.7263214" lon="14.8746658"><ele>476.0</ele><time>2026-04-13T17:08:16.965Z</time></trkpt><trkpt lat="40.7262596" lon="14.8746208"><ele>476.0</ele><time>2026-04-13T17:08:18.045Z</time></trkpt><trkpt lat="40.7261638" lon="14.8745105"><ele>476.0</ele><time>2026-04-13T17:08:20.032Z</time></trkpt><trkpt lat="40.7261148" lon="14.8744327"><ele>475.99999999999994</ele><time>2026-04-13T17:08:21.04Z</time></trkpt><trkpt lat="40.7260612" lon="14.8743377"><ele>476.0</ele><time>2026-04-13T17:08:21.958Z</time></trkpt><trkpt lat="40.7260125" lon="14.8742438"><ele>472.75</ele><time>2026-04-13T17:08:22.959Z</time></trkpt><trkpt lat="40.7259698" lon="14.8741386"><ele>469.5</ele><time>2026-04-13T17:08:24.079Z</time></trkpt><trkpt lat="40.7259036" lon="14.8738905"><ele>466.25</ele><time>2026-04-13T17:08:26.034Z</time></trkpt><trkpt lat="40.7258809" lon="14.8737393"><ele>463.0</ele><time>2026-04-13T17:08:26.963Z</time></trkpt><trkpt lat="40.7258602" lon="14.873577"><ele>464.25</ele><time>2026-04-13T17:08:27.961Z</time></trkpt><trkpt lat="40.7258355" lon="14.8734085"><ele>465.5</ele><time>2026-04-13T17:08:28.973Z</time></trkpt><trkpt lat="40.7258053" lon="14.8732367"><ele>466.75</ele><time>2026-04-13T17:08:30.039Z</time></trkpt><trkpt lat="40.7257738" lon="14.8730741"><ele>468.0</ele><time>2026-04-13T17:08:31.05Z</time></trkpt><trkpt lat="40.725745" lon="14.8729088"><ele>468.0</ele><time>2026-04-13T17:08:31.95Z</time></trkpt><trkpt lat="40.725724" lon="14.8727478"><ele>468.0</ele><time>2026-04-13T17:08:32.953Z</time></trkpt><trkpt lat="40.7257136" lon="14.8725924"><ele>468.0</ele><time>2026-04-13T17:08:33.953Z</time></trkpt><trkpt lat="40.725703" lon="14.8724436"><ele>468.0</ele><time>2026-04-13T17:08:35.035Z</time></trkpt><trkpt lat="40.7256762" lon="14.8723067"><ele>467.4</ele><time>2026-04-13T17:08:35.961Z</time></trkpt><trkpt lat="40.7256522" lon="14.8721878"><ele>466.79999999999995</ele><time>2026-04-13T17:08:36.966Z</time></trkpt><trkpt lat="40.7256309" lon="14.8720742"><ele>466.2</ele><time>2026-04-13T17:08:37.961Z</time></trkpt><trkpt lat="40.7255904" lon="14.8719696"><ele>465.6</ele><time>2026-04-13T17:08:38.961Z</time></trkpt><trkpt lat="40.7255366" lon="14.8718764"><ele>465.0</ele><time>2026-04-13T17:08:39.951Z</time></trkpt><trkpt lat="40.7254787" lon="14.87178"><ele>463.8</ele><time>2026-04-13T17:08:40.958Z</time></trkpt><trkpt lat="40.7254259" lon="14.8716729"><ele>462.6</ele><time>2026-04-13T17:08:41.954Z</time></trkpt><trkpt lat="40.725385" lon="14.8715357"><ele>461.4</ele><time>2026-04-13T17:08:42.963Z</time></trkpt><trkpt lat="40.7253499" lon="14.871387"><ele>460.2</ele><time>2026-04-13T17:08:43.957Z</time></trkpt><trkpt lat="40.7253223" lon="14.8712541"><ele>459.0</ele><time>2026-04-13T17:08:45.038Z</time></trkpt><trkpt lat="40.7252885" lon="14.8711476"><ele>453.79999999999995</ele><time>2026-04-13T17:08:46.041Z</time></trkpt><trkpt lat="40.7252286" lon="14.8710865"><ele>448.59999999999997</ele><time>2026-04-13T17:08:46.956Z</time></trkpt><trkpt lat="40.7251397" lon="14.8710623"><ele>443.4</ele><time>2026-04-13T17:08:47.959Z</time></trkpt><trkpt lat="40.7250193" lon="14.871061"><ele>438.2</ele><time>2026-04-13T17:08:48.955Z</time></trkpt><trkpt lat="40.7248973" lon="14.8710254"><ele>433.0</ele><time>2026-04-13T17:08:49.955Z</time></trkpt><trkpt lat="40.7247841" lon="14.8709831"><ele>432.79999999999995</ele><time>2026-04-13T17:08:50.955Z</time></trkpt><trkpt lat="40.7246799" lon="14.8709408"><ele>432.59999999999997</ele><time>2026-04-13T17:08:51.981Z</time></trkpt><trkpt lat="40.724592" lon="14.8709112"><ele>432.40000000000003</ele><time>2026-04-13T17:08:52.958Z</time></trkpt><trkpt lat="40.7245099" lon="14.8708854"><ele>432.20000000000005</ele><time>2026-04-13T17:08:53.958Z</time></trkpt><trkpt lat="40.7244222" lon="14.8708797"><ele>432.0</ele><time>2026-04-13T17:08:54.955Z</time></trkpt><trkpt lat="40.7243148" lon="14.8708931"><ele>432.0</ele><time>2026-04-13T17:08:55.955Z</time></trkpt><trkpt lat="40.7242093" lon="14.8709041"><ele>432.00000000000006</ele><time>2026-04-13T17:08:56.955Z</time></trkpt><trkpt lat="40.7241003" lon="14.8709118"><ele>432.00000000000006</ele><time>2026-04-13T17:08:57.963Z</time></trkpt><trkpt lat="40.723998" lon="14.8709032"><ele>432.0</ele><time>2026-04-13T17:08:58.958Z</time></trkpt><trkpt lat="40.7239092" lon="14.8708624"><ele>432.0</ele><time>2026-04-13T17:08:59.96Z</time></trkpt><trkpt lat="40.7238143" lon="14.8708124"><ele>432.0</ele><time>2026-04-13T17:09:01.039Z</time></trkpt><trkpt lat="40.7237233" lon="14.870744"><ele>432.00000000000006</ele><time>2026-04-13T17:09:01.957Z</time></trkpt><trkpt lat="40.7236425" lon="14.8706621"><ele>432.00000000000006</ele><time>2026-04-13T17:09:02.962Z</time></trkpt><trkpt lat="40.7235784" lon="14.8705936"><ele>432.0</ele><time>2026-04-13T17:09:03.968Z</time></trkpt><trkpt lat="40.7235335" lon="14.8705257"><ele>432.0</ele><time>2026-04-13T17:09:05.032Z</time></trkpt><trkpt lat="40.7234235" lon="14.8705271"><ele>429.20000000000005</ele><time>2026-04-13T17:09:06.951Z</time></trkpt><trkpt lat="40.7233574" lon="14.8706155"><ele>426.40000000000003</ele><time>2026-04-13T17:09:07.958Z</time></trkpt><trkpt lat="40.7232795" lon="14.8707268"><ele>423.6</ele><time>2026-04-13T17:09:09.052Z</time></trkpt><trkpt lat="40.7231868" lon="14.8708134"><ele>420.79999999999995</ele><time>2026-04-13T17:09:10.048Z</time></trkpt><trkpt lat="40.7230949" lon="14.8709108"><ele>418.0</ele><time>2026-04-13T17:09:11.024Z</time></trkpt><trkpt lat="40.7230017" lon="14.8709972"><ele>415.25</ele><time>2026-04-13T17:09:11.955Z</time></trkpt><trkpt lat="40.7229166" lon="14.8710688"><ele>412.5</ele><time>2026-04-13T17:09:12.955Z</time></trkpt><trkpt lat="40.7228383" lon="14.8711397"><ele>409.75</ele><time>2026-04-13T17:09:14.079Z</time></trkpt><trkpt lat="40.7227001" lon="14.8712431"><ele>407.0</ele><time>2026-04-13T17:09:15.955Z</time></trkpt><trkpt lat="40.7226099" lon="14.8713177"><ele>405.8</ele><time>2026-04-13T17:09:17.955Z</time></trkpt><trkpt lat="40.7225474" lon="14.8713332"><ele>404.6</ele><time>2026-04-13T17:09:19.028Z</time></trkpt><trkpt lat="40.7224498" lon="14.8713191"><ele>403.40000000000003</ele><time>2026-04-13T17:09:20.033Z</time></trkpt><trkpt lat="40.7223478" lon="14.8712938"><ele>402.20000000000005</ele><time>2026-04-13T17:09:21.038Z</time></trkpt><trkpt lat="40.7222285" lon="14.8712663"><ele>401.0</ele><time>2026-04-13T17:09:21.957Z</time></trkpt><trkpt lat="40.7221123" lon="14.8712548"><ele>401.0</ele><time>2026-04-13T17:09:22.961Z</time></trkpt><trkpt lat="40.721984" lon="14.8712216"><ele>401.0</ele><time>2026-04-13T17:09:23.962Z</time></trkpt><trkpt lat="40.7218583" lon="14.8712029"><ele>401.0</ele><time>2026-04-13T17:09:25.047Z</time></trkpt><trkpt lat="40.7217219" lon="14.8712071"><ele>401.0</ele><time>2026-04-13T17:09:26.041Z</time></trkpt><trkpt lat="40.7215978" lon="14.8712107"><ele>398.6</ele><time>2026-04-13T17:09:26.95Z</time></trkpt><trkpt lat="40.7214791" lon="14.8712162"><ele>396.20000000000005</ele><time>2026-04-13T17:09:27.955Z</time></trkpt><trkpt lat="40.7213685" lon="14.8712024"><ele>393.79999999999995</ele><time>2026-04-13T17:09:28.982Z</time></trkpt><trkpt lat="40.7212837" lon="14.8711432"><ele>391.4</ele><time>2026-04-13T17:09:29.955Z</time></trkpt><trkpt lat="40.7212143" lon="14.8710827"><ele>389.0</ele><time>2026-04-13T17:09:30.954Z</time></trkpt><trkpt lat="40.7211613" lon="14.8710363"><ele>386.5</ele><time>2026-04-13T17:09:31.953Z</time></trkpt><trkpt lat="40.7210603" lon="14.8709714"><ele>384.0</ele><time>2026-04-13T17:09:34.036Z</time></trkpt><trkpt lat="40.7209713" lon="14.87099"><ele>381.5</ele><time>2026-04-13T17:09:36.026Z</time></trkpt><trkpt lat="40.7209588" lon="14.8711952"><ele>379.0</ele><time>2026-04-13T17:09:37.96Z</time></trkpt><trkpt lat="40.7210078" lon="14.8714127"><ele>379.0</ele><time>2026-04-13T17:09:38.946Z</time></trkpt><trkpt lat="40.7210581" lon="14.8716318"><ele>379.0</ele><time>2026-04-13T17:09:39.96Z</time></trkpt><trkpt lat="40.7210942" lon="14.8718309"><ele>379.0</ele><time>2026-04-13T17:09:40.985Z</time></trkpt><trkpt lat="40.7211408" lon="14.8719777"><ele>379.0</ele><time>2026-04-13T17:09:41.957Z</time></trkpt><trkpt lat="40.7212227" lon="14.8720901"><ele>379.75</ele><time>2026-04-13T17:09:43.051Z</time></trkpt><trkpt lat="40.7213079" lon="14.8721995"><ele>380.5</ele><time>2026-04-13T17:09:43.954Z</time></trkpt><trkpt lat="40.7213606" lon="14.8723353"><ele>381.25</ele><time>2026-04-13T17:09:44.953Z</time></trkpt><trkpt lat="40.7214022" lon="14.8724962"><ele>382.0</ele><time>2026-04-13T17:09:45.958Z</time></trkpt><trkpt lat="40.7214346" lon="14.8726549"><ele>380.0</ele><time>2026-04-13T17:09:46.95Z</time></trkpt><trkpt lat="40.7214552" lon="14.8728053"><ele>378.0</ele><time>2026-04-13T17:09:47.956Z</time></trkpt><trkpt lat="40.72146" lon="14.872945"><ele>376.0</ele><time>2026-04-13T17:09:48.978Z</time></trkpt><trkpt lat="40.7214528" lon="14.8730948"><ele>374.0</ele><time>2026-04-13T17:09:50.043Z</time></trkpt><trkpt lat="40.7214455" lon="14.8732401"><ele>372.0</ele><time>2026-04-13T17:09:50.989Z</time></trkpt><trkpt lat="40.7214397" lon="14.8733736"><ele>370.40000000000003</ele><time>2026-04-13T17:09:51.961Z</time></trkpt><trkpt lat="40.7214561" lon="14.8734946"><ele>368.8</ele><time>2026-04-13T17:09:52.967Z</time></trkpt><trkpt lat="40.721483" lon="14.8735873"><ele>367.2</ele><time>2026-04-13T17:09:54.037Z</time></trkpt><trkpt lat="40.7214965" lon="14.8737179"><ele>365.6</ele><time>2026-04-13T17:09:55.965Z</time></trkpt><trkpt lat="40.7213883" lon="14.87377"><ele>364.0</ele><time>2026-04-13T17:09:57.975Z</time></trkpt><trkpt lat="40.7213087" lon="14.8737992"><ele>364.0</ele><time>2026-04-13T17:09:58.98Z</time></trkpt><trkpt lat="40.7212328" lon="14.873827"><ele>364.0</ele><time>2026-04-13T17:09:59.961Z</time></trkpt><trkpt lat="40.7211656" lon="14.8738468"><ele>364.0</ele><time>2026-04-13T17:10:01.034Z</time></trkpt><trkpt lat="40.7211013" lon="14.8738744"><ele>364.0</ele><time>2026-04-13T17:10:01.958Z</time></trkpt><trkpt lat="40.7210289" lon="14.8739029"><ele>364.0</ele><time>2026-04-13T17:10:02.963Z</time></trkpt><trkpt lat="40.7209481" lon="14.8739269"><ele>364.0</ele><time>2026-04-13T17:10:04.052Z</time></trkpt><trkpt lat="40.7208699" lon="14.8739483"><ele>361.8333333333333</ele><time>2026-04-13T17:10:05.046Z</time></trkpt><trkpt lat="40.7207983" lon="14.8739674"><ele>359.66666666666663</ele><time>2026-04-13T17:10:05.956Z</time></trkpt><trkpt lat="40.7207087" lon="14.8739871"><ele>357.5</ele><time>2026-04-13T17:10:07.956Z</time></trkpt><trkpt lat="40.7206588" lon="14.8739044"><ele>355.3333333333333</ele><time>2026-04-13T17:10:09.974Z</time></trkpt><trkpt lat="40.7206574" lon="14.873807"><ele>353.1666666666667</ele><time>2026-04-13T17:10:10.954Z</time></trkpt><trkpt lat="40.7206441" lon="14.8737086"><ele>351.0</ele><time>2026-04-13T17:10:11.96Z</time></trkpt><trkpt lat="40.7206539" lon="14.8736147"><ele>351.0</ele><time>2026-04-13T17:10:13.96Z</time></trkpt><trkpt lat="40.7207104" lon="14.8736547"><ele>351.0</ele><time>2026-04-13T17:10:18.954Z</time></trkpt><trkpt lat="40.7207608" lon="14.8735404"><ele>351.0</ele><time>2026-04-13T17:11:22.959Z</time></trkpt><trkpt lat="40.7208164" lon="14.8735796"><ele>351.0</ele><time>2026-04-13T17:11:40.953Z</time></trkpt><trkpt lat="40.7207471" lon="14.8736366"><ele>351.0</ele><time>2026-04-13T17:13:12.998Z</time></trkpt><trkpt lat="40.7206513" lon="14.8736899"><ele>351.0</ele><time>2026-04-13T17:13:13.983Z</time></trkpt><trkpt lat="40.7205621" lon="14.8737365"><ele>351.0</ele><time>2026-04-13T17:13:14.943Z</time></trkpt><trkpt lat="40.7204563" lon="14.8737767"><ele>351.0</ele><time>2026-04-13T17:13:15.967Z</time></trkpt><trkpt lat="40.7203421" lon="14.8738379"><ele>351.0</ele><time>2026-04-13T17:13:16.944Z</time></trkpt><trkpt lat="40.7202148" lon="14.8739173"><ele>351.0</ele><time>2026-04-13T17:13:17.946Z</time></trkpt><trkpt lat="40.7200668" lon="14.8740035"><ele>342.5</ele><time>2026-04-13T17:13:18.946Z</time></trkpt><trkpt lat="40.7199331" lon="14.8740254"><ele>334.0</ele><time>2026-04-13T17:13:19.939Z</time></trkpt><trkpt lat="40.7196144" lon="14.874029"><ele>334.0</ele><time>2026-04-13T17:13:21.946Z</time></trkpt><trkpt lat="40.7194508" lon="14.8740484"><ele>334.0</ele><time>2026-04-13T17:13:22.941Z</time></trkpt><trkpt lat="40.7193073" lon="14.8740793"><ele>334.0</ele><time>2026-04-13T17:13:23.938Z</time></trkpt><trkpt lat="40.7191924" lon="14.8741875"><ele>328.0</ele><time>2026-04-13T17:13:24.941Z</time></trkpt></trkseg></trk></gpx>